<?xml version='1.0' encoding='UTF-8'?><gpx version="1.1" creator="JPX - https://github.com/jenetics/jpx" xmlns="http://www.topografix.com/GPX/1/1"><trk><trkseg><trkpt lat="44.296945917492025" lon="10.828561985540267"><ele>849.0</ele><time>2026-04-04T14:20:41Z</time></trkpt><trkpt lat="44.296896443594626" lon="10.828623367392408"><ele>849.0</ele><time>2026-04-04T14:20:42Z</time></trkpt><trkpt lat="44.296937957658166" lon="10.828727053087329"><ele>849.0</ele><time>2026-04-04T14:20:46Z</time></trkpt><trkpt lat="44.29700286386344" lon="10.828766223578533"><ele>849.0</ele><time>2026-04-04T14:20:47Z</time></trkpt><trkpt lat="44.29706235061088" lon="10.828819300057136"><ele>849.0</ele><time>2026-04-04T14:20:48Z</time></trkpt><trkpt lat="44.2971026411631" lon="10.828924605663138"><ele>849.0</ele><time>2026-04-04T14:20:49Z</time></trkpt><trkpt lat="44.29716005904413" lon="10.829011522706892"><ele>849.0</ele><time>2026-04-04T14:20:50Z</time></trkpt><trkpt lat="44.297212708788614" lon="10.829079089957954"><ele>849.0</ele><time>2026-04-04T14:20:51Z</time></trkpt><trkpt lat="44.2972923941028" lon="10.829163660960798"><ele>849.0</ele><time>2026-04-04T14:20:53Z</time></trkpt><trkpt lat="44.29712553719029" lon="10.829233074498969"><ele>849.0</ele><time>2026-04-04T14:20:56Z</time></trkpt><trkpt lat="44.29705449625819" lon="10.829276284985301"><ele>849.0</ele><time>2026-04-04T14:20:57Z</time></trkpt><trkpt lat="44.29699253702682" lon="10.829322413139721"><ele>849.75</ele><time>2026-04-04T14:20:58Z</time></trkpt><trkpt lat="44.297015032081624" lon="10.829483861555484"><ele>850.5</ele><time>2026-04-04T14:20:59.999Z</time></trkpt><trkpt lat="44.29703562140345" lon="10.829585766605158"><ele>851.25</ele><time>2026-04-04T14:21:02.999Z</time></trkpt><trkpt lat="44.296867334322066" lon="10.829646478130197"><ele>852.0</ele><time>2026-04-04T14:21:03.999Z</time></trkpt><trkpt lat="44.296777268396745" lon="10.829747692087516"><ele>852.0</ele><time>2026-04-04T14:21:04.999Z</time></trkpt><trkpt lat="44.296667408663694" lon="10.829872600264633"><ele>852.0</ele><time>2026-04-04T14:21:05.999Z</time></trkpt><trkpt lat="44.296523970523374" lon="10.830031418419901"><ele>852.0</ele><time>2026-04-04T14:21:06.999Z</time></trkpt><trkpt lat="44.2964108348895" lon="10.830144050891914"><ele>852.2</ele><time>2026-04-04T14:21:07.999Z</time></trkpt><trkpt lat="44.29631102032226" lon="10.830238506180741"><ele>852.4000000000001</ele><time>2026-04-04T14:21:08.999Z</time></trkpt><trkpt lat="44.296229142652976" lon="10.830323958836637"><ele>852.5999999999999</ele><time>2026-04-04T14:21:09.999Z</time></trkpt><trkpt lat="44.29614556906438" lon="10.830422463043114"><ele>852.8</ele><time>2026-04-04T14:21:10.999Z</time></trkpt><trkpt lat="44.296089400384105" lon="10.83052806233441"><ele>853.0</ele><time>2026-04-04T14:21:11.999Z</time></trkpt><trkpt lat="44.29603615476677" lon="10.830600807276289"><ele>853.0</ele><time>2026-04-04T14:21:12.999Z</time></trkpt><trkpt lat="44.29598060694186" lon="10.830648418103058"><ele>853.0</ele><time>2026-04-04T14:21:13.999Z</time></trkpt><trkpt lat="44.295932639360906" lon="10.83072053003875"><ele>853.0</ele><time>2026-04-04T14:21:15.999Z</time></trkpt><trkpt lat="44.29602638415794" lon="10.83088404484803"><ele>853.0</ele><time>2026-04-04T14:21:16.999Z</time></trkpt><trkpt lat="44.29608856687955" lon="10.830969983604456"><ele>853.0</ele><time>2026-04-04T14:21:17.999Z</time></trkpt><trkpt lat="44.29615404929345" lon="10.831063387638693"><ele>851.5</ele><time>2026-04-04T14:21:18.999Z</time></trkpt><trkpt lat="44.296232293050146" lon="10.831176400237235"><ele>850.0</ele><time>2026-04-04T14:21:19.999Z</time></trkpt><trkpt lat="44.29632459618128" lon="10.831314457817202"><ele>848.5</ele><time>2026-04-04T14:21:20.999Z</time></trkpt><trkpt lat="44.29643675557891" lon="10.831488863881335"><ele>847.0</ele><time>2026-04-04T14:21:22.001Z</time></trkpt><trkpt lat="44.296520285804995" lon="10.831645281767495"><ele>847.0</ele><time>2026-04-04T14:21:23.001Z</time></trkpt><trkpt lat="44.29660298137757" lon="10.831791542962268"><ele>847.0</ele><time>2026-04-04T14:21:24.001Z</time></trkpt><trkpt lat="44.29670169662648" lon="10.831928884978652"><ele>847.0</ele><time>2026-04-04T14:21:25.001Z</time></trkpt><trkpt lat="44.29680043308768" lon="10.832009179967427"><ele>847.0</ele><time>2026-04-04T14:21:26.001Z</time></trkpt><trkpt lat="44.29690387819989" lon="10.83206521438065"><ele>845.2</ele><time>2026-04-04T14:21:27.001Z</time></trkpt><trkpt lat="44.29701653099602" lon="10.83210136443712"><ele>843.4000000000001</ele><time>2026-04-04T14:21:28.001Z</time></trkpt><trkpt lat="44.29711482049499" lon="10.832174639553328"><ele>841.5999999999999</ele><time>2026-04-04T14:21:29.001Z</time></trkpt><trkpt lat="44.29718833363207" lon="10.832276843708831"><ele>839.8</ele><time>2026-04-04T14:21:30Z</time></trkpt><trkpt lat="44.29724874518144" lon="10.832383079706645"><ele>838.0</ele><time>2026-04-04T14:21:31Z</time></trkpt><trkpt lat="44.29734430061648" lon="10.83255653018704"><ele>836.5</ele><time>2026-04-04T14:21:32Z</time></trkpt><trkpt lat="44.29742199830043" lon="10.832686340493632"><ele>835.0</ele><time>2026-04-04T14:21:33Z</time></trkpt><trkpt lat="44.29751089980256" lon="10.832790266416243"><ele>833.5</ele><time>2026-04-04T14:21:34Z</time></trkpt><trkpt lat="44.29758937121217" lon="10.832919919813122"><ele>832.0</ele><time>2026-04-04T14:21:35Z</time></trkpt><trkpt lat="44.297688669165204" lon="10.833017933503651"><ele>832.0</ele><time>2026-04-04T14:21:36Z</time></trkpt><trkpt lat="44.29777757434749" lon="10.833086442901092"><ele>832.0</ele><time>2026-04-04T14:21:37Z</time></trkpt><trkpt lat="44.29786856212828" lon="10.833144662768369"><ele>832.0</ele><time>2026-04-04T14:21:38Z</time></trkpt><trkpt lat="44.29795845560355" lon="10.833201995629246"><ele>832.0</ele><time>2026-04-04T14:21:39Z</time></trkpt><trkpt lat="44.29803897139517" lon="10.833258977749981"><ele>832.0</ele><time>2026-04-04T14:21:40Z</time></trkpt><trkpt lat="44.29809415803412" lon="10.833346588867311"><ele>830.75</ele><time>2026-04-04T14:21:41Z</time></trkpt><trkpt lat="44.29809989424008" lon="10.833463875631994"><ele>829.5</ele><time>2026-04-04T14:21:42Z</time></trkpt><trkpt lat="44.29812092729891" lon="10.833576333484636"><ele>828.25</ele><time>2026-04-04T14:21:43Z</time></trkpt><trkpt lat="44.29813768589437" lon="10.833700018116069"><ele>827.0</ele><time>2026-04-04T14:21:45Z</time></trkpt><trkpt lat="44.29847501856484" lon="10.833800756173803"><ele>827.0</ele><time>2026-04-04T14:21:51Z</time></trkpt><trkpt lat="44.298551220937604" lon="10.833736134964452"><ele>827.0</ele><time>2026-04-04T14:23:00.999Z</time></trkpt><trkpt lat="44.29861799663941" lon="10.833648905230952"><ele>827.0</ele><time>2026-04-04T14:23:02.999Z</time></trkpt><trkpt lat="44.298709707676764" lon="10.833623820565617"><ele>827.0</ele><time>2026-04-04T14:23:04.999Z</time></trkpt><trkpt lat="44.298774558481995" lon="10.833694089258454"><ele>827.0</ele><time>2026-04-04T14:23:06.999Z</time></trkpt><trkpt lat="44.29884454919443" lon="10.833858572187184"><ele>827.0000000000001</ele><time>2026-04-04T14:23:08.999Z</time></trkpt><trkpt lat="44.29890183431899" lon="10.833928447120343"><ele>827.0</ele><time>2026-04-04T14:23:09.999Z</time></trkpt><trkpt lat="44.29894958220364" lon="10.833989612325812"><ele>827.0</ele><time>2026-04-04T14:23:10.999Z</time></trkpt><trkpt lat="44.29901763526674" lon="10.834018740587576"><ele>827.0</ele><time>2026-04-04T14:23:12.999Z</time></trkpt><trkpt lat="44.29910305201726" lon="10.83397487416641"><ele>827.0000000000001</ele><time>2026-04-04T14:23:15.999Z</time></trkpt><trkpt lat="44.29918704289979" lon="10.833944401155303"><ele>827.0</ele><time>2026-04-04T14:23:18.999Z</time></trkpt><trkpt lat="44.299247569436936" lon="10.833913890602803"><ele>825.8333333333334</ele><time>2026-04-04T14:23:20.999Z</time></trkpt><trkpt lat="44.29930693409395" lon="10.833870750657024"><ele>824.6666666666667</ele><time>2026-04-04T14:23:22.999Z</time></trkpt><trkpt lat="44.29937751477187" lon="10.833813112916571"><ele>823.5</ele><time>2026-04-04T14:23:25.999Z</time></trkpt><trkpt lat="44.2994610304764" lon="10.833746765610794"><ele>822.3333333333333</ele><time>2026-04-04T14:23:29Z</time></trkpt><trkpt lat="44.29952457144692" lon="10.833706922747847"><ele>821.1666666666666</ele><time>2026-04-04T14:23:32Z</time></trkpt><trkpt lat="44.29958075512819" lon="10.833766537320155"><ele>820.0</ele><time>2026-04-04T14:23:35Z</time></trkpt><trkpt lat="44.29964846243216" lon="10.833863268155575"><ele>816.8333333333333</ele><time>2026-04-04T14:23:37Z</time></trkpt><trkpt lat="44.299753504144945" lon="10.83386912539439"><ele>813.6666666666666</ele><time>2026-04-04T14:23:39Z</time></trkpt><trkpt lat="44.299826073222334" lon="10.833837706987262"><ele>810.5</ele><time>2026-04-04T14:23:41Z</time></trkpt><trkpt lat="44.29988466846607" lon="10.833756167910481"><ele>807.3333333333333</ele><time>2026-04-04T14:23:43Z</time></trkpt><trkpt lat="44.29992947223944" lon="10.833655373928027"><ele>804.1666666666666</ele><time>2026-04-04T14:23:45Z</time></trkpt><trkpt lat="44.29997029407535" lon="10.83355300638427"><ele>801.0</ele><time>2026-04-04T14:23:47Z</time></trkpt><trkpt lat="44.300008106707615" lon="10.833456204221045"><ele>800.6666666666666</ele><time>2026-04-04T14:23:57Z</time></trkpt><trkpt lat="44.30002098542804" lon="10.833352070293504"><ele>800.3333333333333</ele><time>2026-04-04T14:23:58Z</time></trkpt><trkpt lat="44.30003581164948" lon="10.833240340579643"><ele>800.0</ele><time>2026-04-04T14:23:59Z</time></trkpt><trkpt lat="44.300078858417606" lon="10.83310609343274"><ele>799.6666666666666</ele><time>2026-04-04T14:24:01Z</time></trkpt><trkpt lat="44.30015277454602" lon="10.833054918361839"><ele>799.3333333333333</ele><time>2026-04-04T14:24:03Z</time></trkpt><trkpt lat="44.30019066985926" lon="10.833169642595452"><ele>799.0</ele><time>2026-04-04T14:24:06Z</time></trkpt><trkpt lat="44.3001696807682" lon="10.83328085728595"><ele>798.9999999999999</ele><time>2026-04-04T14:24:08Z</time></trkpt><trkpt lat="44.30024101692524" lon="10.83333168529081"><ele>799.0</ele><time>2026-04-04T14:24:10Z</time></trkpt><trkpt lat="44.300309085297386" lon="10.833362765902574"><ele>799.0</ele><time>2026-04-04T14:24:11Z</time></trkpt><trkpt lat="44.30035577445066" lon="10.833431758703444"><ele>799.0</ele><time>2026-04-04T14:24:12Z</time></trkpt><trkpt lat="44.30044614825756" lon="10.833547720046585"><ele>798.9999999999999</ele><time>2026-04-04T14:24:14Z</time></trkpt><trkpt lat="44.30048720813216" lon="10.833678043746177"><ele>799.0</ele><time>2026-04-04T14:24:16Z</time></trkpt><trkpt lat="44.300389647975976" lon="10.833723253756723"><ele>799.4000000000001</ele><time>2026-04-04T14:24:18Z</time></trkpt><trkpt lat="44.30025802984727" lon="10.833809633978978"><ele>799.8</ele><time>2026-04-04T14:24:20Z</time></trkpt><trkpt lat="44.30021655510877" lon="10.833884575075267"><ele>800.2</ele><time>2026-04-04T14:24:21Z</time></trkpt><trkpt lat="44.30018835986464" lon="10.834045026844935"><ele>800.5999999999999</ele><time>2026-04-04T14:24:23Z</time></trkpt><trkpt lat="44.30018593435858" lon="10.834199325111356"><ele>801.0</ele><time>2026-04-04T14:24:25Z</time></trkpt><trkpt lat="44.30024378689195" lon="10.834357788342633"><ele>801.1999999999999</ele><time>2026-04-04T14:24:27Z</time></trkpt><trkpt lat="44.30030893461422" lon="10.834465809656965"><ele>801.4</ele><time>2026-04-04T14:24:28.999Z</time></trkpt><trkpt lat="44.30038851456786" lon="10.834577542156627"><ele>801.6</ele><time>2026-04-04T14:24:30.999Z</time></trkpt><trkpt lat="44.30046253818062" lon="10.834689965040313"><ele>801.8</ele><time>2026-04-04T14:24:32.999Z</time></trkpt><trkpt lat="44.300523637937964" lon="10.83476410466703"><ele>802.0</ele><time>2026-04-04T14:24:34.999Z</time></trkpt><trkpt lat="44.30058662681012" lon="10.8348300363811"><ele>801.1666666666666</ele><time>2026-04-04T14:24:36.999Z</time></trkpt><trkpt lat="44.30063468495862" lon="10.834887353102884"><ele>800.3333333333333</ele><time>2026-04-04T14:24:37.999Z</time></trkpt><trkpt lat="44.30070448900327" lon="10.834990693359568"><ele>799.5</ele><time>2026-04-04T14:24:39.999Z</time></trkpt><trkpt lat="44.300750576787344" lon="10.835070977629565"><ele>798.6666666666667</ele><time>2026-04-04T14:24:41.999Z</time></trkpt><trkpt lat="44.30080175433962" lon="10.835139526512359"><ele>797.8333333333334</ele><time>2026-04-04T14:24:43.999Z</time></trkpt><trkpt lat="44.30090276415135" lon="10.835206581549425"><ele>797.0</ele><time>2026-04-04T14:24:46.999Z</time></trkpt><trkpt lat="44.30095654852436" lon="10.835256324194972"><ele>795.6666666666667</ele><time>2026-04-04T14:24:47.999Z</time></trkpt><trkpt lat="44.301014427943706" lon="10.835357036275678"><ele>794.3333333333334</ele><time>2026-04-04T14:24:49.999Z</time></trkpt><trkpt lat="44.30107679925457" lon="10.835436316969572"><ele>793.0</ele><time>2026-04-04T14:24:51.999Z</time></trkpt><trkpt lat="44.30113340728178" lon="10.835519353620908"><ele>791.6666666666667</ele><time>2026-04-04T14:24:53.999Z</time></trkpt><trkpt lat="44.301164518957656" lon="10.835621680524895"><ele>790.3333333333334</ele><time>2026-04-04T14:24:55.999Z</time></trkpt><trkpt lat="44.301160082979074" lon="10.835739717816729"><ele>789.0</ele><time>2026-04-04T14:24:57.999Z</time></trkpt><trkpt lat="44.30113725888385" lon="10.835823927904961"><ele>789.0</ele><time>2026-04-04T14:25:00.999Z</time></trkpt><trkpt lat="44.30101496011384" lon="10.835959816661834"><ele>789.0</ele><time>2026-04-04T14:25:39Z</time></trkpt><trkpt lat="44.30095784994283" lon="10.836053667405178"><ele>789.0</ele><time>2026-04-04T14:25:41Z</time></trkpt><trkpt lat="44.30092528661152" lon="10.836145579710342"><ele>789.0</ele><time>2026-04-04T14:25:43Z</time></trkpt><trkpt lat="44.30091577969959" lon="10.836273708781029"><ele>789.0</ele><time>2026-04-04T14:25:46Z</time></trkpt><trkpt lat="44.30090185985323" lon="10.836428396515906"><ele>787.0</ele><time>2026-04-04T14:25:48Z</time></trkpt><trkpt lat="44.300915933452345" lon="10.836567759889364"><ele>785.0</ele><time>2026-04-04T14:25:50Z</time></trkpt><trkpt lat="44.30096360700693" lon="10.83671001598176"><ele>783.0</ele><time>2026-04-04T14:25:52Z</time></trkpt><trkpt lat="44.300976958336" lon="10.836814379198016"><ele>781.0</ele><time>2026-04-04T14:25:53Z</time></trkpt><trkpt lat="44.301009176460276" lon="10.836911483876651"><ele>779.0</ele><time>2026-04-04T14:25:56Z</time></trkpt><trkpt lat="44.30109044192416" lon="10.836951576874903"><ele>776.8000000000001</ele><time>2026-04-04T14:25:59Z</time></trkpt><trkpt lat="44.301167300803925" lon="10.837023613573797"><ele>774.6</ele><time>2026-04-04T14:26:01Z</time></trkpt><trkpt lat="44.30124592567925" lon="10.837100874850536"><ele>772.4</ele><time>2026-04-04T14:26:03Z</time></trkpt><trkpt lat="44.30131916255117" lon="10.837196197335842"><ele>770.2</ele><time>2026-04-04T14:26:05Z</time></trkpt><trkpt lat="44.30139855083909" lon="10.837252109271608"><ele>768.0</ele><time>2026-04-04T14:26:07Z</time></trkpt><trkpt lat="44.30146782816348" lon="10.837320229210995"><ele>766.3333333333334</ele><time>2026-04-04T14:26:09Z</time></trkpt><trkpt lat="44.30153418117995" lon="10.837427962850938"><ele>764.6666666666666</ele><time>2026-04-04T14:26:11Z</time></trkpt><trkpt lat="44.30157422405863" lon="10.837499827650232"><ele>763.0</ele><time>2026-04-04T14:26:12Z</time></trkpt><trkpt lat="44.301613814754276" lon="10.837568365080916"><ele>761.3333333333333</ele><time>2026-04-04T14:26:14Z</time></trkpt><trkpt lat="44.30169287077331" lon="10.837662630259468"><ele>759.6666666666666</ele><time>2026-04-04T14:26:15.999Z</time></trkpt><trkpt lat="44.30175149496543" lon="10.83777755116361"><ele>758.0</ele><time>2026-04-04T14:26:17.999Z</time></trkpt><trkpt lat="44.30180809322859" lon="10.837842959342735"><ele>755.5999999999999</ele><time>2026-04-04T14:26:19.999Z</time></trkpt><trkpt lat="44.301867968930715" lon="10.837932858326031"><ele>753.1999999999999</ele><time>2026-04-04T14:26:21.999Z</time></trkpt><trkpt lat="44.30191596128989" lon="10.838073234043621"><ele>750.8</ele><time>2026-04-04T14:26:23.999Z</time></trkpt><trkpt lat="44.30194956902246" lon="10.838198060458952"><ele>748.4</ele><time>2026-04-04T14:26:25.999Z</time></trkpt><trkpt lat="44.30200953233008" lon="10.838310953474974"><ele>746.0</ele><time>2026-04-04T14:26:27.999Z</time></trkpt><trkpt lat="44.3021062389881" lon="10.838337252927337"><ele>746.0</ele><time>2026-04-04T14:26:29.999Z</time></trkpt><trkpt lat="44.30219909559865" lon="10.838335184616719"><ele>746.0</ele><time>2026-04-04T14:26:31.999Z</time></trkpt><trkpt lat="44.30226148193612" lon="10.83843440556938"><ele>746.0</ele><time>2026-04-04T14:26:33.999Z</time></trkpt><trkpt lat="44.30225159291765" lon="10.838565805248743"><ele>746.0</ele><time>2026-04-04T14:26:35.999Z</time></trkpt><trkpt lat="44.302241333053836" lon="10.838689538033798"><ele>746.0</ele><time>2026-04-04T14:26:37.999Z</time></trkpt><trkpt lat="44.30228486725004" lon="10.838827670413396"><ele>743.0</ele><time>2026-04-04T14:26:39.999Z</time></trkpt><trkpt lat="44.3023331435181" lon="10.838976903125255"><ele>740.0</ele><time>2026-04-04T14:26:41.999Z</time></trkpt><trkpt lat="44.30237950124293" lon="10.839109743653355"><ele>737.0</ele><time>2026-04-04T14:26:43.999Z</time></trkpt><trkpt lat="44.302460741401994" lon="10.839100890983602"><ele>734.0</ele><time>2026-04-04T14:26:45.999Z</time></trkpt><trkpt lat="44.30250886139578" lon="10.839223265272853"><ele>731.0</ele><time>2026-04-04T14:26:47.999Z</time></trkpt><trkpt lat="44.30252387102015" lon="10.839359181586868"><ele>730.0</ele><time>2026-04-04T14:26:49.999Z</time></trkpt><trkpt lat="44.30253088340021" lon="10.839453111929707"><ele>729.0</ele><time>2026-04-04T14:26:52.999Z</time></trkpt><trkpt lat="44.3024996698216" lon="10.839609173075832"><ele>728.0</ele><time>2026-04-04T14:26:55.999Z</time></trkpt><trkpt lat="44.302433609168666" lon="10.839744357199859"><ele>727.0</ele><time>2026-04-04T14:26:57.999Z</time></trkpt><trkpt lat="44.30237020022146" lon="10.839853577092448"><ele>726.0</ele><time>2026-04-04T14:26:59.999Z</time></trkpt><trkpt lat="44.30239913583171" lon="10.839980359877321"><ele>726.0</ele><time>2026-04-04T14:27:01.999Z</time></trkpt><trkpt lat="44.30248603995468" lon="10.839935196974888"><ele>726.0</ele><time>2026-04-04T14:27:04.999Z</time></trkpt><trkpt lat="44.30256570309894" lon="10.839852854171841"><ele>726.0</ele><time>2026-04-04T14:27:06.999Z</time></trkpt><trkpt lat="44.30261862843744" lon="10.839791035813487"><ele>726.0</ele><time>2026-04-04T14:27:26.999Z</time></trkpt><trkpt lat="44.302687175088515" lon="10.83970125093015"><ele>726.0</ele><time>2026-04-04T14:27:28.999Z</time></trkpt><trkpt lat="44.30273926167354" lon="10.83962101010666"><ele>726.0</ele><time>2026-04-04T14:27:30.999Z</time></trkpt><trkpt lat="44.302817088207846" lon="10.839649166775363"><ele>726.0</ele><time>2026-04-04T14:27:33.999Z</time></trkpt><trkpt lat="44.30291981546324" lon="10.839646615032494"><ele>726.0</ele><time>2026-04-04T14:27:36.999Z</time></trkpt><trkpt lat="44.302991203688336" lon="10.839630126863916"><ele>726.0</ele><time>2026-04-04T14:27:39Z</time></trkpt><trkpt lat="44.30305331903532" lon="10.83970157500472"><ele>726.0</ele><time>2026-04-04T14:27:42Z</time></trkpt><trkpt lat="44.30310905051824" lon="10.83979079731742"><ele>726.0</ele><time>2026-04-04T14:27:44Z</time></trkpt><trkpt lat="44.30317458899404" lon="10.83983641634088"><ele>726.0</ele><time>2026-04-04T14:27:47Z</time></trkpt><trkpt lat="44.30324660208331" lon="10.839878081491475"><ele>724.1428571428571</ele><time>2026-04-04T14:27:51Z</time></trkpt><trkpt lat="44.30330817351188" lon="10.839903001605407"><ele>722.2857142857142</ele><time>2026-04-04T14:27:53Z</time></trkpt><trkpt lat="44.30338360177867" lon="10.839924377038768"><ele>720.4285714285713</ele><time>2026-04-04T14:27:56Z</time></trkpt><trkpt lat="44.303438832649185" lon="10.839975455291455"><ele>718.5714285714286</ele><time>2026-04-04T14:28:02Z</time></trkpt><trkpt lat="44.3034766147856" lon="10.840046636161281"><ele>716.7142857142858</ele><time>2026-04-04T14:28:06Z</time></trkpt><trkpt lat="44.30351978303096" lon="10.840150527060088"><ele>714.8571428571428</ele><time>2026-04-04T14:28:10Z</time></trkpt><trkpt lat="44.303565031194005" lon="10.840252078545811"><ele>713.0</ele><time>2026-04-04T14:28:13Z</time></trkpt><trkpt lat="44.30354697939052" lon="10.840344956935978"><ele>712.5</ele><time>2026-04-04T14:28:16.999Z</time></trkpt><trkpt lat="44.303543491681125" lon="10.840443953716598"><ele>712.0</ele><time>2026-04-04T14:28:21.999Z</time></trkpt><trkpt lat="44.303566230562225" lon="10.840527436024392"><ele>711.5</ele><time>2026-04-04T14:28:28.999Z</time></trkpt><trkpt lat="44.30359474777319" lon="10.840612507088844"><ele>711.0</ele><time>2026-04-04T14:28:31.999Z</time></trkpt><trkpt lat="44.303665792981896" lon="10.840664788843876"><ele>710.5</ele><time>2026-04-04T14:28:39.999Z</time></trkpt><trkpt lat="44.303739068653506" lon="10.840742102486988"><ele>710.0</ele><time>2026-04-04T14:28:42.999Z</time></trkpt><trkpt lat="44.303808587465774" lon="10.840796346014892"><ele>710.0</ele><time>2026-04-04T14:28:46.999Z</time></trkpt><trkpt lat="44.30385387602255" lon="10.840734030123482"><ele>710.0</ele><time>2026-04-04T14:28:50.999Z</time></trkpt><trkpt lat="44.30388689961208" lon="10.840630381640294"><ele>710.0</ele><time>2026-04-04T14:28:53.999Z</time></trkpt><trkpt lat="44.303914876177856" lon="10.840497523621952"><ele>710.0</ele><time>2026-04-04T14:28:57.999Z</time></trkpt><trkpt lat="44.30392446394267" lon="10.840395118073454"><ele>710.0</ele><time>2026-04-04T14:28:59.999Z</time></trkpt><trkpt lat="44.303953696438086" lon="10.840310545796383"><ele>710.0</ele><time>2026-04-04T14:29:01.999Z</time></trkpt><trkpt lat="44.30402624286307" lon="10.840223327079748"><ele>706.0</ele><time>2026-04-04T14:29:03.999Z</time></trkpt><trkpt lat="44.304046486211135" lon="10.840136999529198"><ele>702.0</ele><time>2026-04-04T14:29:05.999Z</time></trkpt><trkpt lat="44.30410212530231" lon="10.840051958796947"><ele>698.0</ele><time>2026-04-04T14:29:08.999Z</time></trkpt><trkpt lat="44.30411954543999" lon="10.839944272291158"><ele>694.0</ele><time>2026-04-04T14:29:11.999Z</time></trkpt><trkpt lat="44.30415704266252" lon="10.839845894191464"><ele>690.0</ele><time>2026-04-04T14:29:15.999Z</time></trkpt><trkpt lat="44.30406051312811" lon="10.83978564326884"><ele>686.0</ele><time>2026-04-04T14:29:18.999Z</time></trkpt><trkpt lat="44.30401895917143" lon="10.839718024846293"><ele>686.0</ele><time>2026-04-04T14:29:20.999Z</time></trkpt><trkpt lat="44.30401290041112" lon="10.839589425618426"><ele>686.0</ele><time>2026-04-04T14:29:24.999Z</time></trkpt><trkpt lat="44.304066695809176" lon="10.839530826701406"><ele>686.0</ele><time>2026-04-04T14:29:29.999Z</time></trkpt><trkpt lat="44.30414835272384" lon="10.839554403704257"><ele>686.0</ele><time>2026-04-04T14:29:34.999Z</time></trkpt><trkpt lat="44.30421679959594" lon="10.83954777472997"><ele>686.0</ele><time>2026-04-04T14:29:38.998Z</time></trkpt><trkpt lat="44.30428459332784" lon="10.83956736889799"><ele>686.0</ele><time>2026-04-04T14:29:41.998Z</time></trkpt><trkpt lat="44.30436184290583" lon="10.839569882762541"><ele>686.0</ele><time>2026-04-04T14:29:46Z</time></trkpt><trkpt lat="44.3044414371557" lon="10.839613900536252"><ele>686.0</ele><time>2026-04-04T14:29:50Z</time></trkpt><trkpt lat="44.30450288576642" lon="10.839674279390094"><ele>686.0</ele><time>2026-04-04T14:29:53Z</time></trkpt><trkpt lat="44.304583393256415" lon="10.839680618642532"><ele>686.0</ele><time>2026-04-04T14:30:16Z</time></trkpt><trkpt lat="44.304630172546894" lon="10.8395814978833"><ele>686.0</ele><time>2026-04-04T14:30:20.999Z</time></trkpt><trkpt lat="44.30470250095779" lon="10.839542864381526"><ele>686.0</ele><time>2026-04-04T14:30:26.999Z</time></trkpt><trkpt lat="44.304741856335326" lon="10.839466031435176"><ele>686.0</ele><time>2026-04-04T14:30:29.999Z</time></trkpt><trkpt lat="44.3047396868256" lon="10.839363415420427"><ele>686.0</ele><time>2026-04-04T14:30:32.999Z</time></trkpt><trkpt lat="44.30466090222697" lon="10.83932175598443"><ele>686.0</ele><time>2026-04-04T14:30:39.999Z</time></trkpt><trkpt lat="44.30468294739099" lon="10.839216481872318"><ele>686.0</ele><time>2026-04-04T14:30:50.999Z</time></trkpt><trkpt lat="44.304758930333534" lon="10.839236438544068"><ele>686.0</ele><time>2026-04-04T14:30:55.999Z</time></trkpt><trkpt lat="44.304843135082976" lon="10.839290964665215"><ele>686.0</ele><time>2026-04-04T14:30:57.999Z</time></trkpt><trkpt lat="44.30489616000256" lon="10.839385293136397"><ele>681.1666666666666</ele><time>2026-04-04T14:30:59.999Z</time></trkpt><trkpt lat="44.304967432288244" lon="10.839470177571918"><ele>676.3333333333333</ele><time>2026-04-04T14:31:01.999Z</time></trkpt><trkpt lat="44.3050292283328" lon="10.839507477507727"><ele>671.5</ele><time>2026-04-04T14:31:03.999Z</time></trkpt><trkpt lat="44.305043518310306" lon="10.839594867436897"><ele>666.6666666666666</ele><time>2026-04-04T14:31:05.999Z</time></trkpt><trkpt lat="44.305117127531" lon="10.839678458912442"><ele>661.8333333333334</ele><time>2026-04-04T14:31:10.999Z</time></trkpt><trkpt lat="44.305221440108475" lon="10.83975359105984"><ele>657.0</ele><time>2026-04-04T14:31:12.999Z</time></trkpt><trkpt lat="44.3053211947072" lon="10.839768797652468"><ele>657.0</ele><time>2026-04-04T14:31:14.999Z</time></trkpt><trkpt lat="44.30541297641606" lon="10.839722653728394"><ele>657.0</ele><time>2026-04-04T14:31:16.999Z</time></trkpt><trkpt lat="44.30547452451677" lon="10.839693851235364"><ele>657.0</ele><time>2026-04-04T14:31:17.999Z</time></trkpt><trkpt lat="44.3055535942281" lon="10.839697548278853"><ele>657.0</ele><time>2026-04-04T14:31:18.999Z</time></trkpt><trkpt lat="44.305635145912895" lon="10.839670969951118"><ele>657.0</ele><time>2026-04-04T14:31:19.999Z</time></trkpt><trkpt lat="44.305721793954795" lon="10.839639768442709"><ele>657.0</ele><time>2026-04-04T14:31:20.999Z</time></trkpt><trkpt lat="44.305803502446956" lon="10.83959969154417"><ele>656.8333333333334</ele><time>2026-04-04T14:31:21.999Z</time></trkpt><trkpt lat="44.30587334894809" lon="10.839570510059346"><ele>656.6666666666666</ele><time>2026-04-04T14:31:22.999Z</time></trkpt><trkpt lat="44.305969512623975" lon="10.839565278701874"><ele>656.5</ele><time>2026-04-04T14:31:24.999Z</time></trkpt><trkpt lat="44.306054493493754" lon="10.83952742615411"><ele>656.3333333333333</ele><time>2026-04-04T14:31:26.999Z</time></trkpt><trkpt lat="44.30612250647014" lon="10.839539835459318"><ele>656.1666666666666</ele><time>2026-04-04T14:31:28.999Z</time></trkpt><trkpt lat="44.30620166061701" lon="10.839563793491045"><ele>656.0</ele><time>2026-04-04T14:31:30.999Z</time></trkpt><trkpt lat="44.30625269484892" lon="10.839658135338643"><ele>656.0</ele><time>2026-04-04T14:31:54Z</time></trkpt><trkpt lat="44.3063128144768" lon="10.83971888455435"><ele>656.0</ele><time>2026-04-04T14:31:56Z</time></trkpt><trkpt lat="44.30638885129268" lon="10.839754305429368"><ele>656.0</ele><time>2026-04-04T14:31:58Z</time></trkpt><trkpt lat="44.30645109002982" lon="10.83977742908852"><ele>656.0</ele><time>2026-04-04T14:32:00Z</time></trkpt><trkpt lat="44.306538777777014" lon="10.839804805921219"><ele>656.0</ele><time>2026-04-04T14:32:27.999Z</time></trkpt><trkpt lat="44.3065748172735" lon="10.839911570413928"><ele>656.0</ele><time>2026-04-04T14:32:29.999Z</time></trkpt><trkpt lat="44.30650755999616" lon="10.840003418031339"><ele>656.0</ele><time>2026-04-04T14:32:32.999Z</time></trkpt><trkpt lat="44.30640650461335" lon="10.840030352414828"><ele>656.0</ele><time>2026-04-04T14:32:34.999Z</time></trkpt><trkpt lat="44.306340879862034" lon="10.840142280842521"><ele>656.0</ele><time>2026-04-04T14:32:36.999Z</time></trkpt><trkpt lat="44.30635431148664" lon="10.840241470043598"><ele>656.0</ele><time>2026-04-04T14:32:38.999Z</time></trkpt><trkpt lat="44.30643633676081" lon="10.840262716500153"><ele>656.0</ele><time>2026-04-04T14:32:40.999Z</time></trkpt><trkpt lat="44.30651862617881" lon="10.840272431188732"><ele>656.0</ele><time>2026-04-04T14:32:42.999Z</time></trkpt><trkpt lat="44.30657925910189" lon="10.840239782105346"><ele>658.6666666666666</ele><time>2026-04-04T14:32:45.999Z</time></trkpt><trkpt lat="44.306640211203515" lon="10.840292271570506"><ele>661.3333333333333</ele><time>2026-04-04T14:32:47.999Z</time></trkpt><trkpt lat="44.306744555757334" lon="10.840394236731369"><ele>664.0</ele><time>2026-04-04T14:32:49.999Z</time></trkpt><trkpt lat="44.30680175988763" lon="10.840442408022023"><ele>666.6666666666666</ele><time>2026-04-04T14:32:50.999Z</time></trkpt><trkpt lat="44.30686780083382" lon="10.840494090744697"><ele>669.3333333333334</ele><time>2026-04-04T14:32:51.999Z</time></trkpt><trkpt lat="44.30693574869167" lon="10.84056247071263"><ele>672.0</ele><time>2026-04-04T14:32:52.999Z</time></trkpt><trkpt lat="44.30700399549284" lon="10.8406213126254"><ele>672.0</ele><time>2026-04-04T14:32:53.999Z</time></trkpt><trkpt lat="44.30706752712488" lon="10.840690977715697"><ele>672.0</ele><time>2026-04-04T14:32:54.999Z</time></trkpt><trkpt lat="44.30712608327577" lon="10.840794690483873"><ele>672.0</ele><time>2026-04-04T14:32:56.999Z</time></trkpt><trkpt lat="44.30708324664335" lon="10.84091979273775"><ele>672.0</ele><time>2026-04-04T14:32:58.999Z</time></trkpt><trkpt lat="44.30705992742858" lon="10.84101391370443"><ele>672.0</ele><time>2026-04-04T14:32:59.999Z</time></trkpt><trkpt lat="44.307038956114496" lon="10.8411120635577"><ele>672.0</ele><time>2026-04-04T14:33:00.999Z</time></trkpt><trkpt lat="44.30700686899259" lon="10.841216708054688"><ele>671.6</ele><time>2026-04-04T14:33:01.999Z</time></trkpt><trkpt lat="44.30699042826275" lon="10.841310910992915"><ele>671.2</ele><time>2026-04-04T14:33:02.999Z</time></trkpt><trkpt lat="44.30700114907155" lon="10.8414923106781"><ele>670.8</ele><time>2026-04-04T14:33:04.999Z</time></trkpt><trkpt lat="44.30700667013982" lon="10.841600282604164"><ele>670.4</ele><time>2026-04-04T14:33:05.999Z</time></trkpt><trkpt lat="44.30700352793053" lon="10.84170174938346"><ele>670.0</ele><time>2026-04-04T14:33:06.999Z</time></trkpt><trkpt lat="44.307010918235555" lon="10.84187670118901"><ele>670.0</ele><time>2026-04-04T14:33:08.999Z</time></trkpt><trkpt lat="44.3070327817293" lon="10.84198260015431"><ele>670.0</ele><time>2026-04-04T14:33:09.999Z</time></trkpt><trkpt lat="44.30705417652531" lon="10.842075663222444"><ele>670.0</ele><time>2026-04-04T14:33:10.999Z</time></trkpt><trkpt lat="44.30707910684133" lon="10.842157898237819"><ele>670.0</ele><time>2026-04-04T14:33:11.999Z</time></trkpt><trkpt lat="44.30713099336568" lon="10.842307909551403"><ele>670.0</ele><time>2026-04-04T14:33:13.999Z</time></trkpt><trkpt lat="44.30718160335144" lon="10.842444966167879"><ele>670.0</ele><time>2026-04-04T14:33:15.999Z</time></trkpt><trkpt lat="44.30721705350267" lon="10.842520685887711"><ele>671.4</ele><time>2026-04-04T14:33:16.999Z</time></trkpt><trkpt lat="44.30724942554282" lon="10.842600592693943"><ele>672.8</ele><time>2026-04-04T14:33:17.999Z</time></trkpt><trkpt lat="44.307276085643096" lon="10.8426815163787"><ele>674.2</ele><time>2026-04-04T14:33:18.999Z</time></trkpt><trkpt lat="44.30731391135044" lon="10.842814334109507"><ele>675.6</ele><time>2026-04-04T14:33:20.999Z</time></trkpt><trkpt lat="44.30735813144342" lon="10.842957665849237"><ele>677.0</ele><time>2026-04-04T14:33:22.999Z</time></trkpt><trkpt lat="44.307462677243265" lon="10.843099117161245"><ele>677.0</ele><time>2026-04-04T14:33:24.999Z</time></trkpt><trkpt lat="44.30750898307427" lon="10.84316045157917"><ele>677.0</ele><time>2026-04-04T14:33:25.999Z</time></trkpt><trkpt lat="44.307560797444175" lon="10.843242804970744"><ele>677.0</ele><time>2026-04-04T14:33:26.999Z</time></trkpt><trkpt lat="44.307618149371095" lon="10.843317687293444"><ele>677.0</ele><time>2026-04-04T14:33:27.999Z</time></trkpt><trkpt lat="44.307663517878204" lon="10.843392071918993"><ele>677.0</ele><time>2026-04-04T14:33:28.999Z</time></trkpt><trkpt lat="44.3077554373004" lon="10.843520489521854"><ele>677.0</ele><time>2026-04-04T14:33:30.999Z</time></trkpt><trkpt lat="44.30783338523852" lon="10.843621707145807"><ele>675.0</ele><time>2026-04-04T14:33:32.999Z</time></trkpt><trkpt lat="44.307886954898436" lon="10.843717233543419"><ele>673.0</ele><time>2026-04-04T14:33:34.999Z</time></trkpt><trkpt lat="44.30791467813613" lon="10.843803946094456"><ele>671.0</ele><time>2026-04-04T14:34:48.999Z</time></trkpt><trkpt lat="44.30793460242457" lon="10.84390591325715"><ele>669.0</ele><time>2026-04-04T14:34:50.999Z</time></trkpt><trkpt lat="44.30797200111077" lon="10.844002105775408"><ele>667.0</ele><time>2026-04-04T14:34:53.999Z</time></trkpt><trkpt lat="44.308014963345315" lon="10.844073265176725"><ele>665.0</ele><time>2026-04-04T14:34:56.999Z</time></trkpt><trkpt lat="44.3080690605372" lon="10.844149345085953"><ele>666.8</ele><time>2026-04-04T14:34:58.999Z</time></trkpt><trkpt lat="44.3081783648478" lon="10.844162633941819"><ele>668.6</ele><time>2026-04-04T14:35:00.999Z</time></trkpt><trkpt lat="44.30825168318505" lon="10.844170831335516"><ele>670.4000000000001</ele><time>2026-04-04T14:35:02.999Z</time></trkpt><trkpt lat="44.30836608203303" lon="10.844072285177898"><ele>672.2</ele><time>2026-04-04T14:35:04.999Z</time></trkpt><trkpt lat="44.30843760818233" lon="10.844023606148374"><ele>674.0</ele><time>2026-04-04T14:35:05.999Z</time></trkpt><trkpt lat="44.30849819700622" lon="10.843972639459658"><ele>674.0</ele><time>2026-04-04T14:35:06.999Z</time></trkpt><trkpt lat="44.30856435407841" lon="10.843929947614752"><ele>674.0</ele><time>2026-04-04T14:35:07.999Z</time></trkpt><trkpt lat="44.30865279451944" lon="10.843878045812758"><ele>674.0</ele><time>2026-04-04T14:35:08.999Z</time></trkpt><trkpt lat="44.308745726739076" lon="10.843821776415256"><ele>674.0</ele><time>2026-04-04T14:35:09.999Z</time></trkpt><trkpt lat="44.308831038820635" lon="10.843738145845624"><ele>674.0</ele><time>2026-04-04T14:35:10.999Z</time></trkpt><trkpt lat="44.30891613633144" lon="10.843635084529975"><ele>673.25</ele><time>2026-04-04T14:35:11.999Z</time></trkpt><trkpt lat="44.309015931119944" lon="10.843562188946459"><ele>672.5</ele><time>2026-04-04T14:35:12.999Z</time></trkpt><trkpt lat="44.30913781513391" lon="10.843536102118064"><ele>671.75</ele><time>2026-04-04T14:35:13.999Z</time></trkpt><trkpt lat="44.309229401336864" lon="10.843452557551819"><ele>671.0</ele><time>2026-04-04T14:35:14.999Z</time></trkpt><trkpt lat="44.30932145232463" lon="10.843380351581544"><ele>675.8</ele><time>2026-04-04T14:35:15.999Z</time></trkpt><trkpt lat="44.309415489169126" lon="10.843303773778057"><ele>680.5999999999999</ele><time>2026-04-04T14:35:16.999Z</time></trkpt><trkpt lat="44.30951852413545" lon="10.843261294325181"><ele>685.4</ele><time>2026-04-04T14:35:17.999Z</time></trkpt><trkpt lat="44.30962194596457" lon="10.843262882034052"><ele>690.2</ele><time>2026-04-04T14:35:18.999Z</time></trkpt><trkpt lat="44.309711685117264" lon="10.84326137382154"><ele>695.0</ele><time>2026-04-04T14:35:19.999Z</time></trkpt><trkpt lat="44.30979576082495" lon="10.843261923861968"><ele>694.8333333333333</ele><time>2026-04-04T14:35:20.999Z</time></trkpt><trkpt lat="44.30988063162928" lon="10.843270220831924"><ele>694.6666666666666</ele><time>2026-04-04T14:35:21.999Z</time></trkpt><trkpt lat="44.30996059580071" lon="10.843291749245592"><ele>694.5</ele><time>2026-04-04T14:35:22.999Z</time></trkpt><trkpt lat="44.3100307652788" lon="10.843322937661481"><ele>694.3333333333334</ele><time>2026-04-04T14:35:23.999Z</time></trkpt><trkpt lat="44.31010252299406" lon="10.843370337031665"><ele>694.1666666666667</ele><time>2026-04-04T14:35:25.999Z</time></trkpt><trkpt lat="44.31017085777061" lon="10.843424556235888"><ele>694.0</ele><time>2026-04-04T14:36:14Z</time></trkpt><trkpt lat="44.31020906787482" lon="10.843502839182234"><ele>694.0</ele><time>2026-04-04T14:36:15Z</time></trkpt><trkpt lat="44.31024100540852" lon="10.843593429390037"><ele>694.0</ele><time>2026-04-04T14:36:16Z</time></trkpt><trkpt lat="44.31025316584741" lon="10.843700200583045"><ele>694.0</ele><time>2026-04-04T14:36:17Z</time></trkpt><trkpt lat="44.310247334996255" lon="10.843811199735821"><ele>694.0</ele><time>2026-04-04T14:36:18Z</time></trkpt><trkpt lat="44.31022711323836" lon="10.843953564832695"><ele>694.0</ele><time>2026-04-04T14:36:18.999Z</time></trkpt><trkpt lat="44.31022238601027" lon="10.844122041219093"><ele>693.75</ele><time>2026-04-04T14:36:19.999Z</time></trkpt><trkpt lat="44.31023784814611" lon="10.844310988638858"><ele>693.5</ele><time>2026-04-04T14:36:20.999Z</time></trkpt><trkpt lat="44.310232794267094" lon="10.844526718678493"><ele>693.25</ele><time>2026-04-04T14:36:21.999Z</time></trkpt><trkpt lat="44.3102347724481" lon="10.844727074425181"><ele>693.0</ele><time>2026-04-04T14:36:22.999Z</time></trkpt><trkpt lat="44.310249148599745" lon="10.844895290417751"><ele>693.0</ele><time>2026-04-04T14:36:23.999Z</time></trkpt><trkpt lat="44.31025713752289" lon="10.845092014651737"><ele>693.0</ele><time>2026-04-04T14:36:24.999Z</time></trkpt><trkpt lat="44.3102741063427" lon="10.845308511977096"><ele>693.0</ele><time>2026-04-04T14:36:25.999Z</time></trkpt><trkpt lat="44.310309902101615" lon="10.845522148744188"><ele>692.25</ele><time>2026-04-04T14:36:26.999Z</time></trkpt><trkpt lat="44.31036083541396" lon="10.845725502754362"><ele>691.5</ele><time>2026-04-04T14:36:27.999Z</time></trkpt><trkpt lat="44.310407771942046" lon="10.84589456675486"><ele>690.75</ele><time>2026-04-04T14:36:28.999Z</time></trkpt><trkpt lat="44.310450665762964" lon="10.846031344304318"><ele>690.0</ele><time>2026-04-04T14:36:29.999Z</time></trkpt><trkpt lat="44.31049517249902" lon="10.846133623744512"><ele>691.1666666666666</ele><time>2026-04-04T14:36:30.999Z</time></trkpt><trkpt lat="44.310544073812075" lon="10.846200215812468"><ele>692.3333333333334</ele><time>2026-04-04T14:36:31.999Z</time></trkpt><trkpt lat="44.310610952374546" lon="10.846250012316123"><ele>693.5</ele><time>2026-04-04T14:36:32.999Z</time></trkpt><trkpt lat="44.31068943049813" lon="10.846248551002816"><ele>694.6666666666667</ele><time>2026-04-04T14:36:33.999Z</time></trkpt><trkpt lat="44.310778356660116" lon="10.846181463619333"><ele>695.8333333333334</ele><time>2026-04-04T14:36:34.999Z</time></trkpt><trkpt lat="44.31086437385094" lon="10.846086637755645"><ele>697.0</ele><time>2026-04-04T14:36:35.999Z</time></trkpt><trkpt lat="44.31093091216981" lon="10.8459524518437"><ele>701.5</ele><time>2026-04-04T14:36:36.999Z</time></trkpt><trkpt lat="44.31099881106766" lon="10.845797216774704"><ele>706.0</ele><time>2026-04-04T14:36:37.999Z</time></trkpt><trkpt lat="44.311075394408945" lon="10.845628116012966"><ele>710.5</ele><time>2026-04-04T14:36:38.999Z</time></trkpt><trkpt lat="44.311161316454516" lon="10.845448316345237"><ele>715.0</ele><time>2026-04-04T14:36:39.999Z</time></trkpt><trkpt lat="44.31124830806591" lon="10.845264452317076"><ele>715.0</ele><time>2026-04-04T14:36:40.999Z</time></trkpt><trkpt lat="44.31131676412735" lon="10.845127853288338"><ele>715.0</ele><time>2026-04-04T14:36:41.999Z</time></trkpt><trkpt lat="44.31136873969772" lon="10.845006274050384"><ele>715.0</ele><time>2026-04-04T14:36:42.999Z</time></trkpt><trkpt lat="44.31139836062345" lon="10.844851034158191"><ele>715.0</ele><time>2026-04-04T14:36:43.999Z</time></trkpt><trkpt lat="44.31140974396536" lon="10.844644800036825"><ele>715.0</ele><time>2026-04-04T14:36:44.999Z</time></trkpt><trkpt lat="44.31141103941371" lon="10.844412661009422"><ele>715.0</ele><time>2026-04-04T14:36:45.999Z</time></trkpt><trkpt lat="44.31141358788136" lon="10.844172429809023"><ele>715.0</ele><time>2026-04-04T14:36:46.999Z</time></trkpt><trkpt lat="44.311418693172534" lon="10.843927434368844"><ele>717.0</ele><time>2026-04-04T14:36:47.999Z</time></trkpt><trkpt lat="44.31142244061097" lon="10.843722394676082"><ele>719.0</ele><time>2026-04-04T14:36:48.999Z</time></trkpt><trkpt lat="44.31142753905191" lon="10.843544765531991"><ele>721.0</ele><time>2026-04-04T14:36:49.999Z</time></trkpt><trkpt lat="44.311429588584545" lon="10.843373147746346"><ele>723.0</ele><time>2026-04-04T14:36:50.999Z</time></trkpt><trkpt lat="44.31143078803553" lon="10.843208960769783"><ele>724.25</ele><time>2026-04-04T14:36:51.999Z</time></trkpt><trkpt lat="44.31143342769702" lon="10.843049658510264"><ele>725.5</ele><time>2026-04-04T14:36:52.999Z</time></trkpt><trkpt lat="44.3114582800074" lon="10.842897773706342"><ele>726.75</ele><time>2026-04-04T14:36:53.999Z</time></trkpt><trkpt lat="44.31150211439029" lon="10.842748221573911"><ele>728.0</ele><time>2026-04-04T14:36:54.999Z</time></trkpt><trkpt lat="44.31155152445427" lon="10.842607119193556"><ele>730.25</ele><time>2026-04-04T14:36:55.999Z</time></trkpt><trkpt lat="44.311595080242874" lon="10.84247161531215"><ele>732.5</ele><time>2026-04-04T14:36:56.999Z</time></trkpt><trkpt lat="44.311637952650514" lon="10.842331129579986"><ele>734.75</ele><time>2026-04-04T14:36:57.999Z</time></trkpt><trkpt lat="44.31169280089174" lon="10.842170561732152"><ele>737.0</ele><time>2026-04-04T14:36:58.999Z</time></trkpt><trkpt lat="44.3117648426901" lon="10.841991999696548"><ele>737.0</ele><time>2026-04-04T14:36:59.999Z</time></trkpt><trkpt lat="44.311849782389" lon="10.841804164705591"><ele>737.0</ele><time>2026-04-04T14:37:00.999Z</time></trkpt><trkpt lat="44.31194351774535" lon="10.841617094919666"><ele>737.0</ele><time>2026-04-04T14:37:01.999Z</time></trkpt><trkpt lat="44.312056454422596" lon="10.841458702489735"><ele>736.5</ele><time>2026-04-04T14:37:02.999Z</time></trkpt><trkpt lat="44.312147441263264" lon="10.841319246299404"><ele>736.0</ele><time>2026-04-04T14:37:03.999Z</time></trkpt><trkpt lat="44.31223788580312" lon="10.84119937041945"><ele>735.5</ele><time>2026-04-04T14:37:04.999Z</time></trkpt><trkpt lat="44.312329823473185" lon="10.841113227750135"><ele>735.0</ele><time>2026-04-04T14:37:05.999Z</time></trkpt><trkpt lat="44.31243295691921" lon="10.841051124006315"><ele>735.0</ele><time>2026-04-04T14:37:06.999Z</time></trkpt><trkpt lat="44.31254772997643" lon="10.841034854746184"><ele>735.0</ele><time>2026-04-04T14:37:07.999Z</time></trkpt><trkpt lat="44.31268255472629" lon="10.841068961801684"><ele>735.0</ele><time>2026-04-04T14:37:08.999Z</time></trkpt><trkpt lat="44.31283119922002" lon="10.841123416928147"><ele>735.0</ele><time>2026-04-04T14:37:09.999Z</time></trkpt><trkpt lat="44.31297205763055" lon="10.84117538030952"><ele>736.25</ele><time>2026-04-04T14:37:10.999Z</time></trkpt><trkpt lat="44.31310570145468" lon="10.84122379274535"><ele>737.5</ele><time>2026-04-04T14:37:11.999Z</time></trkpt><trkpt lat="44.313227485486095" lon="10.841266890349612"><ele>738.75</ele><time>2026-04-04T14:37:12.999Z</time></trkpt><trkpt lat="44.313332688583" lon="10.841277899627423"><ele>740.0</ele><time>2026-04-04T14:37:13.999Z</time></trkpt><trkpt lat="44.31342062740084" lon="10.841308080560305"><ele>740.0</ele><time>2026-04-04T14:37:14.999Z</time></trkpt><trkpt lat="44.313514239852" lon="10.841321880268541"><ele>740.0</ele><time>2026-04-04T14:37:15.999Z</time></trkpt><trkpt lat="44.31361086054426" lon="10.84131337694279"><ele>740.0</ele><time>2026-04-04T14:37:16.999Z</time></trkpt><trkpt lat="44.313699652650904" lon="10.841331537376169"><ele>740.0</ele><time>2026-04-04T14:37:17.999Z</time></trkpt><trkpt lat="44.31379571214384" lon="10.841326592180987"><ele>740.0</ele><time>2026-04-04T14:37:18.999Z</time></trkpt><trkpt lat="44.31391307376837" lon="10.841329098408117"><ele>741.0</ele><time>2026-04-04T14:37:19.999Z</time></trkpt><trkpt lat="44.31404365141084" lon="10.841372950998581"><ele>742.0</ele><time>2026-04-04T14:37:20.999Z</time></trkpt><trkpt lat="44.31419555171793" lon="10.841424403670912"><ele>743.0</ele><time>2026-04-04T14:37:21.999Z</time></trkpt><trkpt lat="44.314373209052185" lon="10.841447860851689"><ele>743.0</ele><time>2026-04-04T14:37:22.999Z</time></trkpt><trkpt lat="44.31454794375339" lon="10.841469582494016"><ele>743.0</ele><time>2026-04-04T14:37:23.999Z</time></trkpt><trkpt lat="44.31471328459263" lon="10.841470165551671"><ele>743.0</ele><time>2026-04-04T14:37:24.999Z</time></trkpt><trkpt lat="44.31485981063785" lon="10.841509143114623"><ele>743.25</ele><time>2026-04-04T14:37:25.999Z</time></trkpt><trkpt lat="44.31500936359107" lon="10.841538303502812"><ele>743.5</ele><time>2026-04-04T14:37:26.999Z</time></trkpt><trkpt lat="44.315160850814635" lon="10.84156856335708"><ele>743.75</ele><time>2026-04-04T14:37:27.999Z</time></trkpt><trkpt lat="44.31530448353672" lon="10.841593769942461"><ele>744.0</ele><time>2026-04-04T14:37:28.999Z</time></trkpt><trkpt lat="44.31545102090644" lon="10.84161078174766"><ele>745.75</ele><time>2026-04-04T14:37:29.999Z</time></trkpt><trkpt lat="44.31559720275326" lon="10.84163400301146"><ele>747.5</ele><time>2026-04-04T14:37:30.999Z</time></trkpt><trkpt lat="44.315735389279645" lon="10.841660700998393"><ele>749.25</ele><time>2026-04-04T14:37:31.999Z</time></trkpt><trkpt lat="44.315857598873286" lon="10.841659997330932"><ele>751.0</ele><time>2026-04-04T14:37:32.999Z</time></trkpt><trkpt lat="44.31597170205474" lon="10.84166987812223"><ele>751.0</ele><time>2026-04-04T14:37:33.999Z</time></trkpt><trkpt lat="44.31607586097698" lon="10.841667840808734"><ele>751.0</ele><time>2026-04-04T14:37:34.999Z</time></trkpt><trkpt lat="44.31616930611774" lon="10.841668558081135"><ele>751.0</ele><time>2026-04-04T14:37:35.999Z</time></trkpt><trkpt lat="44.31625192233542" lon="10.841693615391241"><ele>751.0</ele><time>2026-04-04T14:37:36.999Z</time></trkpt><trkpt lat="44.31631098051313" lon="10.841769784949934"><ele>751.0</ele><time>2026-04-04T14:37:37.999Z</time></trkpt><trkpt lat="44.316323734324335" lon="10.841896976409652"><ele>751.5999999999999</ele><time>2026-04-04T14:37:38.999Z</time></trkpt><trkpt lat="44.31634893601101" lon="10.842044598655173"><ele>752.2</ele><time>2026-04-04T14:37:39.998Z</time></trkpt><trkpt lat="44.31638265521943" lon="10.842217608087317"><ele>752.8</ele><time>2026-04-04T14:37:40.998Z</time></trkpt><trkpt lat="44.31643314770697" lon="10.842360155183329"><ele>753.4000000000001</ele><time>2026-04-04T14:37:41.998Z</time></trkpt><trkpt lat="44.31647109378788" lon="10.842482585963946"><ele>754.0</ele><time>2026-04-04T14:37:42.998Z</time></trkpt><trkpt lat="44.31652266267295" lon="10.842594066036613"><ele>754.6</ele><time>2026-04-04T14:37:43.998Z</time></trkpt><trkpt lat="44.31658424732217" lon="10.842709472228746"><ele>755.2</ele><time>2026-04-04T14:37:44.998Z</time></trkpt><trkpt lat="44.316660454561365" lon="10.842825906518582"><ele>755.8000000000001</ele><time>2026-04-04T14:37:45.998Z</time></trkpt><trkpt lat="44.31673448063485" lon="10.842905301924278"><ele>756.4000000000001</ele><time>2026-04-04T14:37:46.998Z</time></trkpt><trkpt lat="44.31681094118458" lon="10.842978766220988"><ele>757.0</ele><time>2026-04-04T14:37:47.998Z</time></trkpt><trkpt lat="44.31688938226508" lon="10.843055679221727"><ele>757.0</ele><time>2026-04-04T14:37:48.998Z</time></trkpt><trkpt lat="44.316954639082425" lon="10.843140735048088"><ele>757.0</ele><time>2026-04-04T14:37:49.998Z</time></trkpt><trkpt lat="44.317032738737694" lon="10.843182276723734"><ele>757.0</ele><time>2026-04-04T14:37:50.998Z</time></trkpt><trkpt lat="44.31710212206438" lon="10.843239900164239"><ele>757.0</ele><time>2026-04-04T14:37:51.998Z</time></trkpt><trkpt lat="44.31717926779458" lon="10.84329185971665"><ele>757.0</ele><time>2026-04-04T14:37:52.998Z</time></trkpt><trkpt lat="44.317281324662275" lon="10.843338716111315"><ele>757.0</ele><time>2026-04-04T14:37:53.998Z</time></trkpt><trkpt lat="44.31738235994118" lon="10.843383367527514"><ele>757.3333333333334</ele><time>2026-04-04T14:37:54.998Z</time></trkpt><trkpt lat="44.31747053139286" lon="10.843415934847823"><ele>757.6666666666667</ele><time>2026-04-04T14:37:55.998Z</time></trkpt><trkpt lat="44.317542018881" lon="10.843442537005426"><ele>758.0</ele><time>2026-04-04T14:37:56.998Z</time></trkpt><trkpt lat="44.317609935367116" lon="10.843468404189064"><ele>758.3333333333334</ele><time>2026-04-04T14:37:58.998Z</time></trkpt><trkpt lat="44.31770493374209" lon="10.843509842561868"><ele>758.6666666666666</ele><time>2026-04-04T14:39:21.999Z</time></trkpt><trkpt lat="44.31778075337216" lon="10.843535000686446"><ele>759.0</ele><time>2026-04-04T14:39:22.999Z</time></trkpt><trkpt lat="44.31785473091179" lon="10.843570578706144"><ele>760.0</ele><time>2026-04-04T14:39:23.999Z</time></trkpt><trkpt lat="44.31796042963138" lon="10.843618192191082"><ele>761.0</ele><time>2026-04-04T14:39:24.999Z</time></trkpt><trkpt lat="44.31809768027204" lon="10.84367796274604"><ele>762.0</ele><time>2026-04-04T14:39:25.999Z</time></trkpt><trkpt lat="44.31827254932235" lon="10.843759014610052"><ele>763.0</ele><time>2026-04-04T14:39:26.999Z</time></trkpt><trkpt lat="44.31840523468776" lon="10.843826569270016"><ele>763.0</ele><time>2026-04-04T14:39:27.999Z</time></trkpt><trkpt lat="44.31851612150726" lon="10.843892422226235"><ele>763.0</ele><time>2026-04-04T14:39:28.999Z</time></trkpt><trkpt lat="44.31860933289898" lon="10.843965488254964"><ele>763.0</ele><time>2026-04-04T14:39:29.999Z</time></trkpt><trkpt lat="44.31868784389533" lon="10.84404920853691"><ele>763.0</ele><time>2026-04-04T14:39:30.999Z</time></trkpt><trkpt lat="44.31874867904446" lon="10.844133381298512"><ele>763.0</ele><time>2026-04-04T14:39:31.999Z</time></trkpt><trkpt lat="44.31880673319589" lon="10.84423110930093"><ele>762.8333333333334</ele><time>2026-04-04T14:39:33.999Z</time></trkpt><trkpt lat="44.31887311921204" lon="10.844368160457112"><ele>762.6666666666667</ele><time>2026-04-04T14:39:35.999Z</time></trkpt><trkpt lat="44.31890252804246" lon="10.844466108211945"><ele>762.5</ele><time>2026-04-04T14:39:36.999Z</time></trkpt><trkpt lat="44.31893601858643" lon="10.844568534625045"><ele>762.3333333333334</ele><time>2026-04-04T14:39:37.999Z</time></trkpt><trkpt lat="44.318954111366175" lon="10.844673674479886"><ele>762.1666666666666</ele><time>2026-04-04T14:39:38.999Z</time></trkpt><trkpt lat="44.31899206992664" lon="10.844759200691229"><ele>762.0</ele><time>2026-04-04T14:39:39.999Z</time></trkpt><trkpt lat="44.3190531077404" lon="10.84485620977561"><ele>762.0</ele><time>2026-04-04T14:39:40.999Z</time></trkpt><trkpt lat="44.31912875906388" lon="10.844929646400283"><ele>762.0</ele><time>2026-04-04T14:39:41.999Z</time></trkpt><trkpt lat="44.31918752249733" lon="10.844991752679999"><ele>762.0</ele><time>2026-04-04T14:39:42.999Z</time></trkpt><trkpt lat="44.31927474509437" lon="10.845100267503078"><ele>762.0</ele><time>2026-04-04T14:39:44.998Z</time></trkpt><trkpt lat="44.319385079098566" lon="10.845184285320743"><ele>762.0</ele><time>2026-04-04T14:39:46.998Z</time></trkpt><trkpt lat="44.31947415046123" lon="10.845236428396456"><ele>763.0</ele><time>2026-04-04T14:39:48.998Z</time></trkpt><trkpt lat="44.319535613060374" lon="10.845267057697361"><ele>764.0</ele><time>2026-04-04T14:42:11.998Z</time></trkpt><trkpt lat="44.319667756684176" lon="10.845335733148707"><ele>765.0</ele><time>2026-04-04T14:42:13.998Z</time></trkpt><trkpt lat="44.31974882204477" lon="10.845390408019837"><ele>766.0</ele><time>2026-04-04T14:42:14.998Z</time></trkpt><trkpt lat="44.31982273554542" lon="10.84542614847709"><ele>767.0</ele><time>2026-04-04T14:42:15.998Z</time></trkpt><trkpt lat="44.31991320886906" lon="10.84550663323699"><ele>767.0</ele><time>2026-04-04T14:42:16.998Z</time></trkpt><trkpt lat="44.320011420271754" lon="10.84562215762599"><ele>767.0</ele><time>2026-04-04T14:42:17.999Z</time></trkpt><trkpt lat="44.32012652196564" lon="10.845715099080886"><ele>767.0</ele><time>2026-04-04T14:42:18.999Z</time></trkpt><trkpt lat="44.320213639772646" lon="10.845809774522946"><ele>767.0</ele><time>2026-04-04T14:42:19.999Z</time></trkpt><trkpt lat="44.320276565965486" lon="10.845900453987603"><ele>766.0</ele><time>2026-04-04T14:42:20.999Z</time></trkpt><trkpt lat="44.32036145550303" lon="10.846011502146656"><ele>765.0</ele><time>2026-04-04T14:42:21.999Z</time></trkpt><trkpt lat="44.320452978449964" lon="10.84613271140175"><ele>764.0</ele><time>2026-04-04T14:42:22.999Z</time></trkpt><trkpt lat="44.32052895593472" lon="10.846245486781358"><ele>763.0</ele><time>2026-04-04T14:42:23.999Z</time></trkpt><trkpt lat="44.32061157938894" lon="10.846364224637503"><ele>763.0</ele><time>2026-04-04T14:42:24.999Z</time></trkpt><trkpt lat="44.32068889745423" lon="10.846467736995677"><ele>763.0</ele><time>2026-04-04T14:42:25.999Z</time></trkpt><trkpt lat="44.32076988939701" lon="10.846573690141073"><ele>763.0</ele><time>2026-04-04T14:42:26.999Z</time></trkpt><trkpt lat="44.32085441113956" lon="10.846673597598372"><ele>763.0</ele><time>2026-04-04T14:42:27.999Z</time></trkpt><trkpt lat="44.320934508138286" lon="10.846746536331665"><ele>763.0</ele><time>2026-04-04T14:42:28.999Z</time></trkpt><trkpt lat="44.32099981923168" lon="10.846795425066333"><ele>759.5999999999999</ele><time>2026-04-04T14:42:29.999Z</time></trkpt><trkpt lat="44.321077680607424" lon="10.84684653480139"><ele>756.1999999999999</ele><time>2026-04-04T14:42:30.999Z</time></trkpt><trkpt lat="44.32116797371801" lon="10.846908722935662"><ele>752.8</ele><time>2026-04-04T14:42:31.999Z</time></trkpt><trkpt lat="44.32125249193586" lon="10.846967423157597"><ele>749.4</ele><time>2026-04-04T14:42:32.999Z</time></trkpt><trkpt lat="44.321346487697404" lon="10.847034761506858"><ele>746.0</ele><time>2026-04-04T14:42:33.999Z</time></trkpt><trkpt lat="44.32143573375959" lon="10.847107400978027"><ele>746.0</ele><time>2026-04-04T14:42:34.999Z</time></trkpt><trkpt lat="44.321519438400955" lon="10.847164764986662"><ele>746.0</ele><time>2026-04-04T14:42:35.999Z</time></trkpt><trkpt lat="44.32161237553265" lon="10.84719685821691"><ele>746.0</ele><time>2026-04-04T14:42:36.999Z</time></trkpt><trkpt lat="44.32169763598761" lon="10.84721628676531"><ele>746.0</ele><time>2026-04-04T14:42:37.999Z</time></trkpt><trkpt lat="44.321777088221346" lon="10.847242359387907"><ele>746.0</ele><time>2026-04-04T14:42:38.999Z</time></trkpt><trkpt lat="44.3218445295779" lon="10.847270682671613"><ele>746.0</ele><time>2026-04-04T14:42:39.999Z</time></trkpt><trkpt lat="44.321956269058774" lon="10.847325028294275"><ele>746.0</ele><time>2026-04-04T14:42:41.999Z</time></trkpt><trkpt lat="44.32206212834904" lon="10.8473084326052"><ele>746.0</ele><time>2026-04-04T14:42:43.999Z</time></trkpt><trkpt lat="44.32211171615594" lon="10.847239304849438"><ele>746.0</ele><time>2026-04-04T14:42:44.999Z</time></trkpt><trkpt lat="44.322140861850485" lon="10.847140810924417"><ele>746.0</ele><time>2026-04-04T14:42:45.999Z</time></trkpt><trkpt lat="44.322143048958566" lon="10.847025114317157"><ele>746.0</ele><time>2026-04-04T14:42:46.999Z</time></trkpt><trkpt lat="44.322122336688295" lon="10.84691293368724"><ele>746.0</ele><time>2026-04-04T14:42:47.999Z</time></trkpt><trkpt lat="44.32209377599764" lon="10.846822883112193"><ele>747.8333333333333</ele><time>2026-04-04T14:42:48.999Z</time></trkpt><trkpt lat="44.32208555712129" lon="10.846728546955248"><ele>749.6666666666666</ele><time>2026-04-04T14:42:49.999Z</time></trkpt><trkpt lat="44.32204945764867" lon="10.846650927746664"><ele>751.5</ele><time>2026-04-04T14:42:50.999Z</time></trkpt><trkpt lat="44.32201214182729" lon="10.846496822637647"><ele>753.3333333333334</ele><time>2026-04-04T14:42:52.999Z</time></trkpt><trkpt lat="44.32202282236459" lon="10.846384733199528"><ele>755.1666666666667</ele><time>2026-04-04T14:42:54.999Z</time></trkpt><trkpt lat="44.32211002900447" lon="10.8463743199725"><ele>757.0</ele><time>2026-04-04T14:42:56.999Z</time></trkpt><trkpt lat="44.32217456550424" lon="10.846555453435935"><ele>757.0</ele><time>2026-04-04T14:42:58.999Z</time></trkpt><trkpt lat="44.32219600988605" lon="10.846647481825965"><ele>757.0</ele><time>2026-04-04T14:42:59.999Z</time></trkpt><trkpt lat="44.322232885327864" lon="10.846734226306884"><ele>757.0</ele><time>2026-04-04T14:43:00.999Z</time></trkpt><trkpt lat="44.322282797380865" lon="10.846792566554228"><ele>757.0</ele><time>2026-04-04T14:43:01.999Z</time></trkpt><trkpt lat="44.32240820607238" lon="10.846864708184617"><ele>757.0</ele><time>2026-04-04T14:43:03.999Z</time></trkpt><trkpt lat="44.322488653451124" lon="10.846854610507325"><ele>757.0</ele><time>2026-04-04T14:43:04.999Z</time></trkpt><trkpt lat="44.32257211149314" lon="10.846826869026474"><ele>754.8333333333334</ele><time>2026-04-04T14:43:05.999Z</time></trkpt><trkpt lat="44.32265525639241" lon="10.846789411850297"><ele>752.6666666666667</ele><time>2026-04-04T14:43:06.999Z</time></trkpt><trkpt lat="44.32273170928667" lon="10.846758998798249"><ele>750.5</ele><time>2026-04-04T14:43:07.999Z</time></trkpt><trkpt lat="44.322809816433576" lon="10.846729422986659"><ele>748.3333333333334</ele><time>2026-04-04T14:43:08.999Z</time></trkpt><trkpt lat="44.32288674282267" lon="10.846698756085713"><ele>746.1666666666666</ele><time>2026-04-04T14:43:09.999Z</time></trkpt><trkpt lat="44.32296214968112" lon="10.846676031599607"><ele>744.0</ele><time>2026-04-04T14:43:10.999Z</time></trkpt><trkpt lat="44.3230309472073" lon="10.846664490411724"><ele>743.4000000000001</ele><time>2026-04-04T14:43:11.999Z</time></trkpt><trkpt lat="44.32309899186231" lon="10.846667717653911"><ele>742.8</ele><time>2026-04-04T14:43:12.999Z</time></trkpt><trkpt lat="44.32316420037837" lon="10.846675730727748"><ele>742.2</ele><time>2026-04-04T14:43:13.999Z</time></trkpt><trkpt lat="44.32327279372552" lon="10.84668955095071"><ele>741.5999999999999</ele><time>2026-04-04T14:43:15.999Z</time></trkpt><trkpt lat="44.32334131764555" lon="10.846642578098061"><ele>741.0</ele><time>2026-04-04T14:43:17.999Z</time></trkpt><trkpt lat="44.32320010213396" lon="10.846498560703756"><ele>741.0</ele><time>2026-04-04T14:43:23.999Z</time></trkpt><trkpt lat="44.323137690039644" lon="10.846455107976892"><ele>741.0</ele><time>2026-04-04T14:43:25.999Z</time></trkpt><trkpt lat="44.32305081050055" lon="10.8464511632647"><ele>741.0</ele><time>2026-04-04T14:43:27.999Z</time></trkpt><trkpt lat="44.32297267534476" lon="10.846360395429391"><ele>741.0</ele><time>2026-04-04T14:43:29.999Z</time></trkpt><trkpt lat="44.322966775239614" lon="10.846200241644196"><ele>741.0</ele><time>2026-04-04T14:43:31.999Z</time></trkpt><trkpt lat="44.32294636071715" lon="10.846107827739447"><ele>741.0</ele><time>2026-04-04T14:43:32.999Z</time></trkpt><trkpt lat="44.32293497790305" lon="10.846015446620148"><ele>738.8571428571428</ele><time>2026-04-04T14:43:33.999Z</time></trkpt><trkpt lat="44.32291185337455" lon="10.845929561198869"><ele>736.7142857142858</ele><time>2026-04-04T14:43:34.999Z</time></trkpt><trkpt lat="44.32290270804235" lon="10.845825635101125"><ele>734.5714285714286</ele><time>2026-04-04T14:43:35.999Z</time></trkpt><trkpt lat="44.32288146406619" lon="10.84571036282986"><ele>732.4285714285713</ele><time>2026-04-04T14:43:36.999Z</time></trkpt><trkpt lat="44.32286201780693" lon="10.845606369196265"><ele>730.2857142857142</ele><time>2026-04-04T14:43:37.999Z</time></trkpt><trkpt lat="44.322836863174565" lon="10.845519182650605"><ele>728.1428571428571</ele><time>2026-04-04T14:43:38.999Z</time></trkpt><trkpt lat="44.322806792143055" lon="10.84541722163534"><ele>726.0</ele><time>2026-04-04T14:43:39.999Z</time></trkpt><trkpt lat="44.322783537898765" lon="10.845306838476649"><ele>726.0</ele><time>2026-04-04T14:43:40.999Z</time></trkpt><trkpt lat="44.322747837888315" lon="10.845217793268837"><ele>726.0</ele><time>2026-04-04T14:43:41.999Z</time></trkpt><trkpt lat="44.32270742973224" lon="10.845125157952149"><ele>726.0</ele><time>2026-04-04T14:43:42.998Z</time></trkpt><trkpt lat="44.32267980905953" lon="10.84502789727798"><ele>726.0</ele><time>2026-04-04T14:43:43.998Z</time></trkpt><trkpt lat="44.32266314341635" lon="10.8449188018538"><ele>726.0</ele><time>2026-04-04T14:43:44.998Z</time></trkpt><trkpt lat="44.32264255120389" lon="10.844820527899829"><ele>726.0</ele><time>2026-04-04T14:43:45.998Z</time></trkpt><trkpt lat="44.32262785565391" lon="10.844707762510353"><ele>723.5</ele><time>2026-04-04T14:43:46.998Z</time></trkpt><trkpt lat="44.32261824779193" lon="10.844596287658643"><ele>721.0</ele><time>2026-04-04T14:43:47.998Z</time></trkpt><trkpt lat="44.32259928108401" lon="10.844475257841223"><ele>718.5</ele><time>2026-04-04T14:43:48.998Z</time></trkpt><trkpt lat="44.32257333675073" lon="10.844360293955107"><ele>716.0</ele><time>2026-04-04T14:43:49.998Z</time></trkpt><trkpt lat="44.322559356635026" lon="10.844238820224085"><ele>713.5</ele><time>2026-04-04T14:43:50.998Z</time></trkpt><trkpt lat="44.32254370697573" lon="10.84412522681352"><ele>711.0</ele><time>2026-04-04T14:43:51.999Z</time></trkpt><trkpt lat="44.322511370103975" lon="10.844012142637238"><ele>708.4</ele><time>2026-04-04T14:43:52.999Z</time></trkpt><trkpt lat="44.32249113854437" lon="10.843914148631693"><ele>705.8</ele><time>2026-04-04T14:43:53.999Z</time></trkpt><trkpt lat="44.32247017189076" lon="10.843808992809857"><ele>703.1999999999999</ele><time>2026-04-04T14:43:54.999Z</time></trkpt><trkpt lat="44.322463508745564" lon="10.843700587802218"><ele>700.5999999999999</ele><time>2026-04-04T14:43:55.999Z</time></trkpt><trkpt lat="44.32246771663122" lon="10.84351748266524"><ele>698.0</ele><time>2026-04-04T14:43:57.999Z</time></trkpt><trkpt lat="44.322536164743596" lon="10.843373639396578"><ele>696.6666666666666</ele><time>2026-04-04T14:43:59.999Z</time></trkpt><trkpt lat="44.32258200234861" lon="10.843247104690894"><ele>695.3333333333333</ele><time>2026-04-04T14:44:01.999Z</time></trkpt><trkpt lat="44.322567920576766" lon="10.843154573968542"><ele>694.0</ele><time>2026-04-04T14:44:02.999Z</time></trkpt><trkpt lat="44.322545969070966" lon="10.843044854704823"><ele>692.6666666666666</ele><time>2026-04-04T14:44:03.999Z</time></trkpt><trkpt lat="44.32253805440938" lon="10.84294192956166"><ele>691.3333333333334</ele><time>2026-04-04T14:44:04.999Z</time></trkpt><trkpt lat="44.322562137994986" lon="10.842843932601877"><ele>690.0</ele><time>2026-04-04T14:44:05.999Z</time></trkpt><trkpt lat="44.32257968852726" lon="10.842728632178696"><ele>688.6666666666666</ele><time>2026-04-04T14:44:06.999Z</time></trkpt><trkpt lat="44.322585996927835" lon="10.842609456435493"><ele>687.3333333333334</ele><time>2026-04-04T14:44:07.999Z</time></trkpt><trkpt lat="44.32260738920824" lon="10.842520545219829"><ele>686.0</ele><time>2026-04-04T14:44:08.999Z</time></trkpt><trkpt lat="44.322626793969384" lon="10.842434643073904"><ele>684.6666666666667</ele><time>2026-04-04T14:44:09.999Z</time></trkpt><trkpt lat="44.32266543185554" lon="10.842254549189478"><ele>683.3333333333334</ele><time>2026-04-04T14:44:11.999Z</time></trkpt><trkpt lat="44.322692217153694" lon="10.842155892549204"><ele>682.0</ele><time>2026-04-04T14:44:12.999Z</time></trkpt><trkpt lat="44.32272512772146" lon="10.842047776157756"><ele>682.0</ele><time>2026-04-04T14:44:13.999Z</time></trkpt><trkpt lat="44.32274639878728" lon="10.841922904456851"><ele>682.0</ele><time>2026-04-04T14:44:14.999Z</time></trkpt><trkpt lat="44.32275632993339" lon="10.841796111533947"><ele>682.0</ele><time>2026-04-04T14:44:15.999Z</time></trkpt><trkpt lat="44.32277875397848" lon="10.841670507051086"><ele>682.0</ele><time>2026-04-04T14:44:16.999Z</time></trkpt><trkpt lat="44.32280175091337" lon="10.841534927672678"><ele>682.0</ele><time>2026-04-04T14:44:17.999Z</time></trkpt><trkpt lat="44.32282940815008" lon="10.841423112699264"><ele>681.0</ele><time>2026-04-04T14:44:18.999Z</time></trkpt><trkpt lat="44.32284227732124" lon="10.841323239477392"><ele>680.0</ele><time>2026-04-04T14:44:19.999Z</time></trkpt><trkpt lat="44.322845075276334" lon="10.8411702379049"><ele>679.0</ele><time>2026-04-04T14:44:21.999Z</time></trkpt><trkpt lat="44.32281806196728" lon="10.8410722696241"><ele>678.0</ele><time>2026-04-04T14:44:22.999Z</time></trkpt><trkpt lat="44.322813063222036" lon="10.840965206486025"><ele>677.0</ele><time>2026-04-04T14:44:24Z</time></trkpt><trkpt lat="44.322828102213855" lon="10.840879433532749"><ele>676.0</ele><time>2026-04-04T14:44:25Z</time></trkpt><trkpt lat="44.32292766038723" lon="10.840756196722372"><ele>676.0</ele><time>2026-04-04T14:44:27Z</time></trkpt><trkpt lat="44.32300259004576" lon="10.840728550442764"><ele>676.0</ele><time>2026-04-04T14:44:28Z</time></trkpt><trkpt lat="44.32310273331089" lon="10.840721880586592"><ele>676.0</ele><time>2026-04-04T14:44:29Z</time></trkpt><trkpt lat="44.323219169248496" lon="10.840733286986428"><ele>676.0</ele><time>2026-04-04T14:44:30Z</time></trkpt><trkpt lat="44.32333619957596" lon="10.84075556782513"><ele>676.0</ele><time>2026-04-04T14:44:31Z</time></trkpt><trkpt lat="44.32343553490668" lon="10.840761884343449"><ele>676.0</ele><time>2026-04-04T14:44:32Z</time></trkpt><trkpt lat="44.323540896245575" lon="10.84076119289494"><ele>676.0</ele><time>2026-04-04T14:44:33Z</time></trkpt><trkpt lat="44.323641047546396" lon="10.840761028888242"><ele>676.0</ele><time>2026-04-04T14:44:34Z</time></trkpt><trkpt lat="44.32372580304111" lon="10.840763988974345"><ele>676.0</ele><time>2026-04-04T14:44:35Z</time></trkpt><trkpt lat="44.32380112381058" lon="10.840760385657864"><ele>676.0</ele><time>2026-04-04T14:44:36Z</time></trkpt><trkpt lat="44.32386925082618" lon="10.84075107791241"><ele>676.0</ele><time>2026-04-04T14:44:37Z</time></trkpt><trkpt lat="44.32399861573901" lon="10.840724152672951"><ele>676.1999999999999</ele><time>2026-04-04T14:44:39Z</time></trkpt><trkpt lat="44.32404560671511" lon="10.840647678279483"><ele>676.4</ele><time>2026-04-04T14:44:40Z</time></trkpt><trkpt lat="44.32402618157804" lon="10.840475851318299"><ele>676.6</ele><time>2026-04-04T14:44:41Z</time></trkpt><trkpt lat="44.32400896860898" lon="10.84032015353154"><ele>676.8</ele><time>2026-04-04T14:44:42Z</time></trkpt><trkpt lat="44.324006261111435" lon="10.840153781789452"><ele>677.0</ele><time>2026-04-04T14:44:43Z</time></trkpt><trkpt lat="44.32400135038213" lon="10.840002047471588"><ele>677.0</ele><time>2026-04-04T14:44:44Z</time></trkpt><trkpt lat="44.32399383494237" lon="10.839850240025868"><ele>677.0</ele><time>2026-04-04T14:44:45Z</time></trkpt><trkpt lat="44.32402460432857" lon="10.839715409869218"><ele>677.0</ele><time>2026-04-04T14:44:46Z</time></trkpt><trkpt lat="44.324024753241716" lon="10.839564496132107"><ele>677.0</ele><time>2026-04-04T14:44:47Z</time></trkpt><trkpt lat="44.32400982012351" lon="10.839415206804981"><ele>677.0</ele><time>2026-04-04T14:44:48Z</time></trkpt><trkpt lat="44.32401385885519" lon="10.839257005359462"><ele>677.0</ele><time>2026-04-04T14:44:49Z</time></trkpt><trkpt lat="44.32402702093577" lon="10.839093727779346"><ele>677.0</ele><time>2026-04-04T14:44:50Z</time></trkpt><trkpt lat="44.32402805126762" lon="10.838957401053428"><ele>677.0</ele><time>2026-04-04T14:44:51Z</time></trkpt><trkpt lat="44.32402899120205" lon="10.838833035037482"><ele>677.0</ele><time>2026-04-04T14:44:52Z</time></trkpt><trkpt lat="44.324029872123496" lon="10.83871647699683"><ele>677.0</ele><time>2026-04-04T14:44:53Z</time></trkpt><trkpt lat="44.32403060924948" lon="10.838618945281885"><ele>677.0</ele><time>2026-04-04T14:44:54Z</time></trkpt><trkpt lat="44.32403159571618" lon="10.838488422355775"><ele>677.0</ele><time>2026-04-04T14:44:56Z</time></trkpt><trkpt lat="44.32390794307791" lon="10.838443171680904"><ele>677.0</ele><time>2026-04-04T14:44:57Z</time></trkpt><trkpt lat="44.32384689964741" lon="10.83830231782371"><ele>677.0</ele><time>2026-04-04T14:44:58Z</time></trkpt><trkpt lat="44.32370500356657" lon="10.838488058861996"><ele>676.5</ele><time>2026-04-04T14:44:59Z</time></trkpt><trkpt lat="44.323615775498865" lon="10.83848452265682"><ele>676.0</ele><time>2026-04-04T14:45:00Z</time></trkpt><trkpt lat="44.32354662363058" lon="10.838468501910501"><ele>675.5</ele><time>2026-04-04T14:45:01Z</time></trkpt><trkpt lat="44.32347113150534" lon="10.838349637158425"><ele>675.0</ele><time>2026-04-04T14:45:03Z</time></trkpt><trkpt lat="44.32346620114304" lon="10.838259991223426"><ele>674.5</ele><time>2026-04-04T14:45:04Z</time></trkpt><trkpt lat="44.323497111062004" lon="10.838180210709224"><ele>674.0</ele><time>2026-04-04T14:45:05Z</time></trkpt><trkpt lat="44.32348331988571" lon="10.83809082745952"><ele>674.0000000000001</ele><time>2026-04-04T14:45:07Z</time></trkpt><trkpt lat="44.32349311859325" lon="10.83799643184404"><ele>674.0</ele><time>2026-04-04T14:45:10Z</time></trkpt><trkpt lat="44.323555708769" lon="10.838007262866734"><ele>674.0</ele><time>2026-04-04T14:45:12Z</time></trkpt><trkpt lat="44.323641028780614" lon="10.838015181817727"><ele>674.0</ele><time>2026-04-04T14:46:05.999Z</time></trkpt><trkpt lat="44.32370605245713" lon="10.838018509158259"><ele>674.0</ele><time>2026-04-04T14:46:15.999Z</time></trkpt><trkpt lat="44.32377356972869" lon="10.838024887679532"><ele>674.0000000000001</ele><time>2026-04-04T14:46:37Z</time></trkpt><trkpt lat="44.32386697406109" lon="10.838025729076772"><ele>674.0</ele><time>2026-04-04T14:47:15Z</time></trkpt><trkpt lat="44.323891632370916" lon="10.838180518270187"><ele>674.0</ele><time>2026-04-04T14:47:16Z</time></trkpt><trkpt lat="44.323894288483444" lon="10.83831591362789"><ele>674.0</ele><time>2026-04-04T14:47:17Z</time></trkpt><trkpt lat="44.3238925389201" lon="10.838414706213522"><ele>674.0</ele><time>2026-04-04T14:47:18Z</time></trkpt><trkpt lat="44.32395494089187" lon="10.83852766016311"><ele>674.0</ele><time>2026-04-04T14:47:20Z</time></trkpt><trkpt lat="44.32399707780402" lon="10.838650088461891"><ele>674.0</ele><time>2026-04-04T14:47:22Z</time></trkpt><trkpt lat="44.323995791215836" lon="10.838820321147276"><ele>675.0</ele><time>2026-04-04T14:47:23Z</time></trkpt><trkpt lat="44.32399403877293" lon="10.839052192609998"><ele>676.0</ele><time>2026-04-04T14:47:24Z</time></trkpt><trkpt lat="44.32399192250834" lon="10.839332202831336"><ele>677.0</ele><time>2026-04-04T14:47:25Z</time></trkpt><trkpt lat="44.324007205711666" lon="10.839615026117839"><ele>677.0</ele><time>2026-04-04T14:47:26Z</time></trkpt><trkpt lat="44.32400286839201" lon="10.839846679361917"><ele>677.0</ele><time>2026-04-04T14:47:27Z</time></trkpt><trkpt lat="44.32400280524801" lon="10.840042317978726"><ele>677.0</ele><time>2026-04-04T14:47:28Z</time></trkpt><trkpt lat="44.32400981547567" lon="10.840213157174855"><ele>677.0</ele><time>2026-04-04T14:47:29Z</time></trkpt><trkpt lat="44.3240088323387" lon="10.840361986878678"><ele>677.1666666666666</ele><time>2026-04-04T14:47:30Z</time></trkpt><trkpt lat="44.32400686526652" lon="10.840491213730433"><ele>677.3333333333333</ele><time>2026-04-04T14:47:31Z</time></trkpt><trkpt lat="44.32399834388118" lon="10.840607652398726"><ele>677.5</ele><time>2026-04-04T14:47:32Z</time></trkpt><trkpt lat="44.32397497425318" lon="10.84070700092475"><ele>677.6666666666666</ele><time>2026-04-04T14:47:33Z</time></trkpt><trkpt lat="44.32391897656223" lon="10.8407547524615"><ele>677.8333333333334</ele><time>2026-04-04T14:47:34Z</time></trkpt><trkpt lat="44.323845120772226" lon="10.84072757972369"><ele>678.0</ele><time>2026-04-04T14:47:35Z</time></trkpt><trkpt lat="44.32377095673065" lon="10.840774910126152"><ele>677.5</ele><time>2026-04-04T14:47:36Z</time></trkpt><trkpt lat="44.32369023524019" lon="10.840777278135521"><ele>677.0</ele><time>2026-04-04T14:47:37Z</time></trkpt><trkpt lat="44.323603973374894" lon="10.84076726088646"><ele>676.5</ele><time>2026-04-04T14:47:38Z</time></trkpt><trkpt lat="44.32347566000833" lon="10.84075882951671"><ele>676.0</ele><time>2026-04-04T14:47:39Z</time></trkpt><trkpt lat="44.32331315223631" lon="10.840714757211325"><ele>676.0</ele><time>2026-04-04T14:47:40Z</time></trkpt><trkpt lat="44.323137293944114" lon="10.840710595242761"><ele>676.0</ele><time>2026-04-04T14:47:41Z</time></trkpt><trkpt lat="44.32300275785089" lon="10.840714601755547"><ele>676.0</ele><time>2026-04-04T14:47:42Z</time></trkpt><trkpt lat="44.32292345927331" lon="10.840723364572467"><ele>676.0</ele><time>2026-04-04T14:47:43Z</time></trkpt><trkpt lat="44.322851056044904" lon="10.840760277460017"><ele>676.0</ele><time>2026-04-04T14:47:44Z</time></trkpt><trkpt lat="44.32280052091477" lon="10.840850263040744"><ele>676.0</ele><time>2026-04-04T14:47:45Z</time></trkpt><trkpt lat="44.322794648027575" lon="10.840985811481909"><ele>676.0</ele><time>2026-04-04T14:47:46Z</time></trkpt><trkpt lat="44.3227820093822" lon="10.84107349994633"><ele>676.0</ele><time>2026-04-04T14:47:47Z</time></trkpt><trkpt lat="44.32276680927861" lon="10.841168090545775"><ele>676.0</ele><time>2026-04-04T14:47:49Z</time></trkpt><trkpt lat="44.322737446783606" lon="10.841350813528289"><ele>676.0</ele><time>2026-04-04T14:47:51Z</time></trkpt><trkpt lat="44.322705090069284" lon="10.841494323850739"><ele>676.0</ele><time>2026-04-04T14:47:52Z</time></trkpt><trkpt lat="44.322672806258325" lon="10.84165530689645"><ele>676.0</ele><time>2026-04-04T14:47:53Z</time></trkpt><trkpt lat="44.32261612655371" lon="10.841914943723001"><ele>676.0</ele><time>2026-04-04T14:47:54Z</time></trkpt><trkpt lat="44.32257636196502" lon="10.842069204856736"><ele>676.0</ele><time>2026-04-04T14:47:55Z</time></trkpt><trkpt lat="44.32253487804436" lon="10.842185333717525"><ele>677.5</ele><time>2026-04-04T14:47:56Z</time></trkpt><trkpt lat="44.32248550760932" lon="10.84227415742088"><ele>679.0</ele><time>2026-04-04T14:47:57Z</time></trkpt><trkpt lat="44.32262907301192" lon="10.842536215430021"><ele>680.5</ele><time>2026-04-04T14:47:58Z</time></trkpt><trkpt lat="44.32260723861197" lon="10.84267980373303"><ele>682.0</ele><time>2026-04-04T14:47:59Z</time></trkpt><trkpt lat="44.32257831760577" lon="10.842857990088032"><ele>684.0</ele><time>2026-04-04T14:47:59.999Z</time></trkpt><trkpt lat="44.32256108867148" lon="10.843007180984673"><ele>686.0</ele><time>2026-04-04T14:48:00.999Z</time></trkpt><trkpt lat="44.32255109153809" lon="10.843159514433154"><ele>688.0</ele><time>2026-04-04T14:48:01.999Z</time></trkpt><trkpt lat="44.32256271331308" lon="10.843324613415247"><ele>690.0</ele><time>2026-04-04T14:48:02.999Z</time></trkpt><trkpt lat="44.322578710529754" lon="10.843501065594538"><ele>692.6666666666666</ele><time>2026-04-04T14:48:03.999Z</time></trkpt><trkpt lat="44.322584186241464" lon="10.843709577233636"><ele>695.3333333333333</ele><time>2026-04-04T14:48:04.999Z</time></trkpt><trkpt lat="44.32259130070134" lon="10.843924003414726"><ele>698.0</ele><time>2026-04-04T14:48:05.999Z</time></trkpt><trkpt lat="44.322586258026156" lon="10.844140998225166"><ele>701.25</ele><time>2026-04-04T14:48:06.999Z</time></trkpt><trkpt lat="44.32258774769383" lon="10.844311244608956"><ele>704.5</ele><time>2026-04-04T14:48:07.999Z</time></trkpt><trkpt lat="44.32260636153075" lon="10.844449184466374"><ele>707.75</ele><time>2026-04-04T14:48:08.999Z</time></trkpt><trkpt lat="44.32263776868125" lon="10.844628600356426"><ele>711.0</ele><time>2026-04-04T14:48:09.999Z</time></trkpt><trkpt lat="44.322640937594386" lon="10.844809566512325"><ele>711.0</ele><time>2026-04-04T14:48:10.999Z</time></trkpt><trkpt lat="44.32264549601457" lon="10.844976030109969"><ele>711.0</ele><time>2026-04-04T14:48:11.999Z</time></trkpt><trkpt lat="44.322632888679784" lon="10.84517784945807"><ele>711.0</ele><time>2026-04-04T14:48:12.999Z</time></trkpt><trkpt lat="44.322630609052354" lon="10.845351964620976"><ele>711.0</ele><time>2026-04-04T14:48:13.999Z</time></trkpt><trkpt lat="44.32264358845864" lon="10.845545053180798"><ele>714.75</ele><time>2026-04-04T14:48:14.999Z</time></trkpt><trkpt lat="44.32267446292902" lon="10.845739472300906"><ele>718.5</ele><time>2026-04-04T14:48:15.999Z</time></trkpt><trkpt lat="44.32271995593777" lon="10.845888086053757"><ele>722.25</ele><time>2026-04-04T14:48:16.999Z</time></trkpt><trkpt lat="44.32278961735465" lon="10.846034795615678"><ele>726.0</ele><time>2026-04-04T14:48:17.999Z</time></trkpt><trkpt lat="44.322869401624885" lon="10.84619544750481"><ele>729.0</ele><time>2026-04-04T14:48:18.999Z</time></trkpt><trkpt lat="44.32294236277623" lon="10.846296285370824"><ele>732.0</ele><time>2026-04-04T14:48:19.999Z</time></trkpt><trkpt lat="44.323016810101684" lon="10.846380656269858"><ele>735.0</ele><time>2026-04-04T14:48:20.999Z</time></trkpt><trkpt lat="44.32307819834762" lon="10.846403087361884"><ele>738.0</ele><time>2026-04-04T14:48:21.999Z</time></trkpt><trkpt lat="44.32315642482992" lon="10.846433098669472"><ele>741.0</ele><time>2026-04-04T14:49:16Z</time></trkpt><trkpt lat="44.3232537651991" lon="10.846518889216783"><ele>741.0</ele><time>2026-04-04T14:49:18Z</time></trkpt><trkpt lat="44.323308997815296" lon="10.846563473879948"><ele>741.0</ele><time>2026-04-04T14:49:19Z</time></trkpt><trkpt lat="44.32324160577062" lon="10.846642167064557"><ele>741.0</ele><time>2026-04-04T14:49:22Z</time></trkpt><trkpt lat="44.32317680770318" lon="10.846634896967077"><ele>741.0</ele><time>2026-04-04T14:49:23Z</time></trkpt><trkpt lat="44.323092620005" lon="10.846627246805342"><ele>741.0</ele><time>2026-04-04T14:49:24Z</time></trkpt><trkpt lat="44.32298330611363" lon="10.846647223226467"><ele>741.0</ele><time>2026-04-04T14:49:25Z</time></trkpt><trkpt lat="44.322848414592364" lon="10.846695817429875"><ele>741.75</ele><time>2026-04-04T14:49:26Z</time></trkpt><trkpt lat="44.32268405229808" lon="10.846750913877015"><ele>742.5</ele><time>2026-04-04T14:49:27Z</time></trkpt><trkpt lat="44.322523756150595" lon="10.846809104745939"><ele>743.25</ele><time>2026-04-04T14:49:28Z</time></trkpt><trkpt lat="44.32242132893692" lon="10.84682026400506"><ele>744.0</ele><time>2026-04-04T14:49:29Z</time></trkpt><trkpt lat="44.32235191142765" lon="10.846815618834988"><ele>744.0</ele><time>2026-04-04T14:49:30Z</time></trkpt><trkpt lat="44.32228533575129" lon="10.846778251625993"><ele>744.0</ele><time>2026-04-04T14:49:31Z</time></trkpt><trkpt lat="44.32222931238578" lon="10.846694001959506"><ele>744.0</ele><time>2026-04-04T14:49:32Z</time></trkpt><trkpt lat="44.322193906476016" lon="10.846569895704976"><ele>744.0</ele><time>2026-04-04T14:49:33Z</time></trkpt><trkpt lat="44.32217231707328" lon="10.846433054802993"><ele>744.0</ele><time>2026-04-04T14:49:34Z</time></trkpt><trkpt lat="44.32214797972619" lon="10.846333816874607"><ele>744.0</ele><time>2026-04-04T14:49:35Z</time></trkpt><trkpt lat="44.32202655765941" lon="10.846288653419766"><ele>744.5</ele><time>2026-04-04T14:49:37Z</time></trkpt><trkpt lat="44.32197526307673" lon="10.846363443334809"><ele>745.0</ele><time>2026-04-04T14:49:38Z</time></trkpt><trkpt lat="44.32200434112154" lon="10.846596935992704"><ele>745.5</ele><time>2026-04-04T14:49:40Z</time></trkpt><trkpt lat="44.32204924788887" lon="10.846738421645576"><ele>746.0</ele><time>2026-04-04T14:49:41Z</time></trkpt><trkpt lat="44.32209271875885" lon="10.846911873634642"><ele>746.0</ele><time>2026-04-04T14:49:42Z</time></trkpt><trkpt lat="44.3221244185936" lon="10.847066691252156"><ele>746.0</ele><time>2026-04-04T14:49:43Z</time></trkpt><trkpt lat="44.322113037083014" lon="10.847199187198417"><ele>746.0</ele><time>2026-04-04T14:49:44Z</time></trkpt><trkpt lat="44.322075115428014" lon="10.847296689575298"><ele>746.0</ele><time>2026-04-04T14:49:45Z</time></trkpt><trkpt lat="44.3219987475363" lon="10.847315450148729"><ele>746.0</ele><time>2026-04-04T14:49:46Z</time></trkpt><trkpt lat="44.321934691048156" lon="10.847307193241964"><ele>746.0</ele><time>2026-04-04T14:49:47Z</time></trkpt><trkpt lat="44.32185831183388" lon="10.84723694578175"><ele>746.0</ele><time>2026-04-04T14:49:48Z</time></trkpt><trkpt lat="44.321749472319816" lon="10.847219419284695"><ele>746.0</ele><time>2026-04-04T14:49:49Z</time></trkpt><trkpt lat="44.321616275850936" lon="10.847179328561113"><ele>746.0</ele><time>2026-04-04T14:49:50Z</time></trkpt><trkpt lat="44.32147939421544" lon="10.847128619824593"><ele>746.0</ele><time>2026-04-04T14:49:51Z</time></trkpt><trkpt lat="44.32136019218924" lon="10.847045043996864"><ele>745.8</ele><time>2026-04-04T14:49:52Z</time></trkpt><trkpt lat="44.32125487584421" lon="10.846950815276495"><ele>745.5999999999999</ele><time>2026-04-04T14:49:53Z</time></trkpt><trkpt lat="44.321154062791635" lon="10.846879320797624"><ele>745.4</ele><time>2026-04-04T14:49:54Z</time></trkpt><trkpt lat="44.3210721729893" lon="10.846794423515853"><ele>745.2</ele><time>2026-04-04T14:49:55Z</time></trkpt><trkpt lat="44.32097495476074" lon="10.846745155245333"><ele>745.0</ele><time>2026-04-04T14:49:56Z</time></trkpt><trkpt lat="44.32088674875104" lon="10.84666833043144"><ele>748.0</ele><time>2026-04-04T14:49:57Z</time></trkpt><trkpt lat="44.32079354488746" lon="10.84657494634098"><ele>751.0</ele><time>2026-04-04T14:49:58Z</time></trkpt><trkpt lat="44.320711729275644" lon="10.846445086734192"><ele>754.0</ele><time>2026-04-04T14:49:59Z</time></trkpt><trkpt lat="44.32061354415269" lon="10.846331474948826"><ele>757.0</ele><time>2026-04-04T14:50:00Z</time></trkpt><trkpt lat="44.320517178524355" lon="10.846200856595246"><ele>757.0</ele><time>2026-04-04T14:50:01Z</time></trkpt><trkpt lat="44.32041497687519" lon="10.846047953462884"><ele>757.0</ele><time>2026-04-04T14:50:01.999Z</time></trkpt><trkpt lat="44.32031528139829" lon="10.845914510097938"><ele>757.0</ele><time>2026-04-04T14:50:02.999Z</time></trkpt><trkpt lat="44.32021921856988" lon="10.84580370924806"><ele>757.0</ele><time>2026-04-04T14:50:03.999Z</time></trkpt><trkpt lat="44.32011851670141" lon="10.845682915233402"><ele>755.25</ele><time>2026-04-04T14:50:04.999Z</time></trkpt><trkpt lat="44.32001174800942" lon="10.845572010494536"><ele>753.5</ele><time>2026-04-04T14:50:05.999Z</time></trkpt><trkpt lat="44.31991576849333" lon="10.845475989253554"><ele>751.75</ele><time>2026-04-04T14:50:06.999Z</time></trkpt><trkpt lat="44.31980211634373" lon="10.845385416693569"><ele>750.0</ele><time>2026-04-04T14:50:07.999Z</time></trkpt><trkpt lat="44.319675967759196" lon="10.845310346139177"><ele>750.0</ele><time>2026-04-04T14:50:08.999Z</time></trkpt><trkpt lat="44.31955288879734" lon="10.845247090667453"><ele>750.0</ele><time>2026-04-04T14:50:09.999Z</time></trkpt><trkpt lat="44.3194330163463" lon="10.845171301039645"><ele>750.0</ele><time>2026-04-04T14:50:10.999Z</time></trkpt><trkpt lat="44.319316949723245" lon="10.845103158476764"><ele>750.0</ele><time>2026-04-04T14:50:11.999Z</time></trkpt><trkpt lat="44.31921523174947" lon="10.845009132372216"><ele>753.0</ele><time>2026-04-04T14:50:12.999Z</time></trkpt><trkpt lat="44.319122119119974" lon="10.844900432052093"><ele>756.0</ele><time>2026-04-04T14:50:13.999Z</time></trkpt><trkpt lat="44.31903516541732" lon="10.844787111368376"><ele>759.0</ele><time>2026-04-04T14:50:14.999Z</time></trkpt><trkpt lat="44.31897373284663" lon="10.844667485321727"><ele>762.0</ele><time>2026-04-04T14:50:15.999Z</time></trkpt><trkpt lat="44.31892626597459" lon="10.844528053265188"><ele>762.25</ele><time>2026-04-04T14:50:16.999Z</time></trkpt><trkpt lat="44.318884415825124" lon="10.844361465113208"><ele>762.5</ele><time>2026-04-04T14:50:17.999Z</time></trkpt><trkpt lat="44.318840014636784" lon="10.844229648411858"><ele>762.75</ele><time>2026-04-04T14:50:18.999Z</time></trkpt><trkpt lat="44.31876736476043" lon="10.844115660767068"><ele>763.0</ele><time>2026-04-04T14:50:19.999Z</time></trkpt><trkpt lat="44.318670081701484" lon="10.844004539706514"><ele>763.0</ele><time>2026-04-04T14:50:20.999Z</time></trkpt><trkpt lat="44.31855822953311" lon="10.843893600199824"><ele>763.0</ele><time>2026-04-04T14:50:21.999Z</time></trkpt><trkpt lat="44.318417156841846" lon="10.843797654735717"><ele>763.0</ele><time>2026-04-04T14:50:22.999Z</time></trkpt><trkpt lat="44.318258998634036" lon="10.843722009279665"><ele>763.0</ele><time>2026-04-04T14:50:23.999Z</time></trkpt><trkpt lat="44.31807268789678" lon="10.843650835763981"><ele>763.0</ele><time>2026-04-04T14:50:24.999Z</time></trkpt><trkpt lat="44.31789023473649" lon="10.84354366060308"><ele>763.0</ele><time>2026-04-04T14:50:25.999Z</time></trkpt><trkpt lat="44.31772078130509" lon="10.843477547135265"><ele>761.6666666666667</ele><time>2026-04-04T14:50:26.999Z</time></trkpt><trkpt lat="44.317563610032266" lon="10.84344446550754"><ele>760.3333333333334</ele><time>2026-04-04T14:50:27.999Z</time></trkpt><trkpt lat="44.317418395414954" lon="10.843369328045243"><ele>759.0</ele><time>2026-04-04T14:50:28.999Z</time></trkpt><trkpt lat="44.31727166730673" lon="10.843304241785395"><ele>758.3333333333334</ele><time>2026-04-04T14:50:29.999Z</time></trkpt><trkpt lat="44.31712856961591" lon="10.843217394462712"><ele>757.6666666666667</ele><time>2026-04-04T14:50:30.999Z</time></trkpt><trkpt lat="44.3169919054479" lon="10.843118650492412"><ele>757.0</ele><time>2026-04-04T14:50:31.999Z</time></trkpt><trkpt lat="44.316871639867635" lon="10.842998543312559"><ele>757.0</ele><time>2026-04-04T14:50:32.999Z</time></trkpt><trkpt lat="44.31675714301" lon="10.842877194178838"><ele>757.0</ele><time>2026-04-04T14:50:33.999Z</time></trkpt><trkpt lat="44.31665013624152" lon="10.842750215972071"><ele>757.0</ele><time>2026-04-04T14:50:34.999Z</time></trkpt><trkpt lat="44.31655774607919" lon="10.842616072676444"><ele>757.0</ele><time>2026-04-04T14:50:35.999Z</time></trkpt><trkpt lat="44.316496146562656" lon="10.842492414274451"><ele>757.2</ele><time>2026-04-04T14:50:36.999Z</time></trkpt><trkpt lat="44.316450992894204" lon="10.842353821161629"><ele>757.4000000000001</ele><time>2026-04-04T14:50:37.999Z</time></trkpt><trkpt lat="44.31641642626398" lon="10.842212945702887"><ele>757.5999999999999</ele><time>2026-04-04T14:50:38.999Z</time></trkpt><trkpt lat="44.316376783263195" lon="10.842073705404747"><ele>757.8</ele><time>2026-04-04T14:50:39.999Z</time></trkpt><trkpt lat="44.31635052118373" lon="10.84192713529397"><ele>758.0</ele><time>2026-04-04T14:50:40.999Z</time></trkpt><trkpt lat="44.316317417512415" lon="10.841797802834499"><ele>756.5999999999999</ele><time>2026-04-04T14:50:42Z</time></trkpt><trkpt lat="44.31627322739554" lon="10.841695547097553"><ele>755.1999999999999</ele><time>2026-04-04T14:50:43Z</time></trkpt><trkpt lat="44.31621356259318" lon="10.841614305508232"><ele>753.8</ele><time>2026-04-04T14:50:44Z</time></trkpt><trkpt lat="44.316080658195716" lon="10.84162662073126"><ele>752.4</ele><time>2026-04-04T14:50:45Z</time></trkpt><trkpt lat="44.31594181865134" lon="10.84164725562871"><ele>751.0</ele><time>2026-04-04T14:50:46Z</time></trkpt><trkpt lat="44.31578960142767" lon="10.841624211252102"><ele>751.0</ele><time>2026-04-04T14:50:47Z</time></trkpt><trkpt lat="44.315647065960746" lon="10.841596749631085"><ele>751.0</ele><time>2026-04-04T14:50:48Z</time></trkpt><trkpt lat="44.315516150056744" lon="10.841573093070185"><ele>751.0</ele><time>2026-04-04T14:50:49Z</time></trkpt><trkpt lat="44.31537777113492" lon="10.841577810034948"><ele>751.0</ele><time>2026-04-04T14:50:50Z</time></trkpt><trkpt lat="44.315241837733225" lon="10.841536745448881"><ele>749.25</ele><time>2026-04-04T14:50:51Z</time></trkpt><trkpt lat="44.31509946198347" lon="10.841509455302214"><ele>747.5</ele><time>2026-04-04T14:50:52Z</time></trkpt><trkpt lat="44.31496216593682" lon="10.841482030153449"><ele>745.75</ele><time>2026-04-04T14:50:53Z</time></trkpt><trkpt lat="44.31483433032114" lon="10.8414581613828"><ele>744.0</ele><time>2026-04-04T14:50:54Z</time></trkpt><trkpt lat="44.31471585071104" lon="10.841441424380944"><ele>743.8000000000001</ele><time>2026-04-04T14:50:55Z</time></trkpt><trkpt lat="44.314601964605956" lon="10.841434779871914"><ele>743.6</ele><time>2026-04-04T14:50:56Z</time></trkpt><trkpt lat="44.31449208819898" lon="10.841430268189281"><ele>743.4</ele><time>2026-04-04T14:50:57Z</time></trkpt><trkpt lat="44.31438199538052" lon="10.841424012867742"><ele>743.2</ele><time>2026-04-04T14:50:58Z</time></trkpt><trkpt lat="44.31428083080585" lon="10.84140204422313"><ele>743.0</ele><time>2026-04-04T14:50:59Z</time></trkpt><trkpt lat="44.31418408380105" lon="10.84137294427175"><ele>743.0</ele><time>2026-04-04T14:51:00Z</time></trkpt><trkpt lat="44.314099106840786" lon="10.841344812759758"><ele>743.0</ele><time>2026-04-04T14:51:01Z</time></trkpt><trkpt lat="44.31403422088084" lon="10.841321670466892"><ele>743.0</ele><time>2026-04-04T14:51:02Z</time></trkpt><trkpt lat="44.31396998438719" lon="10.841299660195084"><ele>743.0</ele><time>2026-04-04T14:51:03Z</time></trkpt><trkpt lat="44.31390719386641" lon="10.841283147322864"><ele>743.0</ele><time>2026-04-04T14:51:04Z</time></trkpt><trkpt lat="44.31379481245724" lon="10.841301498676902"><ele>743.0</ele><time>2026-04-04T14:51:06Z</time></trkpt><trkpt lat="44.3136763584172" lon="10.84128627583326"><ele>742.4</ele><time>2026-04-04T14:51:08Z</time></trkpt><trkpt lat="44.313592088584116" lon="10.841290572694952"><ele>741.8</ele><time>2026-04-04T14:51:09Z</time></trkpt><trkpt lat="44.31348718980843" lon="10.841311695533467"><ele>741.2</ele><time>2026-04-04T14:51:10Z</time></trkpt><trkpt lat="44.313384211939905" lon="10.84126559503517"><ele>740.6</ele><time>2026-04-04T14:51:11Z</time></trkpt><trkpt lat="44.313267265630856" lon="10.841253532815216"><ele>740.0</ele><time>2026-04-04T14:51:12Z</time></trkpt><trkpt lat="44.313149349487055" lon="10.841208570470819"><ele>738.75</ele><time>2026-04-04T14:51:13Z</time></trkpt><trkpt lat="44.3130244139925" lon="10.841163651929698"><ele>737.5</ele><time>2026-04-04T14:51:14Z</time></trkpt><trkpt lat="44.31290792960464" lon="10.841123924677076"><ele>736.25</ele><time>2026-04-04T14:51:15Z</time></trkpt><trkpt lat="44.31279065316667" lon="10.841077294854895"><ele>735.0</ele><time>2026-04-04T14:51:16Z</time></trkpt><trkpt lat="44.31267615269912" lon="10.841042706524261"><ele>735.0</ele><time>2026-04-04T14:51:17Z</time></trkpt><trkpt lat="44.31256815911045" lon="10.840999303685456"><ele>735.0</ele><time>2026-04-04T14:51:18Z</time></trkpt><trkpt lat="44.3124509505792" lon="10.841013831834553"><ele>735.0</ele><time>2026-04-04T14:51:19Z</time></trkpt><trkpt lat="44.31233767733989" lon="10.841059024869503"><ele>735.0</ele><time>2026-04-04T14:51:20Z</time></trkpt><trkpt lat="44.31223322770403" lon="10.841153870417248"><ele>739.5</ele><time>2026-04-04T14:51:21Z</time></trkpt><trkpt lat="44.3121354330643" lon="10.841292356681373"><ele>744.0</ele><time>2026-04-04T14:51:22Z</time></trkpt><trkpt lat="44.31203895624555" lon="10.841447765767454"><ele>748.5</ele><time>2026-04-04T14:51:23Z</time></trkpt><trkpt lat="44.31194924791279" lon="10.841590162504094"><ele>753.0</ele><time>2026-04-04T14:51:24Z</time></trkpt><trkpt lat="44.31186806426713" lon="10.841737253830402"><ele>749.0</ele><time>2026-04-04T14:51:25Z</time></trkpt><trkpt lat="44.31178663974474" lon="10.841890450329307"><ele>745.0</ele><time>2026-04-04T14:51:26Z</time></trkpt><trkpt lat="44.3117274907629" lon="10.84205307342016"><ele>741.0</ele><time>2026-04-04T14:51:27Z</time></trkpt><trkpt lat="44.311672360930054" lon="10.842205635475347"><ele>737.0</ele><time>2026-04-04T14:51:28Z</time></trkpt><trkpt lat="44.31161682020228" lon="10.842365812077437"><ele>737.0</ele><time>2026-04-04T14:51:29Z</time></trkpt><trkpt lat="44.3115664574142" lon="10.84252120996802"><ele>737.0</ele><time>2026-04-04T14:51:30Z</time></trkpt><trkpt lat="44.31152283878571" lon="10.842666583988217"><ele>737.0</ele><time>2026-04-04T14:51:31Z</time></trkpt><trkpt lat="44.31148124265888" lon="10.84280651100282"><ele>737.0</ele><time>2026-04-04T14:51:32Z</time></trkpt><trkpt lat="44.31143941739487" lon="10.842951766660892"><ele>734.75</ele><time>2026-04-04T14:51:33Z</time></trkpt><trkpt lat="44.311416779529424" lon="10.843110168614642"><ele>732.5</ele><time>2026-04-04T14:51:34Z</time></trkpt><trkpt lat="44.31141674306837" lon="10.84328950643682"><ele>730.25</ele><time>2026-04-04T14:51:35Z</time></trkpt><trkpt lat="44.311399175967026" lon="10.843504645264668"><ele>728.0</ele><time>2026-04-04T14:51:36Z</time></trkpt><trkpt lat="44.311393021267115" lon="10.843723901415485"><ele>728.0</ele><time>2026-04-04T14:51:37Z</time></trkpt><trkpt lat="44.31140266586684" lon="10.843918878498766"><ele>728.0</ele><time>2026-04-04T14:51:38Z</time></trkpt><trkpt lat="44.31139484262924" lon="10.844098064554016"><ele>728.0</ele><time>2026-04-04T14:51:39Z</time></trkpt><trkpt lat="44.31139243452403" lon="10.844271154482817"><ele>728.0</ele><time>2026-04-04T14:51:40Z</time></trkpt><trkpt lat="44.311379043924646" lon="10.844440431212412"><ele>728.0</ele><time>2026-04-04T14:51:41Z</time></trkpt><trkpt lat="44.31137270873454" lon="10.844608205490365"><ele>728.0</ele><time>2026-04-04T14:51:42Z</time></trkpt><trkpt lat="44.31136169180586" lon="10.844759725163135"><ele>728.0</ele><time>2026-04-04T14:51:43Z</time></trkpt><trkpt lat="44.31136075079137" lon="10.844905315460085"><ele>728.0</ele><time>2026-04-04T14:51:44Z</time></trkpt><trkpt lat="44.311335372819954" lon="10.845037613203258"><ele>728.0</ele><time>2026-04-04T14:51:45Z</time></trkpt><trkpt lat="44.31126898067053" lon="10.845159677988772"><ele>724.75</ele><time>2026-04-04T14:51:46Z</time></trkpt><trkpt lat="44.31119506813044" lon="10.845311173129797"><ele>721.5</ele><time>2026-04-04T14:51:47Z</time></trkpt><trkpt lat="44.311119984666504" lon="10.845465645520953"><ele>718.25</ele><time>2026-04-04T14:51:48Z</time></trkpt><trkpt lat="44.31106345118878" lon="10.84562389562923"><ele>715.0</ele><time>2026-04-04T14:51:49Z</time></trkpt><trkpt lat="44.31099456843868" lon="10.84576584469876"><ele>715.0</ele><time>2026-04-04T14:51:50Z</time></trkpt><trkpt lat="44.31092655606281" lon="10.845890434282754"><ele>715.0</ele><time>2026-04-04T14:51:51Z</time></trkpt><trkpt lat="44.31087506878218" lon="10.846004712371528"><ele>715.0</ele><time>2026-04-04T14:51:52Z</time></trkpt><trkpt lat="44.31082297288615" lon="10.846097092171098"><ele>715.0</ele><time>2026-04-04T14:51:53Z</time></trkpt><trkpt lat="44.310749101545625" lon="10.846147861416105"><ele>715.0</ele><time>2026-04-04T14:51:54Z</time></trkpt><trkpt lat="44.310681840806055" lon="10.846190928828728"><ele>715.0</ele><time>2026-04-04T14:51:55Z</time></trkpt><trkpt lat="44.310609232916995" lon="10.846198907035063"><ele>710.0</ele><time>2026-04-04T14:51:56Z</time></trkpt><trkpt lat="44.31054179929555" lon="10.846179942216354"><ele>705.0</ele><time>2026-04-04T14:51:57Z</time></trkpt><trkpt lat="44.31049356621962" lon="10.846074807647373"><ele>700.0</ele><time>2026-04-04T14:51:58Z</time></trkpt><trkpt lat="44.310448823307105" lon="10.845952695816704"><ele>695.0</ele><time>2026-04-04T14:51:59Z</time></trkpt><trkpt lat="44.31040814584678" lon="10.845799650293424"><ele>690.0</ele><time>2026-04-04T14:52:00Z</time></trkpt><trkpt lat="44.310349143587445" lon="10.845623076960342"><ele>690.0</ele><time>2026-04-04T14:52:01Z</time></trkpt><trkpt lat="44.31031398893791" lon="10.845440707687619"><ele>690.0</ele><time>2026-04-04T14:52:02Z</time></trkpt><trkpt lat="44.310284005296175" lon="10.845275909474486"><ele>690.0</ele><time>2026-04-04T14:52:03Z</time></trkpt><trkpt lat="44.31026169602668" lon="10.845099659476885"><ele>690.0</ele><time>2026-04-04T14:52:04Z</time></trkpt><trkpt lat="44.31025183702846" lon="10.844906570000479"><ele>690.75</ele><time>2026-04-04T14:52:05Z</time></trkpt><trkpt lat="44.3102536170802" lon="10.844726632017107"><ele>691.5</ele><time>2026-04-04T14:52:05.999Z</time></trkpt><trkpt lat="44.31025051751089" lon="10.84456124575795"><ele>692.25</ele><time>2026-04-04T14:52:06.999Z</time></trkpt><trkpt lat="44.310243197995334" lon="10.844406512587781"><ele>693.0</ele><time>2026-04-04T14:52:07.999Z</time></trkpt><trkpt lat="44.31024077556676" lon="10.844262802985934"><ele>693.2</ele><time>2026-04-04T14:52:08.999Z</time></trkpt><trkpt lat="44.310241870730984" lon="10.844113803054793"><ele>693.4</ele><time>2026-04-04T14:52:09.999Z</time></trkpt><trkpt lat="44.31024416200911" lon="10.843978705404826"><ele>693.6</ele><time>2026-04-04T14:52:10.999Z</time></trkpt><trkpt lat="44.31025286487984" lon="10.843855652967868"><ele>693.8000000000001</ele><time>2026-04-04T14:52:11.999Z</time></trkpt><trkpt lat="44.3102631371369" lon="10.843732863372356"><ele>694.0</ele><time>2026-04-04T14:52:12.999Z</time></trkpt><trkpt lat="44.31025422006481" lon="10.843615817502727"><ele>694.0</ele><time>2026-04-04T14:52:13.999Z</time></trkpt><trkpt lat="44.31023068930933" lon="10.843513706736836"><ele>694.0</ele><time>2026-04-04T14:52:14.999Z</time></trkpt><trkpt lat="44.31018635974862" lon="10.843432052545893"><ele>694.0</ele><time>2026-04-04T14:52:15.999Z</time></trkpt><trkpt lat="44.310129758297435" lon="10.84336475498955"><ele>694.0</ele><time>2026-04-04T14:52:16.999Z</time></trkpt><trkpt lat="44.31006301781022" lon="10.843314803259766"><ele>694.0</ele><time>2026-04-04T14:52:17.999Z</time></trkpt><trkpt lat="44.30999477058034" lon="10.843252718272785"><ele>694.0</ele><time>2026-04-04T14:52:18.999Z</time></trkpt><trkpt lat="44.30988704978143" lon="10.843238042437005"><ele>694.25</ele><time>2026-04-04T14:52:19.999Z</time></trkpt><trkpt lat="44.30975732329551" lon="10.843235649304065"><ele>694.5</ele><time>2026-04-04T14:52:20.999Z</time></trkpt><trkpt lat="44.30962406060021" lon="10.843215791362883"><ele>694.75</ele><time>2026-04-04T14:52:21.999Z</time></trkpt><trkpt lat="44.30950410127881" lon="10.843227316169662"><ele>695.0</ele><time>2026-04-04T14:52:22.999Z</time></trkpt><trkpt lat="44.309396196069585" lon="10.843259261812998"><ele>695.0</ele><time>2026-04-04T14:52:23.999Z</time></trkpt><trkpt lat="44.309312452009074" lon="10.843353761324362"><ele>695.0</ele><time>2026-04-04T14:52:24.999Z</time></trkpt><trkpt lat="44.30921847320054" lon="10.843423373973524"><ele>695.0</ele><time>2026-04-04T14:52:25.999Z</time></trkpt><trkpt lat="44.30913193523209" lon="10.843492965490768"><ele>695.0</ele><time>2026-04-04T14:52:26.999Z</time></trkpt><trkpt lat="44.309041269538575" lon="10.843540890642757"><ele>695.0</ele><time>2026-04-04T14:52:27.999Z</time></trkpt><trkpt lat="44.308946558217464" lon="10.84359613438731"><ele>690.8</ele><time>2026-04-04T14:52:28.999Z</time></trkpt><trkpt lat="44.30885919322965" lon="10.843655419987309"><ele>686.6</ele><time>2026-04-04T14:52:29.999Z</time></trkpt><trkpt lat="44.30877979334763" lon="10.843732800672973"><ele>682.4000000000001</ele><time>2026-04-04T14:52:30.999Z</time></trkpt><trkpt lat="44.3087124980573" lon="10.843861016251449"><ele>678.2</ele><time>2026-04-04T14:52:31.999Z</time></trkpt><trkpt lat="44.30861264826885" lon="10.843895198461361"><ele>674.0</ele><time>2026-04-04T14:52:32.999Z</time></trkpt><trkpt lat="44.30852370558195" lon="10.843946444734003"><ele>674.0</ele><time>2026-04-04T14:52:33.999Z</time></trkpt><trkpt lat="44.30844301461748" lon="10.843991707474558"><ele>674.0</ele><time>2026-04-04T14:52:34.999Z</time></trkpt><trkpt lat="44.30838031669907" lon="10.844026862834104"><ele>674.0</ele><time>2026-04-04T14:52:35.999Z</time></trkpt><trkpt lat="44.30831894820665" lon="10.844065788081789"><ele>674.0</ele><time>2026-04-04T14:52:36.999Z</time></trkpt><trkpt lat="44.308219151626574" lon="10.844132102304542"><ele>674.0</ele><time>2026-04-04T14:52:38.999Z</time></trkpt><trkpt lat="44.308115709005484" lon="10.844124743624796"><ele>674.0</ele><time>2026-04-04T14:52:40.999Z</time></trkpt><trkpt lat="44.30804934749842" lon="10.844114544205995"><ele>671.75</ele><time>2026-04-04T14:52:42.999Z</time></trkpt><trkpt lat="44.307971798066006" lon="10.84408804378158"><ele>669.5</ele><time>2026-04-04T14:52:45.999Z</time></trkpt><trkpt lat="44.30789370348956" lon="10.844045107502687"><ele>667.25</ele><time>2026-04-04T14:52:48Z</time></trkpt><trkpt lat="44.30788502756131" lon="10.843734751871601"><ele>665.0</ele><time>2026-04-04T14:52:50Z</time></trkpt><trkpt lat="44.307827592290316" lon="10.84365521635984"><ele>665.0</ele><time>2026-04-04T14:52:51.001Z</time></trkpt><trkpt lat="44.30775768005236" lon="10.843548566267515"><ele>665.0</ele><time>2026-04-04T14:52:52Z</time></trkpt><trkpt lat="44.307665398577605" lon="10.8434178818334"><ele>665.0</ele><time>2026-04-04T14:52:53Z</time></trkpt><trkpt lat="44.30758521617008" lon="10.843293857185092"><ele>665.0</ele><time>2026-04-04T14:52:54Z</time></trkpt><trkpt lat="44.307545269296824" lon="10.843224506138997"><ele>665.0</ele><time>2026-04-04T14:52:55Z</time></trkpt><trkpt lat="44.307479261818294" lon="10.843139813388103"><ele>665.8333333333333</ele><time>2026-04-04T14:52:56Z</time></trkpt><trkpt lat="44.30742883222684" lon="10.843072358225127"><ele>666.6666666666666</ele><time>2026-04-04T14:52:57Z</time></trkpt><trkpt lat="44.30737338599122" lon="10.842991294787582"><ele>667.5</ele><time>2026-04-04T14:52:58.001Z</time></trkpt><trkpt lat="44.3073318695213" lon="10.842916090535988"><ele>668.3333333333334</ele><time>2026-04-04T14:52:59Z</time></trkpt><trkpt lat="44.30730102133354" lon="10.842827360095585"><ele>669.1666666666667</ele><time>2026-04-04T14:53:00Z</time></trkpt><trkpt lat="44.3072710285839" lon="10.84271138997548"><ele>670.0</ele><time>2026-04-04T14:53:01Z</time></trkpt><trkpt lat="44.30723500777733" lon="10.842570858847516"><ele>670.0</ele><time>2026-04-04T14:53:02Z</time></trkpt><trkpt lat="44.30719847956897" lon="10.842484666295091"><ele>670.0</ele><time>2026-04-04T14:53:03Z</time></trkpt><trkpt lat="44.30715064759043" lon="10.84237702340279"><ele>670.0</ele><time>2026-04-04T14:53:04Z</time></trkpt><trkpt lat="44.307108903207116" lon="10.842281807358495"><ele>670.0</ele><time>2026-04-04T14:53:05Z</time></trkpt><trkpt lat="44.307080453859115" lon="10.842163556344806"><ele>670.0</ele><time>2026-04-04T14:53:06Z</time></trkpt><trkpt lat="44.307054936276586" lon="10.84205060182836"><ele>670.0</ele><time>2026-04-04T14:53:07Z</time></trkpt><trkpt lat="44.30702370424989" lon="10.84193027485726"><ele>669.9999999999999</ele><time>2026-04-04T14:53:08Z</time></trkpt><trkpt lat="44.30700739379555" lon="10.84182701344667"><ele>670.0</ele><time>2026-04-04T14:53:09Z</time></trkpt><trkpt lat="44.30699484496855" lon="10.841709993967555"><ele>670.0</ele><time>2026-04-04T14:53:10Z</time></trkpt><trkpt lat="44.30699736704973" lon="10.841604964795312"><ele>670.0</ele><time>2026-04-04T14:53:11Z</time></trkpt><trkpt lat="44.30700571486626" lon="10.841498421957098"><ele>670.0</ele><time>2026-04-04T14:53:12Z</time></trkpt><trkpt lat="44.30700749718117" lon="10.841401880594596"><ele>669.9999999999999</ele><time>2026-04-04T14:53:13Z</time></trkpt><trkpt lat="44.306998474679965" lon="10.84131350008446"><ele>670.0</ele><time>2026-04-04T14:53:14Z</time></trkpt><trkpt lat="44.3070222821852" lon="10.841181894952566"><ele>670.3333333333334</ele><time>2026-04-04T14:53:16Z</time></trkpt><trkpt lat="44.307050714072645" lon="10.841066024410983"><ele>670.6666666666667</ele><time>2026-04-04T14:53:17Z</time></trkpt><trkpt lat="44.307079048201615" lon="10.840957963143984"><ele>671.0</ele><time>2026-04-04T14:53:18Z</time></trkpt><trkpt lat="44.30710280723096" lon="10.840833944428034"><ele>671.3333333333334</ele><time>2026-04-04T14:53:20Z</time></trkpt><trkpt lat="44.30709684637417" lon="10.840737482106341"><ele>671.6666666666666</ele><time>2026-04-04T14:53:52Z</time></trkpt><trkpt lat="44.30701689670063" lon="10.840643679307204"><ele>672.0</ele><time>2026-04-04T14:53:54Z</time></trkpt><trkpt lat="44.30695413808816" lon="10.840580533376112"><ele>672.0</ele><time>2026-04-04T14:53:55Z</time></trkpt><trkpt lat="44.306885952025134" lon="10.84052524589349"><ele>672.0</ele><time>2026-04-04T14:53:56Z</time></trkpt><trkpt lat="44.306822545022634" lon="10.840471713602712"><ele>672.0</ele><time>2026-04-04T14:53:57Z</time></trkpt><trkpt lat="44.30671299311702" lon="10.840373861154688"><ele>672.0</ele><time>2026-04-04T14:53:59Z</time></trkpt><trkpt lat="44.306605936682665" lon="10.84029410371069"><ele>672.0</ele><time>2026-04-04T14:54:01Z</time></trkpt><trkpt lat="44.30653846845294" lon="10.840262566816858"><ele>672.0</ele><time>2026-04-04T14:54:03Z</time></trkpt><trkpt lat="44.30645179272732" lon="10.840308765199861"><ele>672.0</ele><time>2026-04-04T14:54:06Z</time></trkpt><trkpt lat="44.30637925717997" lon="10.84026103557205"><ele>672.0</ele><time>2026-04-04T14:54:08Z</time></trkpt><trkpt lat="44.30632420707874" lon="10.840214777073832"><ele>672.0</ele><time>2026-04-04T14:54:10Z</time></trkpt><trkpt lat="44.306368012719176" lon="10.840111189830399"><ele>672.0</ele><time>2026-04-04T14:54:12Z</time></trkpt><trkpt lat="44.306427689955235" lon="10.840044806001675"><ele>672.0</ele><time>2026-04-04T14:54:14Z</time></trkpt><trkpt lat="44.30649645770162" lon="10.840012938189975"><ele>671.1666666666666</ele><time>2026-04-04T14:54:16Z</time></trkpt><trkpt lat="44.30655963134939" lon="10.840005495760158"><ele>670.3333333333334</ele><time>2026-04-04T14:54:19Z</time></trkpt><trkpt lat="44.30654584725386" lon="10.839892993100783"><ele>669.5</ele><time>2026-04-04T14:54:22Z</time></trkpt><trkpt lat="44.30648158878581" lon="10.83981755118714"><ele>668.6666666666667</ele><time>2026-04-04T14:54:23.999Z</time></trkpt><trkpt lat="44.30636922771176" lon="10.83980731441114"><ele>667.8333333333334</ele><time>2026-04-04T14:54:25.999Z</time></trkpt><trkpt lat="44.306306347246014" lon="10.83976523245115"><ele>667.0</ele><time>2026-04-04T14:54:26.999Z</time></trkpt><trkpt lat="44.306230262779785" lon="10.839670843904475"><ele>665.1666666666667</ele><time>2026-04-04T14:54:28.999Z</time></trkpt><trkpt lat="44.306196727970466" lon="10.839594327544763"><ele>663.3333333333334</ele><time>2026-04-04T14:54:31.999Z</time></trkpt><trkpt lat="44.306111400830034" lon="10.83956849970984"><ele>661.5</ele><time>2026-04-04T14:54:33.999Z</time></trkpt><trkpt lat="44.30601262501895" lon="10.839557016209731"><ele>659.6666666666666</ele><time>2026-04-04T14:54:35.999Z</time></trkpt><trkpt lat="44.30592773278099" lon="10.839590470224808"><ele>657.8333333333333</ele><time>2026-04-04T14:54:37.999Z</time></trkpt><trkpt lat="44.30582189185298" lon="10.839623300918799"><ele>656.0</ele><time>2026-04-04T14:54:39.999Z</time></trkpt><trkpt lat="44.30571298738353" lon="10.839641023950039"><ele>656.0</ele><time>2026-04-04T14:54:41.999Z</time></trkpt><trkpt lat="44.305599947368314" lon="10.839687822209624"><ele>656.0</ele><time>2026-04-04T14:54:43.999Z</time></trkpt><trkpt lat="44.30551607174291" lon="10.839711248825285"><ele>656.0</ele><time>2026-04-04T14:54:45.999Z</time></trkpt><trkpt lat="44.30544096478621" lon="10.839730110752036"><ele>656.0</ele><time>2026-04-04T14:54:47.999Z</time></trkpt><trkpt lat="44.305350858358196" lon="10.839766402105415"><ele>656.0</ele><time>2026-04-04T14:54:49.999Z</time></trkpt><trkpt lat="44.30525511077543" lon="10.839751741588136"><ele>656.1666666666666</ele><time>2026-04-04T14:54:51.999Z</time></trkpt><trkpt lat="44.30517073877988" lon="10.839688603207803"><ele>656.3333333333333</ele><time>2026-04-04T14:54:54.001Z</time></trkpt><trkpt lat="44.30510377536077" lon="10.839626660086473"><ele>656.5</ele><time>2026-04-04T14:54:57.001Z</time></trkpt><trkpt lat="44.30506981264862" lon="10.839546282288005"><ele>656.6666666666666</ele><time>2026-04-04T14:54:59.001Z</time></trkpt><trkpt lat="44.30500617670959" lon="10.839470687933881"><ele>656.8333333333334</ele><time>2026-04-04T14:55:01.001Z</time></trkpt><trkpt lat="44.30491069704154" lon="10.839386814232583"><ele>657.0</ele><time>2026-04-04T14:55:03.001Z</time></trkpt><trkpt lat="44.30484684349915" lon="10.839304031570103"><ele>657.0</ele><time>2026-04-04T14:55:05.001Z</time></trkpt><trkpt lat="44.3047767550986" lon="10.839250386429255"><ele>657.0</ele><time>2026-04-04T14:55:07.001Z</time></trkpt><trkpt lat="44.30471463357119" lon="10.839230050048961"><ele>657.0</ele><time>2026-04-04T14:55:11.001Z</time></trkpt><trkpt lat="44.304701100655" lon="10.839335481331178"><ele>657.0</ele><time>2026-04-04T14:55:23Z</time></trkpt><trkpt lat="44.30475677576708" lon="10.839394850549521"><ele>657.0</ele><time>2026-04-04T14:55:29Z</time></trkpt><trkpt lat="44.304752566716296" lon="10.839508330887073"><ele>657.0</ele><time>2026-04-04T14:55:32Z</time></trkpt><trkpt lat="44.30471379146486" lon="10.83959133477406"><ele>657.0</ele><time>2026-04-04T14:55:40Z</time></trkpt><trkpt lat="44.304638905556544" lon="10.839619440850496"><ele>661.8333333333334</ele><time>2026-04-04T14:55:45Z</time></trkpt><trkpt lat="44.30457717646728" lon="10.839658141799225"><ele>666.6666666666666</ele><time>2026-04-04T14:55:48Z</time></trkpt><trkpt lat="44.30448460635842" lon="10.839619438251113"><ele>671.5</ele><time>2026-04-04T14:55:51Z</time></trkpt><trkpt lat="44.30441845363631" lon="10.839594965492168"><ele>676.3333333333333</ele><time>2026-04-04T14:55:53Z</time></trkpt><trkpt lat="44.304331772698426" lon="10.839583681313092"><ele>681.1666666666666</ele><time>2026-04-04T14:55:56Z</time></trkpt><trkpt lat="44.3042700255561" lon="10.83955831695586"><ele>686.0</ele><time>2026-04-04T14:55:58Z</time></trkpt><trkpt lat="44.30419079247719" lon="10.839546086682688"><ele>686.0</ele><time>2026-04-04T14:56:00Z</time></trkpt><trkpt lat="44.30412213951911" lon="10.83953738783936"><ele>686.0</ele><time>2026-04-04T14:56:02Z</time></trkpt><trkpt lat="44.30406107658192" lon="10.839629037093436"><ele>686.0</ele><time>2026-04-04T14:56:05Z</time></trkpt><trkpt lat="44.304089760061736" lon="10.839712224426984"><ele>686.0</ele><time>2026-04-04T14:56:07Z</time></trkpt><trkpt lat="44.30416019744442" lon="10.839783511268033"><ele>686.0</ele><time>2026-04-04T14:56:10Z</time></trkpt><trkpt lat="44.3041751152223" lon="10.839878977783536"><ele>686.0</ele><time>2026-04-04T14:56:13Z</time></trkpt><trkpt lat="44.30412487866063" lon="10.839943308001564"><ele>686.0</ele><time>2026-04-04T14:56:15Z</time></trkpt><trkpt lat="44.30411564868031" lon="10.84003137522141"><ele>686.0</ele><time>2026-04-04T14:56:18Z</time></trkpt><trkpt lat="44.30407130201701" lon="10.840110521129912"><ele>686.0</ele><time>2026-04-04T14:56:23Z</time></trkpt><trkpt lat="44.30403419008335" lon="10.840190812068014"><ele>686.0</ele><time>2026-04-04T14:56:25Z</time></trkpt><trkpt lat="44.3039554479084" lon="10.840307947583689"><ele>686.0</ele><time>2026-04-04T14:56:26Z</time></trkpt><trkpt lat="44.30393287792765" lon="10.840431663493518"><ele>686.0</ele><time>2026-04-04T14:56:28Z</time></trkpt><trkpt lat="44.30392129764858" lon="10.84052945835336"><ele>690.0</ele><time>2026-04-04T14:56:30Z</time></trkpt><trkpt lat="44.30389119007541" lon="10.84061120805018"><ele>694.0</ele><time>2026-04-04T14:56:31.999Z</time></trkpt><trkpt lat="44.303873042867856" lon="10.840698321314747"><ele>698.0</ele><time>2026-04-04T14:56:33.999Z</time></trkpt><trkpt lat="44.30383421647294" lon="10.840788641859275"><ele>702.0</ele><time>2026-04-04T14:56:35.999Z</time></trkpt><trkpt lat="44.30375327977811" lon="10.840778081236632"><ele>706.0</ele><time>2026-04-04T14:56:39.999Z</time></trkpt><trkpt lat="44.303693893663436" lon="10.840687444848735"><ele>710.0</ele><time>2026-04-04T14:56:41.999Z</time></trkpt><trkpt lat="44.30360964000717" lon="10.840626297698135"><ele>710.0</ele><time>2026-04-04T14:56:43.999Z</time></trkpt><trkpt lat="44.3035550183833" lon="10.840552922256274"><ele>710.0</ele><time>2026-04-04T14:56:46.999Z</time></trkpt><trkpt lat="44.30355104727672" lon="10.840445130050437"><ele>710.0</ele><time>2026-04-04T14:57:06.001Z</time></trkpt><trkpt lat="44.30355606489387" lon="10.840356067979751"><ele>710.0</ele><time>2026-04-04T14:57:23Z</time></trkpt><trkpt lat="44.303553968596944" lon="10.840259212799118"><ele>710.0</ele><time>2026-04-04T15:10:25Z</time></trkpt><trkpt lat="44.30353895733567" lon="10.840165455137495"><ele>710.0</ele><time>2026-04-04T15:10:33Z</time></trkpt><trkpt lat="44.303500834525174" lon="10.840074775333461"><ele>710.0</ele><time>2026-04-04T15:10:35.999Z</time></trkpt><trkpt lat="44.30344999991763" lon="10.839994842315212"><ele>710.5</ele><time>2026-04-04T15:10:43.999Z</time></trkpt><trkpt lat="44.30338915662151" lon="10.839931306062823"><ele>711.0</ele><time>2026-04-04T15:15:08.999Z</time></trkpt><trkpt lat="44.30330097080068" lon="10.839940357643359"><ele>711.5</ele><time>2026-04-04T15:15:15.999Z</time></trkpt><trkpt lat="44.303236944173705" lon="10.83991464410807"><ele>712.0</ele><time>2026-04-04T15:15:17.999Z</time></trkpt><trkpt lat="44.30316245053584" lon="10.839850763929979"><ele>712.5</ele><time>2026-04-04T15:15:20.999Z</time></trkpt><trkpt lat="44.30312102440436" lon="10.839771019243441"><ele>713.0</ele><time>2026-04-04T15:15:22.999Z</time></trkpt><trkpt lat="44.30307096636181" lon="10.839686525787345"><ele>715.5999999999999</ele><time>2026-04-04T15:15:25.999Z</time></trkpt><trkpt lat="44.30297848622116" lon="10.839706265821393"><ele>718.1999999999999</ele><time>2026-04-04T15:15:28.999Z</time></trkpt><trkpt lat="44.3028849569635" lon="10.83969131000842"><ele>720.8</ele><time>2026-04-04T15:15:30.999Z</time></trkpt><trkpt lat="44.302798967517944" lon="10.839683012558769"><ele>723.4</ele><time>2026-04-04T15:15:32.999Z</time></trkpt><trkpt lat="44.30271394236124" lon="10.83973811530313"><ele>726.0</ele><time>2026-04-04T15:15:35.999Z</time></trkpt><trkpt lat="44.30264214873302" lon="10.839845716688403"><ele>726.0</ele><time>2026-04-04T15:15:37.999Z</time></trkpt><trkpt lat="44.30257927717555" lon="10.839910798862459"><ele>726.0</ele><time>2026-04-04T15:15:38.999Z</time></trkpt><trkpt lat="44.30250717106782" lon="10.839971503454006"><ele>726.0</ele><time>2026-04-04T15:15:39.999Z</time></trkpt><trkpt lat="44.30242627861897" lon="10.840027396985263"><ele>726.0</ele><time>2026-04-04T15:15:41.999Z</time></trkpt><trkpt lat="44.30238455474227" lon="10.839956438742226"><ele>726.0</ele><time>2026-04-04T15:15:43.999Z</time></trkpt><trkpt lat="44.302388756056814" lon="10.839851424761113"><ele>726.0</ele><time>2026-04-04T15:15:45.999Z</time></trkpt><trkpt lat="44.30244528437627" lon="10.839746366857986"><ele>726.0</ele><time>2026-04-04T15:15:47.999Z</time></trkpt><trkpt lat="44.30250551814118" lon="10.839660680464839"><ele>726.0</ele><time>2026-04-04T15:15:50Z</time></trkpt><trkpt lat="44.30254933287365" lon="10.839532024666747"><ele>726.0</ele><time>2026-04-04T15:15:52Z</time></trkpt><trkpt lat="44.30254918854895" lon="10.839404961975983"><ele>726.0</ele><time>2026-04-04T15:15:54Z</time></trkpt><trkpt lat="44.30253712250842" lon="10.83931787983824"><ele>726.0</ele><time>2026-04-04T15:15:56Z</time></trkpt><trkpt lat="44.302497109556285" lon="10.839186447256525"><ele>726.0</ele><time>2026-04-04T15:15:58Z</time></trkpt><trkpt lat="44.30242216332718" lon="10.839139870993947"><ele>727.0</ele><time>2026-04-04T15:16:00Z</time></trkpt><trkpt lat="44.302360664001846" lon="10.839092232715526"><ele>728.0</ele><time>2026-04-04T15:16:02Z</time></trkpt><trkpt lat="44.302346198668324" lon="10.838986465667647"><ele>729.0</ele><time>2026-04-04T15:16:04Z</time></trkpt><trkpt lat="44.302304268697036" lon="10.838845545950607"><ele>730.0</ele><time>2026-04-04T15:16:06Z</time></trkpt><trkpt lat="44.30229144249707" lon="10.838699250382186"><ele>731.0</ele><time>2026-04-04T15:16:08Z</time></trkpt><trkpt lat="44.30230269117162" lon="10.83856071242623"><ele>731.6666666666666</ele><time>2026-04-04T15:16:10Z</time></trkpt><trkpt lat="44.302262763064455" lon="10.838465219566874"><ele>732.3333333333333</ele><time>2026-04-04T15:16:12Z</time></trkpt><trkpt lat="44.30218924453129" lon="10.838392121589298"><ele>733.0</ele><time>2026-04-04T15:16:14Z</time></trkpt><trkpt lat="44.302076571646296" lon="10.838393083863513"><ele>733.6666666666666</ele><time>2026-04-04T15:16:16Z</time></trkpt><trkpt lat="44.30202200666115" lon="10.838319491167505"><ele>734.3333333333334</ele><time>2026-04-04T15:16:18Z</time></trkpt><trkpt lat="44.301973781059665" lon="10.838215960112402"><ele>735.0</ele><time>2026-04-04T15:16:20Z</time></trkpt><trkpt lat="44.30194089350153" lon="10.838051650904989"><ele>737.2</ele><time>2026-04-04T15:16:22Z</time></trkpt><trkpt lat="44.30187211509935" lon="10.837951438083264"><ele>739.4</ele><time>2026-04-04T15:16:24Z</time></trkpt><trkpt lat="44.30176167002259" lon="10.83783831518036"><ele>741.5999999999999</ele><time>2026-04-04T15:16:26Z</time></trkpt><trkpt lat="44.30171288672546" lon="10.837704676393088"><ele>743.8</ele><time>2026-04-04T15:16:28Z</time></trkpt><trkpt lat="44.30166868019423" lon="10.837632282182714"><ele>746.0</ele><time>2026-04-04T15:16:29Z</time></trkpt><trkpt lat="44.30161522072908" lon="10.837578654626732"><ele>748.0</ele><time>2026-04-04T15:16:30Z</time></trkpt><trkpt lat="44.301537364354935" lon="10.837480424456665"><ele>750.0</ele><time>2026-04-04T15:16:32Z</time></trkpt><trkpt lat="44.30148949738496" lon="10.837368153410315"><ele>752.0</ele><time>2026-04-04T15:16:34Z</time></trkpt><trkpt lat="44.301428625085734" lon="10.837306567661528"><ele>754.0</ele><time>2026-04-04T15:16:35Z</time></trkpt><trkpt lat="44.301352706807265" lon="10.837246589262099"><ele>756.0</ele><time>2026-04-04T15:16:37Z</time></trkpt><trkpt lat="44.30129150621476" lon="10.837214030283969"><ele>758.0</ele><time>2026-04-04T15:16:38Z</time></trkpt><trkpt lat="44.30124120861992" lon="10.837120845358578"><ele>760.0</ele><time>2026-04-04T15:16:40Z</time></trkpt><trkpt lat="44.301145986670996" lon="10.837053044719587"><ele>762.0</ele><time>2026-04-04T15:16:41.999Z</time></trkpt><trkpt lat="44.30105801717144" lon="10.83698389240033"><ele>764.0</ele><time>2026-04-04T15:16:44.999Z</time></trkpt><trkpt lat="44.300987109601856" lon="10.836934728563971"><ele>766.0</ele><time>2026-04-04T15:16:46.999Z</time></trkpt><trkpt lat="44.300960043300975" lon="10.836850323152001"><ele>768.0</ele><time>2026-04-04T15:16:48.999Z</time></trkpt><trkpt lat="44.30093244100456" lon="10.836678206644633"><ele>769.8333333333334</ele><time>2026-04-04T15:16:50.999Z</time></trkpt><trkpt lat="44.300909549847475" lon="10.836570057460227"><ele>771.6666666666667</ele><time>2026-04-04T15:16:52.999Z</time></trkpt><trkpt lat="44.30090344956013" lon="10.836428033972307"><ele>773.5</ele><time>2026-04-04T15:16:54.999Z</time></trkpt><trkpt lat="44.3009154250091" lon="10.836341371632683"><ele>775.3333333333334</ele><time>2026-04-04T15:16:55.999Z</time></trkpt><trkpt lat="44.3009264751968" lon="10.83624158414541"><ele>777.1666666666667</ele><time>2026-04-04T15:16:57.999Z</time></trkpt><trkpt lat="44.30093752361916" lon="10.836099217050153"><ele>779.0</ele><time>2026-04-04T15:16:59.999Z</time></trkpt><trkpt lat="44.30099547026011" lon="10.83600128003957"><ele>780.6666666666667</ele><time>2026-04-04T15:17:01.999Z</time></trkpt><trkpt lat="44.301047091531245" lon="10.835947327157912"><ele>782.3333333333334</ele><time>2026-04-04T15:17:02.999Z</time></trkpt><trkpt lat="44.3011488648773" lon="10.83587981460159"><ele>784.0</ele><time>2026-04-04T15:17:04.999Z</time></trkpt><trkpt lat="44.30118526311698" lon="10.835770384622952"><ele>785.6666666666667</ele><time>2026-04-04T15:17:06.999Z</time></trkpt><trkpt lat="44.301181536570546" lon="10.835680399355782"><ele>787.3333333333334</ele><time>2026-04-04T15:17:07.999Z</time></trkpt><trkpt lat="44.30115560158616" lon="10.83554615533852"><ele>789.0</ele><time>2026-04-04T15:17:09.999Z</time></trkpt><trkpt lat="44.30109747096733" lon="10.835483255133623"><ele>789.0</ele><time>2026-04-04T15:17:11.999Z</time></trkpt><trkpt lat="44.30102500432049" lon="10.835392035589893"><ele>789.0</ele><time>2026-04-04T15:17:13.999Z</time></trkpt><trkpt lat="44.3009621378487" lon="10.835290463455419"><ele>789.0</ele><time>2026-04-04T15:17:15.999Z</time></trkpt><trkpt lat="44.30085676501244" lon="10.835198108758064"><ele>789.0</ele><time>2026-04-04T15:17:17.999Z</time></trkpt><trkpt lat="44.300758477137194" lon="10.835111243853879"><ele>789.0</ele><time>2026-04-04T15:17:19.999Z</time></trkpt><trkpt lat="44.300697353231044" lon="10.834990039248666"><ele>790.6</ele><time>2026-04-04T15:17:21.999Z</time></trkpt><trkpt lat="44.30060318171635" lon="10.83483576429537"><ele>792.2</ele><time>2026-04-04T15:17:23.999Z</time></trkpt><trkpt lat="44.300517280806865" lon="10.834765511479779"><ele>793.8000000000001</ele><time>2026-04-04T15:17:25.999Z</time></trkpt><trkpt lat="44.30045162370684" lon="10.834670846809122"><ele>795.4000000000001</ele><time>2026-04-04T15:17:27.999Z</time></trkpt><trkpt lat="44.30039152267947" lon="10.834577479274447"><ele>797.0</ele><time>2026-04-04T15:17:29.999Z</time></trkpt><trkpt lat="44.30031551226641" lon="10.834497209330161"><ele>797.8</ele><time>2026-04-04T15:17:31.999Z</time></trkpt><trkpt lat="44.300257452768484" lon="10.834393636429061"><ele>798.6</ele><time>2026-04-04T15:17:33.999Z</time></trkpt><trkpt lat="44.300209621647376" lon="10.834273657678779"><ele>799.4</ele><time>2026-04-04T15:17:35.999Z</time></trkpt><trkpt lat="44.30020899633982" lon="10.834160896243139"><ele>800.1999999999999</ele><time>2026-04-04T15:17:37.999Z</time></trkpt><trkpt lat="44.30022932598859" lon="10.834012939068689"><ele>801.0</ele><time>2026-04-04T15:17:39.999Z</time></trkpt><trkpt lat="44.300294143383255" lon="10.833882706043013"><ele>801.0</ele><time>2026-04-04T15:17:41.999Z</time></trkpt><trkpt lat="44.3003676048751" lon="10.833787721750472"><ele>801.0</ele><time>2026-04-04T15:17:43.999Z</time></trkpt><trkpt lat="44.30045032051028" lon="10.83372864728773"><ele>801.0</ele><time>2026-04-04T15:17:45.999Z</time></trkpt><trkpt lat="44.30049202275686" lon="10.833639820634827"><ele>801.0</ele><time>2026-04-04T15:17:47.999Z</time></trkpt><trkpt lat="44.300426293267414" lon="10.833529420083298"><ele>801.0</ele><time>2026-04-04T15:17:50.999Z</time></trkpt><trkpt lat="44.300339919408785" lon="10.833449884864368"><ele>800.6666666666666</ele><time>2026-04-04T15:17:52.999Z</time></trkpt><trkpt lat="44.30027120127365" lon="10.83342978270954"><ele>800.3333333333333</ele><time>2026-04-04T15:17:56Z</time></trkpt><trkpt lat="44.30021659762257" lon="10.833363631589847"><ele>800.0</ele><time>2026-04-04T15:17:57Z</time></trkpt><trkpt lat="44.300157837060084" lon="10.833318232901505"><ele>799.6666666666666</ele><time>2026-04-04T15:18:00Z</time></trkpt><trkpt lat="44.30015637600071" lon="10.833212046605926"><ele>799.3333333333333</ele><time>2026-04-04T15:18:02Z</time></trkpt><trkpt lat="44.30016272452421" lon="10.83309877645997"><ele>799.0</ele><time>2026-04-04T15:18:05Z</time></trkpt><trkpt lat="44.300071205969665" lon="10.833142769528271"><ele>798.9999999999999</ele><time>2026-04-04T15:18:08Z</time></trkpt><trkpt lat="44.30001875031113" lon="10.833247569832421"><ele>799.0</ele><time>2026-04-04T15:18:10Z</time></trkpt><trkpt lat="44.30000182465026" lon="10.833340451370116"><ele>799.0</ele><time>2026-04-04T15:18:12Z</time></trkpt><trkpt lat="44.29999961062722" lon="10.833451169204713"><ele>799.0</ele><time>2026-04-04T15:18:14Z</time></trkpt><trkpt lat="44.29993023036749" lon="10.833528532684603"><ele>798.9999999999999</ele><time>2026-04-04T15:18:16Z</time></trkpt><trkpt lat="44.29982272043127" lon="10.833520956824167"><ele>799.0</ele><time>2026-04-04T15:18:18Z</time></trkpt><trkpt lat="44.29970491669195" lon="10.833568433412207"><ele>802.0</ele><time>2026-04-04T15:18:20Z</time></trkpt><trkpt lat="44.2996472486193" lon="10.833623258875887"><ele>805.0</ele><time>2026-04-04T15:18:21Z</time></trkpt><trkpt lat="44.299581544785525" lon="10.83369427508543"><ele>808.0</ele><time>2026-04-04T15:18:22Z</time></trkpt><trkpt lat="44.29951683640678" lon="10.833745664261215"><ele>811.0</ele><time>2026-04-04T15:18:23Z</time></trkpt><trkpt lat="44.29945568722657" lon="10.833778636439586"><ele>814.0</ele><time>2026-04-04T15:18:24Z</time></trkpt><trkpt lat="44.29939675719005" lon="10.833815105152949"><ele>817.0</ele><time>2026-04-04T15:18:25Z</time></trkpt><trkpt lat="44.299328852595885" lon="10.833880949696386"><ele>820.0</ele><time>2026-04-04T15:18:26Z</time></trkpt><trkpt lat="44.29925766649066" lon="10.833943891515723"><ele>819.9999999999999</ele><time>2026-04-04T15:18:27Z</time></trkpt><trkpt lat="44.29918751149213" lon="10.833992075061468"><ele>820.0</ele><time>2026-04-04T15:18:28Z</time></trkpt><trkpt lat="44.299077959906306" lon="10.834024003616108"><ele>820.0</ele><time>2026-04-04T15:18:30Z</time></trkpt><trkpt lat="44.29901275412728" lon="10.834033328088344"><ele>820.0</ele><time>2026-04-04T15:18:31Z</time></trkpt><trkpt lat="44.29894179430811" lon="10.834035716728716"><ele>819.9999999999999</ele><time>2026-04-04T15:18:32Z</time></trkpt><trkpt lat="44.29887113685611" lon="10.834003156928201"><ele>820.0</ele><time>2026-04-04T15:18:33Z</time></trkpt><trkpt lat="44.298843171237294" lon="10.833920579083493"><ele>821.4</ele><time>2026-04-04T15:18:34Z</time></trkpt><trkpt lat="44.29878184147343" lon="10.833789857008638"><ele>822.8</ele><time>2026-04-04T15:18:36Z</time></trkpt><trkpt lat="44.29872972798922" lon="10.833681844844346"><ele>824.2</ele><time>2026-04-04T15:18:38Z</time></trkpt><trkpt lat="44.29867551759435" lon="10.833632229658633"><ele>825.6</ele><time>2026-04-04T15:18:40Z</time></trkpt><trkpt lat="44.29857178399619" lon="10.83368879748602"><ele>827.0</ele><time>2026-04-04T15:18:42Z</time></trkpt><trkpt lat="44.29851176146333" lon="10.833755192355628"><ele>827.0000000000001</ele><time>2026-04-04T15:18:43.999Z</time></trkpt><trkpt lat="44.29843061032226" lon="10.833822066526361"><ele>827.0</ele><time>2026-04-04T15:18:45.999Z</time></trkpt><trkpt lat="44.29831856851771" lon="10.83382124122665"><ele>827.0</ele><time>2026-04-04T15:18:47.999Z</time></trkpt><trkpt lat="44.29824443051228" lon="10.8339262907257"><ele>827.0</ele><time>2026-04-04T15:18:49.999Z</time></trkpt><trkpt lat="44.29820887732709" lon="10.834003686263639"><ele>827.0000000000001</ele><time>2026-04-04T15:18:51.999Z</time></trkpt><trkpt lat="44.29819571373346" lon="10.834097705532427"><ele>827.0</ele><time>2026-04-04T15:18:53.999Z</time></trkpt><trkpt lat="44.298217417909704" lon="10.834252322570196"><ele>826.6666666666667</ele><time>2026-04-04T15:18:55.999Z</time></trkpt><trkpt lat="44.29824331618025" lon="10.834385652735447"><ele>826.3333333333334</ele><time>2026-04-04T15:18:57.999Z</time></trkpt><trkpt lat="44.29828195978352" lon="10.834528070201245"><ele>826.0</ele><time>2026-04-04T15:18:59.999Z</time></trkpt><trkpt lat="44.298275226512615" lon="10.834635637385956"><ele>825.6666666666667</ele><time>2026-04-04T15:19:00.999Z</time></trkpt><trkpt lat="44.29829451363622" lon="10.834747909991238"><ele>825.3333333333334</ele><time>2026-04-04T15:19:01.999Z</time></trkpt><trkpt lat="44.29830299283665" lon="10.834836979271316"><ele>825.0</ele><time>2026-04-04T15:19:02.999Z</time></trkpt><trkpt lat="44.29830832208121" lon="10.834979194060962"><ele>825.0</ele><time>2026-04-04T15:19:03.999Z</time></trkpt><trkpt lat="44.29830966382072" lon="10.835072974623776"><ele>825.0</ele><time>2026-04-04T15:19:04.999Z</time></trkpt><trkpt lat="44.29831269199451" lon="10.835238136927785"><ele>825.0</ele><time>2026-04-04T15:19:06.999Z</time></trkpt><trkpt lat="44.298316697307484" lon="10.835353414877044"><ele>825.0</ele><time>2026-04-04T15:19:07.999Z</time></trkpt><trkpt lat="44.29832118262258" lon="10.83548250791469"><ele>825.0</ele><time>2026-04-04T15:19:08.999Z</time></trkpt><trkpt lat="44.29833128589269" lon="10.83568446515446"><ele>823.2</ele><time>2026-04-04T15:19:09.999Z</time></trkpt><trkpt lat="44.29834139459851" lon="10.83586494194419"><ele>821.4</ele><time>2026-04-04T15:19:10.999Z</time></trkpt><trkpt lat="44.29834913625335" lon="10.836002274776645"><ele>819.5999999999999</ele><time>2026-04-04T15:19:11.999Z</time></trkpt><trkpt lat="44.29835551680041" lon="10.836115462277478"><ele>817.8</ele><time>2026-04-04T15:19:12.999Z</time></trkpt><trkpt lat="44.29836138093402" lon="10.836219488784192"><ele>816.0</ele><time>2026-04-04T15:19:13.999Z</time></trkpt><trkpt lat="44.298366884205485" lon="10.836317113826706"><ele>814.5</ele><time>2026-04-04T15:19:14.999Z</time></trkpt><trkpt lat="44.29837218149288" lon="10.83641108486886"><ele>813.0</ele><time>2026-04-04T15:19:15.999Z</time></trkpt><trkpt lat="44.2983790942433" lon="10.836565845694539"><ele>811.5</ele><time>2026-04-04T15:19:17.999Z</time></trkpt><trkpt lat="44.2983852882328" lon="10.836704154292057"><ele>810.0</ele><time>2026-04-04T15:19:19.999Z</time></trkpt><trkpt lat="44.29838944621533" lon="10.836796999994935"><ele>808.5</ele><time>2026-04-04T15:19:20.999Z</time></trkpt><trkpt lat="44.29839115457423" lon="10.836902553940105"><ele>807.0</ele><time>2026-04-04T15:19:21.999Z</time></trkpt><trkpt lat="44.29838947701188" lon="10.837013187655126"><ele>806.6666666666666</ele><time>2026-04-04T15:19:22.999Z</time></trkpt><trkpt lat="44.298383256677305" lon="10.837125362607507"><ele>806.3333333333333</ele><time>2026-04-04T15:19:23.999Z</time></trkpt><trkpt lat="44.29837406502272" lon="10.837239785808904"><ele>806.0</ele><time>2026-04-04T15:19:24.999Z</time></trkpt><trkpt lat="44.29835896947852" lon="10.8373599801118"><ele>805.6666666666666</ele><time>2026-04-04T15:19:25.999Z</time></trkpt><trkpt lat="44.298339272508024" lon="10.837475094258364"><ele>805.3333333333333</ele><time>2026-04-04T15:19:26.999Z</time></trkpt><trkpt lat="44.29831405381277" lon="10.83760952627885"><ele>805.0</ele><time>2026-04-04T15:19:27.999Z</time></trkpt><trkpt lat="44.29828887986326" lon="10.837738894697384"><ele>804.8</ele><time>2026-04-04T15:19:28.999Z</time></trkpt><trkpt lat="44.29826096883522" lon="10.837871731784789"><ele>804.6</ele><time>2026-04-04T15:19:29.999Z</time></trkpt><trkpt lat="44.298239064518576" lon="10.838004468089746"><ele>804.4000000000001</ele><time>2026-04-04T15:19:30.999Z</time></trkpt><trkpt lat="44.298225210477824" lon="10.838132064900432"><ele>804.2</ele><time>2026-04-04T15:19:31.999Z</time></trkpt><trkpt lat="44.298218604141425" lon="10.838268905978394"><ele>804.0</ele><time>2026-04-04T15:19:32.999Z</time></trkpt><trkpt lat="44.29821208263026" lon="10.838420269729935"><ele>802.2</ele><time>2026-04-04T15:19:33.999Z</time></trkpt><trkpt lat="44.29819906282766" lon="10.838574318815057"><ele>800.4000000000001</ele><time>2026-04-04T15:19:34.999Z</time></trkpt><trkpt lat="44.29817946549377" lon="10.838738611820919"><ele>798.6</ele><time>2026-04-04T15:19:35.999Z</time></trkpt><trkpt lat="44.298157430317524" lon="10.838888493371543"><ele>796.8</ele><time>2026-04-04T15:19:36.999Z</time></trkpt><trkpt lat="44.29813398346325" lon="10.839032311420612"><ele>795.0</ele><time>2026-04-04T15:19:37.999Z</time></trkpt><trkpt lat="44.298107807386934" lon="10.839183587515517"><ele>790.25</ele><time>2026-04-04T15:19:38.999Z</time></trkpt><trkpt lat="44.29808121362655" lon="10.839334162583068"><ele>785.5</ele><time>2026-04-04T15:19:39.999Z</time></trkpt><trkpt lat="44.2980534464227" lon="10.839486008777346"><ele>780.75</ele><time>2026-04-04T15:19:40.999Z</time></trkpt><trkpt lat="44.298027020361296" lon="10.839639927208323"><ele>776.0</ele><time>2026-04-04T15:19:41.999Z</time></trkpt><trkpt lat="44.29799861586049" lon="10.839794377050357"><ele>776.0</ele><time>2026-04-04T15:19:42.999Z</time></trkpt><trkpt lat="44.29796069360432" lon="10.83993204270829"><ele>776.0</ele><time>2026-04-04T15:19:43.999Z</time></trkpt><trkpt lat="44.29790313860679" lon="10.84006245122144"><ele>776.0</ele><time>2026-04-04T15:19:44.999Z</time></trkpt><trkpt lat="44.29784605759688" lon="10.840184304012237"><ele>776.0</ele><time>2026-04-04T15:19:45.999Z</time></trkpt><trkpt lat="44.2978005054397" lon="10.840299768341907"><ele>776.0</ele><time>2026-04-04T15:19:46.999Z</time></trkpt><trkpt lat="44.29777560607862" lon="10.840428835494562"><ele>776.1999999999999</ele><time>2026-04-04T15:19:47.999Z</time></trkpt><trkpt lat="44.29776118724735" lon="10.840550796140969"><ele>776.4</ele><time>2026-04-04T15:19:48.999Z</time></trkpt><trkpt lat="44.29777352303371" lon="10.840678747678886"><ele>776.6</ele><time>2026-04-04T15:19:49.999Z</time></trkpt><trkpt lat="44.297805823531455" lon="10.840813729755627"><ele>776.8</ele><time>2026-04-04T15:19:50.999Z</time></trkpt><trkpt lat="44.29784946111396" lon="10.840953606341845"><ele>777.0</ele><time>2026-04-04T15:19:51.999Z</time></trkpt><trkpt lat="44.29789937289942" lon="10.84108601994211"><ele>777.8333333333334</ele><time>2026-04-04T15:19:52.999Z</time></trkpt><trkpt lat="44.29794933296412" lon="10.841211652562771"><ele>778.6666666666667</ele><time>2026-04-04T15:19:53.999Z</time></trkpt><trkpt lat="44.297987634522805" lon="10.841314795825669"><ele>779.5</ele><time>2026-04-04T15:19:54.999Z</time></trkpt><trkpt lat="44.298023033103846" lon="10.841399004663117"><ele>780.3333333333334</ele><time>2026-04-04T15:19:55.999Z</time></trkpt><trkpt lat="44.29807288288618" lon="10.841456809128324"><ele>781.1666666666667</ele><time>2026-04-04T15:19:56.999Z</time></trkpt><trkpt lat="44.29815412889631" lon="10.841480991100166"><ele>782.0</ele><time>2026-04-04T15:19:57.999Z</time></trkpt><trkpt lat="44.29825511870394" lon="10.841478445244089"><ele>782.0</ele><time>2026-04-04T15:19:58.999Z</time></trkpt><trkpt lat="44.29836034590389" lon="10.84148261939932"><ele>782.0</ele><time>2026-04-04T15:19:59.999Z</time></trkpt><trkpt lat="44.29846458998832" lon="10.841507048835892"><ele>782.0</ele><time>2026-04-04T15:20:00.999Z</time></trkpt><trkpt lat="44.29856101415381" lon="10.841526734866017"><ele>782.0</ele><time>2026-04-04T15:20:02Z</time></trkpt><trkpt lat="44.29866213948987" lon="10.84152830875641"><ele>782.0</ele><time>2026-04-04T15:20:03Z</time></trkpt><trkpt lat="44.29875463934628" lon="10.841507208564916"><ele>782.0000000000001</ele><time>2026-04-04T15:20:04Z</time></trkpt><trkpt lat="44.298848479661494" lon="10.84146751502712"><ele>782.0</ele><time>2026-04-04T15:20:05Z</time></trkpt><trkpt lat="44.298936796869114" lon="10.841433421018815"><ele>782.0</ele><time>2026-04-04T15:20:06Z</time></trkpt><trkpt lat="44.29902079750776" lon="10.841412057700731"><ele>782.0</ele><time>2026-04-04T15:20:07Z</time></trkpt><trkpt lat="44.29910362188486" lon="10.841396513530137"><ele>782.0000000000001</ele><time>2026-04-04T15:20:08Z</time></trkpt><trkpt lat="44.29919135642569" lon="10.841385538905591"><ele>782.0</ele><time>2026-04-04T15:20:09Z</time></trkpt><trkpt lat="44.29927491745637" lon="10.84140847335483"><ele>781.1666666666667</ele><time>2026-04-04T15:20:10Z</time></trkpt><trkpt lat="44.29935295321579" lon="10.84146242164659"><ele>780.3333333333334</ele><time>2026-04-04T15:20:11Z</time></trkpt><trkpt lat="44.29941456078642" lon="10.841529974572135"><ele>779.5</ele><time>2026-04-04T15:20:12Z</time></trkpt><trkpt lat="44.29943448835196" lon="10.841644937418335"><ele>778.6666666666667</ele><time>2026-04-04T15:20:13Z</time></trkpt><trkpt lat="44.299446457506335" lon="10.841741758726975"><ele>777.8333333333334</ele><time>2026-04-04T15:20:14Z</time></trkpt><trkpt lat="44.29944305437847" lon="10.841851305181697"><ele>777.0</ele><time>2026-04-04T15:20:15Z</time></trkpt><trkpt lat="44.29942523920028" lon="10.841968157584287"><ele>775.0</ele><time>2026-04-04T15:20:16Z</time></trkpt><trkpt lat="44.29940126562352" lon="10.842082429052788"><ele>773.0</ele><time>2026-04-04T15:20:17Z</time></trkpt><trkpt lat="44.29937464546518" lon="10.842192305116768"><ele>771.0</ele><time>2026-04-04T15:20:18Z</time></trkpt><trkpt lat="44.29929670427359" lon="10.842336644018168"><ele>769.0</ele><time>2026-04-04T15:20:20Z</time></trkpt><trkpt lat="44.29923852902703" lon="10.842486697261847"><ele>767.0</ele><time>2026-04-04T15:20:22Z</time></trkpt><trkpt lat="44.299279431217286" lon="10.842604619354116"><ele>762.8</ele><time>2026-04-04T15:20:23Z</time></trkpt><trkpt lat="44.29937322910334" lon="10.84268246663485"><ele>758.6</ele><time>2026-04-04T15:20:24Z</time></trkpt><trkpt lat="44.29945120705829" lon="10.842761176327096"><ele>754.4</ele><time>2026-04-04T15:20:25Z</time></trkpt><trkpt lat="44.29953322398836" lon="10.842831873915165"><ele>750.1999999999999</ele><time>2026-04-04T15:20:26Z</time></trkpt><trkpt lat="44.29961680230407" lon="10.842879521855359"><ele>746.0</ele><time>2026-04-04T15:20:27Z</time></trkpt><trkpt lat="44.299700834718905" lon="10.842913294840683"><ele>746.4285714285714</ele><time>2026-04-04T15:20:28Z</time></trkpt><trkpt lat="44.29977797147663" lon="10.842966537454807"><ele>746.8571428571429</ele><time>2026-04-04T15:20:29Z</time></trkpt><trkpt lat="44.29985167864582" lon="10.842996384141498"><ele>747.2857142857142</ele><time>2026-04-04T15:20:30Z</time></trkpt><trkpt lat="44.299931060754716" lon="10.843015588953552"><ele>747.7142857142858</ele><time>2026-04-04T15:20:31Z</time></trkpt><trkpt lat="44.300001778188225" lon="10.843015629405262"><ele>748.1428571428571</ele><time>2026-04-04T15:20:32Z</time></trkpt><trkpt lat="44.30006090230303" lon="10.84304734091185"><ele>748.5714285714286</ele><time>2026-04-04T15:20:33Z</time></trkpt><trkpt lat="44.300111658189635" lon="10.84310659535533"><ele>749.0</ele><time>2026-04-04T15:20:34Z</time></trkpt><trkpt lat="44.300163882129894" lon="10.843201307818948"><ele>749.0</ele><time>2026-04-04T15:20:35Z</time></trkpt><trkpt lat="44.30020650086446" lon="10.843312294319244"><ele>749.0</ele><time>2026-04-04T15:20:36Z</time></trkpt><trkpt lat="44.30024891014923" lon="10.843412874238375"><ele>749.0</ele><time>2026-04-04T15:20:37Z</time></trkpt><trkpt lat="44.30029479298634" lon="10.843500603400791"><ele>749.0</ele><time>2026-04-04T15:20:38Z</time></trkpt><trkpt lat="44.30031345839507" lon="10.84363759015853"><ele>749.0</ele><time>2026-04-04T15:20:39Z</time></trkpt><trkpt lat="44.30030605632609" lon="10.843776667677792"><ele>748.6</ele><time>2026-04-04T15:20:40Z</time></trkpt><trkpt lat="44.30029890330429" lon="10.843929607303535"><ele>748.2</ele><time>2026-04-04T15:20:41Z</time></trkpt><trkpt lat="44.30029860078315" lon="10.844075859457746"><ele>747.8000000000001</ele><time>2026-04-04T15:20:42Z</time></trkpt><trkpt lat="44.30029080778894" lon="10.844230299753429"><ele>747.4000000000001</ele><time>2026-04-04T15:20:43Z</time></trkpt><trkpt lat="44.30027016350739" lon="10.844379648392648"><ele>747.0</ele><time>2026-04-04T15:20:44Z</time></trkpt><trkpt lat="44.30024082231702" lon="10.84452445243771"><ele>747.0</ele><time>2026-04-04T15:20:45Z</time></trkpt><trkpt lat="44.30021414033267" lon="10.844719427808204"><ele>747.0</ele><time>2026-04-04T15:20:46Z</time></trkpt><trkpt lat="44.300157706673815" lon="10.844949913716999"><ele>747.0</ele><time>2026-04-04T15:20:47Z</time></trkpt><trkpt lat="44.30010547943665" lon="10.845179933282193"><ele>748.2</ele><time>2026-04-04T15:20:48Z</time></trkpt><trkpt lat="44.30005429508843" lon="10.84535768155334"><ele>749.4000000000001</ele><time>2026-04-04T15:20:49Z</time></trkpt><trkpt lat="44.300008255856866" lon="10.845488385647476"><ele>750.5999999999999</ele><time>2026-04-04T15:20:50Z</time></trkpt><trkpt lat="44.29996524638135" lon="10.845594376667044"><ele>751.8</ele><time>2026-04-04T15:20:51Z</time></trkpt><trkpt lat="44.29992516222762" lon="10.84569375659295"><ele>753.0</ele><time>2026-04-04T15:20:52Z</time></trkpt><trkpt lat="44.299846364537046" lon="10.845775393582413"><ele>753.0</ele><time>2026-04-04T15:20:53Z</time></trkpt><trkpt lat="44.29975261656798" lon="10.845833826354287"><ele>753.0</ele><time>2026-04-04T15:20:53.999Z</time></trkpt><trkpt lat="44.29966289081997" lon="10.84587546768465"><ele>753.0</ele><time>2026-04-04T15:20:55Z</time></trkpt><trkpt lat="44.29956983679038" lon="10.8458698725168"><ele>753.0</ele><time>2026-04-04T15:20:55.999Z</time></trkpt><trkpt lat="44.29948385372001" lon="10.845838628432139"><ele>753.0</ele><time>2026-04-04T15:20:56.999Z</time></trkpt><trkpt lat="44.299407803606094" lon="10.845844591921473"><ele>751.2</ele><time>2026-04-04T15:20:57.999Z</time></trkpt><trkpt lat="44.29931583039815" lon="10.845883721587997"><ele>749.4</ele><time>2026-04-04T15:20:59.999Z</time></trkpt><trkpt lat="44.299306075707484" lon="10.845974948257904"><ele>747.6</ele><time>2026-04-04T15:21:00.999Z</time></trkpt><trkpt lat="44.29931828555259" lon="10.846093008880688"><ele>745.8000000000001</ele><time>2026-04-04T15:21:01.999Z</time></trkpt><trkpt lat="44.29934753794932" lon="10.846231313264225"><ele>744.0</ele><time>2026-04-04T15:21:02.999Z</time></trkpt><trkpt lat="44.299379807207956" lon="10.846363249222035"><ele>742.4000000000001</ele><time>2026-04-04T15:21:03.999Z</time></trkpt><trkpt lat="44.2993963780812" lon="10.84649252951845"><ele>740.8</ele><time>2026-04-04T15:21:04.999Z</time></trkpt><trkpt lat="44.29940211303918" lon="10.846618870734575"><ele>739.2</ele><time>2026-04-04T15:21:05.999Z</time></trkpt><trkpt lat="44.29939873728326" lon="10.846747022899581"><ele>737.5999999999999</ele><time>2026-04-04T15:21:06.999Z</time></trkpt><trkpt lat="44.29936836636343" lon="10.846877830116494"><ele>736.0</ele><time>2026-04-04T15:21:07.999Z</time></trkpt><trkpt lat="44.29931555572774" lon="10.84700926189119"><ele>734.8</ele><time>2026-04-04T15:21:08.999Z</time></trkpt><trkpt lat="44.29926142603034" lon="10.847121098294153"><ele>733.5999999999999</ele><time>2026-04-04T15:21:09.999Z</time></trkpt><trkpt lat="44.29921074217007" lon="10.84723352140427"><ele>732.4</ele><time>2026-04-04T15:21:10.999Z</time></trkpt><trkpt lat="44.29916342532559" lon="10.84733125864845"><ele>731.2</ele><time>2026-04-04T15:21:11.999Z</time></trkpt><trkpt lat="44.29910981226374" lon="10.847425730980563"><ele>730.0</ele><time>2026-04-04T15:21:12.999Z</time></trkpt><trkpt lat="44.299048700760935" lon="10.847518859087614"><ele>730.0</ele><time>2026-04-04T15:21:13.999Z</time></trkpt><trkpt lat="44.299001837356755" lon="10.847623700455198"><ele>730.0</ele><time>2026-04-04T15:21:14.999Z</time></trkpt><trkpt lat="44.2989543989769" lon="10.847740992738553"><ele>730.0</ele><time>2026-04-04T15:21:15.999Z</time></trkpt><trkpt lat="44.298911972823596" lon="10.847855694880865"><ele>730.0</ele><time>2026-04-04T15:21:16.999Z</time></trkpt><trkpt lat="44.29885399928311" lon="10.84796359031283"><ele>730.0</ele><time>2026-04-04T15:21:17.999Z</time></trkpt><trkpt lat="44.298810583716644" lon="10.848068773128668"><ele>727.3333333333334</ele><time>2026-04-04T15:21:18.999Z</time></trkpt><trkpt lat="44.29876389133999" lon="10.848151634601809"><ele>724.6666666666667</ele><time>2026-04-04T15:21:19.999Z</time></trkpt><trkpt lat="44.298751450638285" lon="10.848249839753434"><ele>722.0</ele><time>2026-04-04T15:21:20.999Z</time></trkpt><trkpt lat="44.298764661416" lon="10.848372173163698"><ele>719.3333333333334</ele><time>2026-04-04T15:21:21.999Z</time></trkpt><trkpt lat="44.298790108576256" lon="10.848496596308001"><ele>716.6666666666666</ele><time>2026-04-04T15:21:22.999Z</time></trkpt><trkpt lat="44.29877325292297" lon="10.84861956013806"><ele>714.0</ele><time>2026-04-04T15:21:23.999Z</time></trkpt><trkpt lat="44.298751580056546" lon="10.848738039735249"><ele>713.0</ele><time>2026-04-04T15:21:24.999Z</time></trkpt><trkpt lat="44.29871381331768" lon="10.848861500857456"><ele>712.0</ele><time>2026-04-04T15:21:25.999Z</time></trkpt><trkpt lat="44.29868242980513" lon="10.84897186011864"><ele>711.0</ele><time>2026-04-04T15:21:26.999Z</time></trkpt><trkpt lat="44.29865352434989" lon="10.849071612271752"><ele>710.0</ele><time>2026-04-04T15:21:27.999Z</time></trkpt><trkpt lat="44.29862529934019" lon="10.84916901617047"><ele>709.0</ele><time>2026-04-04T15:21:28.999Z</time></trkpt><trkpt lat="44.29860679192664" lon="10.849343600174214"><ele>708.6</ele><time>2026-04-04T15:21:30.999Z</time></trkpt><trkpt lat="44.29860204269965" lon="10.849478654685027"><ele>708.2</ele><time>2026-04-04T15:21:32.999Z</time></trkpt><trkpt lat="44.29854898736526" lon="10.849575748524828"><ele>707.8000000000001</ele><time>2026-04-04T15:21:35.999Z</time></trkpt><trkpt lat="44.29848598067078" lon="10.849495563396102"><ele>707.4000000000001</ele><time>2026-04-04T15:21:37.999Z</time></trkpt><trkpt lat="44.29839887255611" lon="10.849416393115776"><ele>707.0</ele><time>2026-04-04T15:21:39.999Z</time></trkpt><trkpt lat="44.29833035815557" lon="10.849351060942336"><ele>707.0</ele><time>2026-04-04T15:21:40.999Z</time></trkpt><trkpt lat="44.29827735237716" lon="10.849296669930833"><ele>707.0</ele><time>2026-04-04T15:21:41.999Z</time></trkpt><trkpt lat="44.29820265974392" lon="10.849219257516804"><ele>707.0</ele><time>2026-04-04T15:21:42.999Z</time></trkpt><trkpt lat="44.298083580740986" lon="10.849112164376931"><ele>707.0</ele><time>2026-04-04T15:21:43.999Z</time></trkpt><trkpt lat="44.29797877071435" lon="10.84900883656526"><ele>707.0</ele><time>2026-04-04T15:21:44.999Z</time></trkpt><trkpt lat="44.29790191730406" lon="10.848930158898318"><ele>705.2857142857143</ele><time>2026-04-04T15:21:45.999Z</time></trkpt><trkpt lat="44.29784320389827" lon="10.848861735227342"><ele>703.5714285714286</ele><time>2026-04-04T15:21:46.999Z</time></trkpt><trkpt lat="44.29779564643973" lon="10.848793457460003"><ele>701.8571428571429</ele><time>2026-04-04T15:21:47.999Z</time></trkpt><trkpt lat="44.29774501997565" lon="10.84872618675863"><ele>700.1428571428571</ele><time>2026-04-04T15:21:48.999Z</time></trkpt><trkpt lat="44.29768452105953" lon="10.848669101842146"><ele>698.4285714285714</ele><time>2026-04-04T15:21:49.999Z</time></trkpt><trkpt lat="44.297613270329606" lon="10.848635704293494"><ele>696.7142857142858</ele><time>2026-04-04T15:21:50.999Z</time></trkpt><trkpt lat="44.29755234368716" lon="10.848582307058793"><ele>695.0</ele><time>2026-04-04T15:21:51.999Z</time></trkpt><trkpt lat="44.29749903743781" lon="10.848512098459294"><ele>694.8</ele><time>2026-04-04T15:21:52.999Z</time></trkpt><trkpt lat="44.297484363914755" lon="10.848408528771877"><ele>694.6</ele><time>2026-04-04T15:21:53.999Z</time></trkpt><trkpt lat="44.29744975916814" lon="10.848298900050617"><ele>694.4000000000001</ele><time>2026-04-04T15:21:54.999Z</time></trkpt><trkpt lat="44.297426654366205" lon="10.848161052635524"><ele>694.2</ele><time>2026-04-04T15:21:55.999Z</time></trkpt><trkpt lat="44.29741315493611" lon="10.848023363861877"><ele>694.0</ele><time>2026-04-04T15:21:56.999Z</time></trkpt><trkpt lat="44.297361315971656" lon="10.847886005924078"><ele>694.0</ele><time>2026-04-04T15:21:57.999Z</time></trkpt><trkpt lat="44.297302862145486" lon="10.847762175221431"><ele>694.0</ele><time>2026-04-04T15:21:58.999Z</time></trkpt><trkpt lat="44.297246019549654" lon="10.847650192762083"><ele>694.0</ele><time>2026-04-04T15:21:59.999Z</time></trkpt><trkpt lat="44.297165418074584" lon="10.84754640645792"><ele>694.0</ele><time>2026-04-04T15:22:00.999Z</time></trkpt><trkpt lat="44.29709813484907" lon="10.847455952127333"><ele>694.0</ele><time>2026-04-04T15:22:01.999Z</time></trkpt><trkpt lat="44.297052967118" lon="10.847353576729661"><ele>691.6666666666667</ele><time>2026-04-04T15:22:02.999Z</time></trkpt><trkpt lat="44.2969923975455" lon="10.847269111477344"><ele>689.3333333333334</ele><time>2026-04-04T15:22:03.999Z</time></trkpt><trkpt lat="44.296922057530175" lon="10.847207329777921"><ele>687.0</ele><time>2026-04-04T15:22:04.999Z</time></trkpt><trkpt lat="44.29685130422568" lon="10.847141485739696"><ele>684.6666666666666</ele><time>2026-04-04T15:22:05.999Z</time></trkpt><trkpt lat="44.29678273519896" lon="10.847079834895283"><ele>682.3333333333333</ele><time>2026-04-04T15:22:06.999Z</time></trkpt><trkpt lat="44.29673214435453" lon="10.846995407655317"><ele>680.0</ele><time>2026-04-04T15:22:08Z</time></trkpt><trkpt lat="44.29669315205575" lon="10.846898008868967"><ele>680.0</ele><time>2026-04-04T15:22:09Z</time></trkpt><trkpt lat="44.29666803573004" lon="10.846796043144433"><ele>680.0</ele><time>2026-04-04T15:22:10Z</time></trkpt><trkpt lat="44.29663606109101" lon="10.846662535941027"><ele>680.0</ele><time>2026-04-04T15:22:11Z</time></trkpt><trkpt lat="44.29658937908654" lon="10.846524744871513"><ele>680.0</ele><time>2026-04-04T15:22:12Z</time></trkpt><trkpt lat="44.296515187615384" lon="10.846423490442804"><ele>680.0</ele><time>2026-04-04T15:22:13Z</time></trkpt><trkpt lat="44.29645955249608" lon="10.846326787292266"><ele>677.6666666666666</ele><time>2026-04-04T15:22:14Z</time></trkpt><trkpt lat="44.296413860404435" lon="10.846238876989949"><ele>675.3333333333333</ele><time>2026-04-04T15:22:15Z</time></trkpt><trkpt lat="44.29636958744466" lon="10.8461400571672"><ele>673.0</ele><time>2026-04-04T15:22:16Z</time></trkpt><trkpt lat="44.29633269202706" lon="10.846027781659096"><ele>670.6666666666666</ele><time>2026-04-04T15:22:17Z</time></trkpt><trkpt lat="44.29630635563099" lon="10.845904430059914"><ele>668.3333333333334</ele><time>2026-04-04T15:22:18Z</time></trkpt><trkpt lat="44.29627895151603" lon="10.845769082214243"><ele>666.0</ele><time>2026-04-04T15:22:19Z</time></trkpt><trkpt lat="44.296242334598" lon="10.845639265593661"><ele>666.0</ele><time>2026-04-04T15:22:20Z</time></trkpt><trkpt lat="44.29618916409549" lon="10.845532443847214"><ele>666.0</ele><time>2026-04-04T15:22:21Z</time></trkpt><trkpt lat="44.296152644909654" lon="10.845416553394413"><ele>666.0</ele><time>2026-04-04T15:22:22Z</time></trkpt><trkpt lat="44.29611638414672" lon="10.845302174673371"><ele>666.0</ele><time>2026-04-04T15:22:23Z</time></trkpt><trkpt lat="44.29608326423735" lon="10.845198181397244"><ele>666.0</ele><time>2026-04-04T15:22:24Z</time></trkpt><trkpt lat="44.296055188340326" lon="10.845099638151577"><ele>666.0</ele><time>2026-04-04T15:22:25Z</time></trkpt><trkpt lat="44.29598375979203" lon="10.845026074872617"><ele>666.5999999999999</ele><time>2026-04-04T15:22:26Z</time></trkpt><trkpt lat="44.295893591567015" lon="10.844994038660557"><ele>667.2</ele><time>2026-04-04T15:22:27Z</time></trkpt><trkpt lat="44.2958008928761" lon="10.844980526764314"><ele>667.8</ele><time>2026-04-04T15:22:28Z</time></trkpt><trkpt lat="44.29571543118892" lon="10.844991456333043"><ele>668.4000000000001</ele><time>2026-04-04T15:22:29Z</time></trkpt><trkpt lat="44.29563329526366" lon="10.845046580931317"><ele>669.0</ele><time>2026-04-04T15:22:30Z</time></trkpt><trkpt lat="44.29558368463766" lon="10.84517157311892"><ele>670.0</ele><time>2026-04-04T15:22:31Z</time></trkpt><trkpt lat="44.29553215856604" lon="10.845276694330996"><ele>671.0</ele><time>2026-04-04T15:22:32Z</time></trkpt><trkpt lat="44.29546452372837" lon="10.845364637367787"><ele>672.0</ele><time>2026-04-04T15:22:33Z</time></trkpt><trkpt lat="44.29538773437249" lon="10.845438152099957"><ele>673.0</ele><time>2026-04-04T15:22:34Z</time></trkpt><trkpt lat="44.29532991212255" lon="10.845516239874375"><ele>674.0</ele><time>2026-04-04T15:22:35Z</time></trkpt><trkpt lat="44.295300906834285" lon="10.845609954810925"><ele>675.0</ele><time>2026-04-04T15:22:36Z</time></trkpt><trkpt lat="44.29530152043052" lon="10.845741958999223"><ele>675.0</ele><time>2026-04-04T15:22:37Z</time></trkpt><trkpt lat="44.29530674318328" lon="10.845877486954802"><ele>675.0</ele><time>2026-04-04T15:22:38Z</time></trkpt><trkpt lat="44.29525996693661" lon="10.846010280030832"><ele>675.0</ele><time>2026-04-04T15:22:39Z</time></trkpt><trkpt lat="44.295200032314014" lon="10.84613189178862"><ele>675.0</ele><time>2026-04-04T15:22:40Z</time></trkpt><trkpt lat="44.295136813533226" lon="10.84627605583088"><ele>675.0</ele><time>2026-04-04T15:22:41Z</time></trkpt><trkpt lat="44.295072134412045" lon="10.846432312818996"><ele>674.6</ele><time>2026-04-04T15:22:42Z</time></trkpt><trkpt lat="44.29503491286158" lon="10.846567572263307"><ele>674.2</ele><time>2026-04-04T15:22:43Z</time></trkpt><trkpt lat="44.29498879639502" lon="10.846673969512642"><ele>673.8</ele><time>2026-04-04T15:22:44Z</time></trkpt><trkpt lat="44.29492959943638" lon="10.846764564396782"><ele>673.4</ele><time>2026-04-04T15:22:45Z</time></trkpt><trkpt lat="44.29484855573962" lon="10.84686049742324"><ele>673.0</ele><time>2026-04-04T15:22:46Z</time></trkpt><trkpt lat="44.29473787043029" lon="10.846932791770838"><ele>672.5999999999999</ele><time>2026-04-04T15:22:47Z</time></trkpt><trkpt lat="44.29464395742242" lon="10.847049257530077"><ele>672.1999999999999</ele><time>2026-04-04T15:22:48Z</time></trkpt><trkpt lat="44.29454038297668" lon="10.847146010863138"><ele>671.8</ele><time>2026-04-04T15:22:49Z</time></trkpt><trkpt lat="44.29446309728284" lon="10.847238533820784"><ele>671.4</ele><time>2026-04-04T15:22:50Z</time></trkpt><trkpt lat="44.29438871707395" lon="10.847269790022404"><ele>671.0</ele><time>2026-04-04T15:22:51Z</time></trkpt><trkpt lat="44.294276192434836" lon="10.847214234332583"><ele>671.0</ele><time>2026-04-04T15:22:53Z</time></trkpt><trkpt lat="44.29419708572409" lon="10.847178751994809"><ele>671.0</ele><time>2026-04-04T15:22:54Z</time></trkpt><trkpt lat="44.2941082686521" lon="10.847133320786554"><ele>671.0</ele><time>2026-04-04T15:22:55Z</time></trkpt><trkpt lat="44.2940310189393" lon="10.84709832466797"><ele>671.0</ele><time>2026-04-04T15:22:56Z</time></trkpt><trkpt lat="44.293957759001145" lon="10.847079686602275"><ele>671.0</ele><time>2026-04-04T15:22:57Z</time></trkpt><trkpt lat="44.29387425457572" lon="10.847064817116"><ele>671.0</ele><time>2026-04-04T15:22:58Z</time></trkpt><trkpt lat="44.293785361948366" lon="10.847052420826538"><ele>671.4</ele><time>2026-04-04T15:22:59Z</time></trkpt><trkpt lat="44.29370747736457" lon="10.847041940858956"><ele>671.8</ele><time>2026-04-04T15:22:59.999Z</time></trkpt><trkpt lat="44.29362542118345" lon="10.847021422651563"><ele>672.1999999999999</ele><time>2026-04-04T15:23:00.999Z</time></trkpt><trkpt lat="44.29354468077529" lon="10.846982244781012"><ele>672.5999999999999</ele><time>2026-04-04T15:23:01.999Z</time></trkpt><trkpt lat="44.2934471049499" lon="10.846918341626223"><ele>673.0</ele><time>2026-04-04T15:23:02.999Z</time></trkpt><trkpt lat="44.29335696433654" lon="10.84686382980824"><ele>673.0</ele><time>2026-04-04T15:23:03.999Z</time></trkpt><trkpt lat="44.29327552580693" lon="10.846844558748769"><ele>673.0</ele><time>2026-04-04T15:23:04.999Z</time></trkpt><trkpt lat="44.29320683307323" lon="10.846824802570767"><ele>673.0</ele><time>2026-04-04T15:23:05.999Z</time></trkpt><trkpt lat="44.29313283865595" lon="10.846829027408159"><ele>673.0</ele><time>2026-04-04T15:23:06.999Z</time></trkpt><trkpt lat="44.29305702755082" lon="10.846872392378838"><ele>673.0</ele><time>2026-04-04T15:23:07.999Z</time></trkpt><trkpt lat="44.29295851912816" lon="10.84693653017924"><ele>673.0</ele><time>2026-04-04T15:23:08.999Z</time></trkpt><trkpt lat="44.292867312625276" lon="10.846964640114676"><ele>672.6666666666667</ele><time>2026-04-04T15:23:09.999Z</time></trkpt><trkpt lat="44.292784801359765" lon="10.84698749062268"><ele>672.3333333333334</ele><time>2026-04-04T15:23:10.999Z</time></trkpt><trkpt lat="44.2927170620127" lon="10.847045600283694"><ele>672.0</ele><time>2026-04-04T15:23:11.999Z</time></trkpt><trkpt lat="44.292637390721545" lon="10.847057652883851"><ele>671.6666666666666</ele><time>2026-04-04T15:23:12.999Z</time></trkpt><trkpt lat="44.29256657615129" lon="10.847122053660621"><ele>671.3333333333333</ele><time>2026-04-04T15:23:13.999Z</time></trkpt><trkpt lat="44.292498752584535" lon="10.847189665501931"><ele>671.0</ele><time>2026-04-04T15:23:14.999Z</time></trkpt><trkpt lat="44.292445109690796" lon="10.84730703969614"><ele>671.0</ele><time>2026-04-04T15:23:15.999Z</time></trkpt><trkpt lat="44.29236702921788" lon="10.847453622377289"><ele>671.0</ele><time>2026-04-04T15:23:16.999Z</time></trkpt><trkpt lat="44.29228902042696" lon="10.847623464347578"><ele>671.0</ele><time>2026-04-04T15:23:17.999Z</time></trkpt><trkpt lat="44.29220689470464" lon="10.847798133165698"><ele>671.0</ele><time>2026-04-04T15:23:18.999Z</time></trkpt><trkpt lat="44.29211003213018" lon="10.847945853721642"><ele>670.0</ele><time>2026-04-04T15:23:19.999Z</time></trkpt><trkpt lat="44.29200020232172" lon="10.848034995084493"><ele>669.0</ele><time>2026-04-04T15:23:20.999Z</time></trkpt><trkpt lat="44.2918630088169" lon="10.84813255340694"><ele>668.0</ele><time>2026-04-04T15:23:21.999Z</time></trkpt><trkpt lat="44.2917130623799" lon="10.848249348251192"><ele>668.0</ele><time>2026-04-04T15:23:22.999Z</time></trkpt><trkpt lat="44.291597335860736" lon="10.848364905874877"><ele>668.0</ele><time>2026-04-04T15:23:23.999Z</time></trkpt><trkpt lat="44.29150081348129" lon="10.848462794727736"><ele>668.0</ele><time>2026-04-04T15:23:24.999Z</time></trkpt><trkpt lat="44.29143084192226" lon="10.848589799400003"><ele>668.0</ele><time>2026-04-04T15:23:25.999Z</time></trkpt><trkpt lat="44.291383371614785" lon="10.84876437097377"><ele>668.6666666666666</ele><time>2026-04-04T15:23:26.999Z</time></trkpt><trkpt lat="44.291322203773234" lon="10.848974150927047"><ele>669.3333333333334</ele><time>2026-04-04T15:23:27.999Z</time></trkpt><trkpt lat="44.29130309537755" lon="10.849205405334528"><ele>670.0</ele><time>2026-04-04T15:23:28.999Z</time></trkpt><trkpt lat="44.29128578334992" lon="10.849403438577182"><ele>670.0</ele><time>2026-04-04T15:23:29.999Z</time></trkpt><trkpt lat="44.291248326316115" lon="10.849564270167768"><ele>670.0</ele><time>2026-04-04T15:23:30.999Z</time></trkpt><trkpt lat="44.29121440710029" lon="10.849720212866663"><ele>670.0</ele><time>2026-04-04T15:23:31.999Z</time></trkpt><trkpt lat="44.29115668623557" lon="10.849827092097131"><ele>670.0</ele><time>2026-04-04T15:23:32.999Z</time></trkpt><trkpt lat="44.29107962229788" lon="10.849910535617942"><ele>670.0</ele><time>2026-04-04T15:23:33.999Z</time></trkpt><trkpt lat="44.29098510660618" lon="10.849992395683545"><ele>670.0</ele><time>2026-04-04T15:23:34.999Z</time></trkpt><trkpt lat="44.290881016604715" lon="10.850089424363967"><ele>670.0</ele><time>2026-04-04T15:23:35.999Z</time></trkpt><trkpt lat="44.29076276583647" lon="10.8501825752174"><ele>670.0</ele><time>2026-04-04T15:23:36.999Z</time></trkpt><trkpt lat="44.290606444726265" lon="10.850279666236233"><ele>670.0</ele><time>2026-04-04T15:23:37.999Z</time></trkpt><trkpt lat="44.29044591284005" lon="10.850359559631947"><ele>676.3333333333334</ele><time>2026-04-04T15:23:38.999Z</time></trkpt><trkpt lat="44.29031727025033" lon="10.85042557307811"><ele>682.6666666666666</ele><time>2026-04-04T15:23:39.999Z</time></trkpt><trkpt lat="44.29018113073466" lon="10.85050803687912"><ele>689.0</ele><time>2026-04-04T15:23:40.999Z</time></trkpt><trkpt lat="44.29002756302925" lon="10.850600295961897"><ele>689.0</ele><time>2026-04-04T15:23:41.999Z</time></trkpt><trkpt lat="44.289871860199334" lon="10.850681308062002"><ele>689.0</ele><time>2026-04-04T15:23:42.999Z</time></trkpt><trkpt lat="44.289756947449334" lon="10.850736795089304"><ele>689.0</ele><time>2026-04-04T15:23:43.999Z</time></trkpt><trkpt lat="44.28967780971976" lon="10.850797341939796"><ele>689.0</ele><time>2026-04-04T15:23:44.999Z</time></trkpt><trkpt lat="44.28960879432228" lon="10.850872626200154"><ele>690.4000000000001</ele><time>2026-04-04T15:23:45.999Z</time></trkpt><trkpt lat="44.28954568977141" lon="10.850936670793766"><ele>691.8</ele><time>2026-04-04T15:23:46.999Z</time></trkpt><trkpt lat="44.289497147283626" lon="10.85101269814306"><ele>693.2</ele><time>2026-04-04T15:23:47.999Z</time></trkpt><trkpt lat="44.289426457271645" lon="10.851091992841335"><ele>694.5999999999999</ele><time>2026-04-04T15:23:48.999Z</time></trkpt><trkpt lat="44.28933931428479" lon="10.851213597066916"><ele>696.0</ele><time>2026-04-04T15:23:49.999Z</time></trkpt><trkpt lat="44.28921583198702" lon="10.851354561771295"><ele>696.0</ele><time>2026-04-04T15:23:50.999Z</time></trkpt><trkpt lat="44.289067742115996" lon="10.85148132830561"><ele>696.0</ele><time>2026-04-04T15:23:51.999Z</time></trkpt><trkpt lat="44.28890275246288" lon="10.851610495226032"><ele>696.0</ele><time>2026-04-04T15:23:52.999Z</time></trkpt><trkpt lat="44.288759312961105" lon="10.851791751303667"><ele>699.25</ele><time>2026-04-04T15:23:53.999Z</time></trkpt><trkpt lat="44.28863520107384" lon="10.851981308228673"><ele>702.5</ele><time>2026-04-04T15:23:54.999Z</time></trkpt><trkpt lat="44.28854332150646" lon="10.852120984103989"><ele>705.75</ele><time>2026-04-04T15:23:55.999Z</time></trkpt><trkpt lat="44.28845778112893" lon="10.852211599342848"><ele>709.0</ele><time>2026-04-04T15:23:56.999Z</time></trkpt><trkpt lat="44.28836382756512" lon="10.852232986108687"><ele>709.0</ele><time>2026-04-04T15:23:57.999Z</time></trkpt><trkpt lat="44.28827681194734" lon="10.852261644633238"><ele>709.0</ele><time>2026-04-04T15:23:58.999Z</time></trkpt><trkpt lat="44.288200890002805" lon="10.852272154064892"><ele>709.0</ele><time>2026-04-04T15:23:59.999Z</time></trkpt><trkpt lat="44.288111632665355" lon="10.852224692316723"><ele>709.0</ele><time>2026-04-04T15:24:01.999Z</time></trkpt><trkpt lat="44.2880817583156" lon="10.85214202345179"><ele>709.0</ele><time>2026-04-04T15:24:02.999Z</time></trkpt><trkpt lat="44.28804286272962" lon="10.852030957289543"><ele>709.0</ele><time>2026-04-04T15:24:03.999Z</time></trkpt><trkpt lat="44.28799928846799" lon="10.851887448072999"><ele>711.25</ele><time>2026-04-04T15:24:04.999Z</time></trkpt><trkpt lat="44.28796639146175" lon="10.851734135979509"><ele>713.5</ele><time>2026-04-04T15:24:05.999Z</time></trkpt><trkpt lat="44.28794742167594" lon="10.851570327369695"><ele>715.75</ele><time>2026-04-04T15:24:06.999Z</time></trkpt><trkpt lat="44.28795586584403" lon="10.851397914615596"><ele>718.0</ele><time>2026-04-04T15:24:07.999Z</time></trkpt><trkpt lat="44.28795200681341" lon="10.851210222516883"><ele>718.0</ele><time>2026-04-04T15:24:08.999Z</time></trkpt><trkpt lat="44.287949323777724" lon="10.85100256117712"><ele>718.0</ele><time>2026-04-04T15:24:09.999Z</time></trkpt><trkpt lat="44.28793784077444" lon="10.85081651464642"><ele>718.0</ele><time>2026-04-04T15:24:10.999Z</time></trkpt><trkpt lat="44.287942067555626" lon="10.850651768643736"><ele>718.0</ele><time>2026-04-04T15:24:11.999Z</time></trkpt><trkpt lat="44.28793550265643" lon="10.850486289771528"><ele>718.8333333333334</ele><time>2026-04-04T15:24:12.999Z</time></trkpt><trkpt lat="44.287909733247915" lon="10.850334289372425"><ele>719.6666666666667</ele><time>2026-04-04T15:24:14Z</time></trkpt><trkpt lat="44.287905649128064" lon="10.85020444997463"><ele>720.5</ele><time>2026-04-04T15:24:15Z</time></trkpt><trkpt lat="44.28790338499188" lon="10.850087414056373"><ele>721.3333333333334</ele><time>2026-04-04T15:24:16Z</time></trkpt><trkpt lat="44.28791691633548" lon="10.849985630165225"><ele>722.1666666666666</ele><time>2026-04-04T15:24:17Z</time></trkpt><trkpt lat="44.287970453353665" lon="10.849907933235745"><ele>723.0</ele><time>2026-04-04T15:24:18Z</time></trkpt><trkpt lat="44.288009590536376" lon="10.849765184453146"><ele>723.0</ele><time>2026-04-04T15:24:20Z</time></trkpt><trkpt lat="44.28803987030568" lon="10.849636602873257"><ele>723.0</ele><time>2026-04-04T15:24:22Z</time></trkpt><trkpt lat="44.28806768392946" lon="10.849549724096983"><ele>723.0</ele><time>2026-04-04T15:24:23Z</time></trkpt><trkpt lat="44.288085899231966" lon="10.849463896917296"><ele>723.0</ele><time>2026-04-04T15:24:24Z</time></trkpt><trkpt lat="44.28811967801118" lon="10.849343390379264"><ele>723.0</ele><time>2026-04-04T15:24:26Z</time></trkpt><trkpt lat="44.288144885846464" lon="10.849227080797561"><ele>723.0</ele><time>2026-04-04T15:25:02Z</time></trkpt><trkpt lat="44.288173775641226" lon="10.849035982755453"><ele>723.2</ele><time>2026-04-04T15:25:04Z</time></trkpt><trkpt lat="44.28821771533221" lon="10.848914943200807"><ele>723.4</ele><time>2026-04-04T15:25:04.999Z</time></trkpt><trkpt lat="44.28824492965485" lon="10.848766080607092"><ele>723.6</ele><time>2026-04-04T15:25:05.999Z</time></trkpt><trkpt lat="44.288255464261695" lon="10.848622739811109"><ele>723.8000000000001</ele><time>2026-04-04T15:25:06.999Z</time></trkpt><trkpt lat="44.28825583503833" lon="10.848466156417148"><ele>724.0</ele><time>2026-04-04T15:25:07.999Z</time></trkpt><trkpt lat="44.28824572685248" lon="10.848296228800137"><ele>724.0</ele><time>2026-04-04T15:25:08.999Z</time></trkpt><trkpt lat="44.28822791548803" lon="10.848134152906127"><ele>724.0</ele><time>2026-04-04T15:25:09.999Z</time></trkpt><trkpt lat="44.28821247602125" lon="10.848015303971568"><ele>724.0</ele><time>2026-04-04T15:25:10.999Z</time></trkpt><trkpt lat="44.28819544302117" lon="10.84789599304043"><ele>724.0</ele><time>2026-04-04T15:25:11.999Z</time></trkpt><trkpt lat="44.28817582218841" lon="10.847758555424342"><ele>724.0</ele><time>2026-04-04T15:25:12.999Z</time></trkpt><trkpt lat="44.28815317020056" lon="10.847599885376964"><ele>725.6666666666667</ele><time>2026-04-04T15:25:13.999Z</time></trkpt><trkpt lat="44.28811187056218" lon="10.847414679095222"><ele>727.3333333333334</ele><time>2026-04-04T15:25:14.999Z</time></trkpt><trkpt lat="44.28810799903074" lon="10.84719214000807"><ele>729.0</ele><time>2026-04-04T15:25:15.999Z</time></trkpt><trkpt lat="44.288098023678366" lon="10.846945951924116"><ele>730.0</ele><time>2026-04-04T15:25:16.999Z</time></trkpt><trkpt lat="44.2880973470398" lon="10.846722511862966"><ele>731.0</ele><time>2026-04-04T15:25:17.999Z</time></trkpt><trkpt lat="44.288097347036405" lon="10.846570940031281"><ele>732.0</ele><time>2026-04-04T15:25:18.999Z</time></trkpt><trkpt lat="44.28809609268818" lon="10.846425473471415"><ele>733.0</ele><time>2026-04-04T15:25:19.999Z</time></trkpt><trkpt lat="44.28809310410758" lon="10.84629764940852"><ele>732.9999999999999</ele><time>2026-04-04T15:25:20.999Z</time></trkpt><trkpt lat="44.288092547032704" lon="10.846182077040506"><ele>733.0</ele><time>2026-04-04T15:25:21.999Z</time></trkpt><trkpt lat="44.28809479627242" lon="10.846068950498566"><ele>733.0</ele><time>2026-04-04T15:25:22.999Z</time></trkpt><trkpt lat="44.28809680281725" lon="10.845976440375784"><ele>733.0</ele><time>2026-04-04T15:25:23.999Z</time></trkpt><trkpt lat="44.288100457954805" lon="10.845883030208384"><ele>733.0</ele><time>2026-04-04T15:25:24.999Z</time></trkpt><trkpt lat="44.288105704863355" lon="10.845789382748443"><ele>732.9999999999999</ele><time>2026-04-04T15:25:25.999Z</time></trkpt><trkpt lat="44.2881155705109" lon="10.845689594047201"><ele>733.0</ele><time>2026-04-04T15:25:26.999Z</time></trkpt><trkpt lat="44.28811554009553" lon="10.845584677433695"><ele>735.1666666666667</ele><time>2026-04-04T15:25:27.999Z</time></trkpt><trkpt lat="44.28815281807493" lon="10.845508549642105"><ele>737.3333333333334</ele><time>2026-04-04T15:25:28.999Z</time></trkpt><trkpt lat="44.28816172130417" lon="10.845413691667904"><ele>739.5</ele><time>2026-04-04T15:25:30.999Z</time></trkpt><trkpt lat="44.28831690533433" lon="10.84544035341989"><ele>741.6666666666666</ele><time>2026-04-04T15:25:31.999Z</time></trkpt><trkpt lat="44.288382211840535" lon="10.845427681274389"><ele>743.8333333333333</ele><time>2026-04-04T15:25:32.999Z</time></trkpt><trkpt lat="44.28845936856948" lon="10.845420361093373"><ele>746.0</ele><time>2026-04-04T15:25:33.999Z</time></trkpt><trkpt lat="44.28853867831591" lon="10.845418875410724"><ele>746.0</ele><time>2026-04-04T15:25:34.999Z</time></trkpt><trkpt lat="44.288623214966925" lon="10.845404957358264"><ele>746.0</ele><time>2026-04-04T15:25:35.999Z</time></trkpt><trkpt lat="44.288715654318544" lon="10.845447360306617"><ele>746.0</ele><time>2026-04-04T15:25:36.999Z</time></trkpt><trkpt lat="44.28884380783744" lon="10.845454557996684"><ele>746.0</ele><time>2026-04-04T15:25:37.999Z</time></trkpt><trkpt lat="44.28896686957228" lon="10.845495461606248"><ele>746.0</ele><time>2026-04-04T15:25:38.999Z</time></trkpt><trkpt lat="44.28907187447414" lon="10.845532209304704"><ele>746.1999999999999</ele><time>2026-04-04T15:25:39.999Z</time></trkpt><trkpt lat="44.289165077005514" lon="10.845589930453492"><ele>746.4</ele><time>2026-04-04T15:25:40.999Z</time></trkpt><trkpt lat="44.28924890215758" lon="10.845661490912567"><ele>746.6</ele><time>2026-04-04T15:25:41.999Z</time></trkpt><trkpt lat="44.28931958031492" lon="10.845723518441675"><ele>746.8</ele><time>2026-04-04T15:25:42.999Z</time></trkpt><trkpt lat="44.2893993879376" lon="10.84575813188845"><ele>747.0</ele><time>2026-04-04T15:25:43.999Z</time></trkpt><trkpt lat="44.28949079963737" lon="10.845735025493228"><ele>747.0</ele><time>2026-04-04T15:25:44.999Z</time></trkpt><trkpt lat="44.28958448498751" lon="10.845678458804143"><ele>747.0</ele><time>2026-04-04T15:25:45.999Z</time></trkpt><trkpt lat="44.28968254498965" lon="10.845630689468404"><ele>747.0</ele><time>2026-04-04T15:25:46.999Z</time></trkpt><trkpt lat="44.289782579693934" lon="10.845597761536991"><ele>747.0</ele><time>2026-04-04T15:25:47.999Z</time></trkpt><trkpt lat="44.289872124455314" lon="10.845551131333128"><ele>747.0</ele><time>2026-04-04T15:25:48.999Z</time></trkpt><trkpt lat="44.28995828499075" lon="10.845491118663972"><ele>746.0</ele><time>2026-04-04T15:25:49.999Z</time></trkpt><trkpt lat="44.290034090206156" lon="10.845422213651789"><ele>745.0</ele><time>2026-04-04T15:25:50.999Z</time></trkpt><trkpt lat="44.290099692976824" lon="10.845354018954135"><ele>744.0</ele><time>2026-04-04T15:25:51.999Z</time></trkpt><trkpt lat="44.29016538216026" lon="10.845264842803612"><ele>743.0</ele><time>2026-04-04T15:25:52.999Z</time></trkpt><trkpt lat="44.29021172844263" lon="10.845149299480127"><ele>742.0</ele><time>2026-04-04T15:25:53.999Z</time></trkpt><trkpt lat="44.29025720047701" lon="10.845026944741395"><ele>743.4000000000001</ele><time>2026-04-04T15:25:54.999Z</time></trkpt><trkpt lat="44.290305143822806" lon="10.84493402158612"><ele>744.8000000000001</ele><time>2026-04-04T15:25:55.999Z</time></trkpt><trkpt lat="44.290358960353174" lon="10.844833004975854"><ele>746.2</ele><time>2026-04-04T15:25:56.999Z</time></trkpt><trkpt lat="44.2904298169211" lon="10.844752134530788"><ele>747.6</ele><time>2026-04-04T15:25:57.999Z</time></trkpt><trkpt lat="44.29052438319048" lon="10.84469051975605"><ele>749.0</ele><time>2026-04-04T15:25:58.999Z</time></trkpt><trkpt lat="44.290607780794964" lon="10.84466474119162"><ele>749.0</ele><time>2026-04-04T15:25:59.999Z</time></trkpt><trkpt lat="44.29069516549682" lon="10.84462385210973"><ele>749.0</ele><time>2026-04-04T15:26:00.999Z</time></trkpt><trkpt lat="44.29078031875583" lon="10.844569535756287"><ele>749.0</ele><time>2026-04-04T15:26:01.999Z</time></trkpt><trkpt lat="44.290865736064504" lon="10.844522706691986"><ele>749.0</ele><time>2026-04-04T15:26:02.999Z</time></trkpt><trkpt lat="44.290953392588854" lon="10.844477414951845"><ele>749.0</ele><time>2026-04-04T15:26:03.999Z</time></trkpt><trkpt lat="44.291042282629014" lon="10.844429339710077"><ele>749.0</ele><time>2026-04-04T15:26:04.999Z</time></trkpt><trkpt lat="44.29112388795803" lon="10.844364378371484"><ele>749.0</ele><time>2026-04-04T15:26:05.999Z</time></trkpt><trkpt lat="44.291195108541366" lon="10.844288766607018"><ele>749.0</ele><time>2026-04-04T15:26:06.999Z</time></trkpt><trkpt lat="44.29127528663671" lon="10.844213330670135"><ele>749.0</ele><time>2026-04-04T15:26:07.999Z</time></trkpt><trkpt lat="44.29135840092917" lon="10.84413785155961"><ele>749.0</ele><time>2026-04-04T15:26:08.999Z</time></trkpt><trkpt lat="44.29144482320899" lon="10.844069272412307"><ele>752.3333333333333</ele><time>2026-04-04T15:26:09.999Z</time></trkpt><trkpt lat="44.2915285495844" lon="10.844010469393842"><ele>755.6666666666666</ele><time>2026-04-04T15:26:10.999Z</time></trkpt><trkpt lat="44.29160988406166" lon="10.843953480980415"><ele>759.0</ele><time>2026-04-04T15:26:11.999Z</time></trkpt><trkpt lat="44.29169319152648" lon="10.843917066746792"><ele>762.3333333333333</ele><time>2026-04-04T15:26:12.999Z</time></trkpt><trkpt lat="44.29177416741518" lon="10.843898975878174"><ele>765.6666666666666</ele><time>2026-04-04T15:26:13.999Z</time></trkpt><trkpt lat="44.29186030276342" lon="10.843883017850153"><ele>769.0</ele><time>2026-04-04T15:26:14.999Z</time></trkpt><trkpt lat="44.29195932994164" lon="10.843881041277443"><ele>769.0</ele><time>2026-04-04T15:26:15.999Z</time></trkpt><trkpt lat="44.2920556949364" lon="10.843896440074127"><ele>769.0</ele><time>2026-04-04T15:26:16.999Z</time></trkpt><trkpt lat="44.29216518403084" lon="10.843927577636528"><ele>769.0</ele><time>2026-04-04T15:26:17.999Z</time></trkpt><trkpt lat="44.292267757255416" lon="10.84397614382166"><ele>769.0</ele><time>2026-04-04T15:26:18.999Z</time></trkpt><trkpt lat="44.29236342373839" lon="10.844042306169671"><ele>769.0</ele><time>2026-04-04T15:26:20Z</time></trkpt><trkpt lat="44.29244349001075" lon="10.844128661019939"><ele>770.5</ele><time>2026-04-04T15:26:21Z</time></trkpt><trkpt lat="44.292520467485595" lon="10.844237998952597"><ele>772.0</ele><time>2026-04-04T15:26:22Z</time></trkpt><trkpt lat="44.292592298666015" lon="10.844375645095973"><ele>773.5</ele><time>2026-04-04T15:26:23Z</time></trkpt><trkpt lat="44.29269738178917" lon="10.844548941269963"><ele>775.0</ele><time>2026-04-04T15:26:24Z</time></trkpt><trkpt lat="44.29279651202477" lon="10.8447276228178"><ele>770.2</ele><time>2026-04-04T15:26:25Z</time></trkpt><trkpt lat="44.29287719842018" lon="10.844832634587524"><ele>765.4</ele><time>2026-04-04T15:26:26Z</time></trkpt><trkpt lat="44.292934786904155" lon="10.844910864192734"><ele>760.5999999999999</ele><time>2026-04-04T15:26:27Z</time></trkpt><trkpt lat="44.29299728671545" lon="10.844956127195852"><ele>755.8</ele><time>2026-04-04T15:26:28Z</time></trkpt><trkpt lat="44.29310412429637" lon="10.844885819553545"><ele>751.0</ele><time>2026-04-04T15:26:30Z</time></trkpt><trkpt lat="44.29308845427146" lon="10.844728730837922"><ele>749.1999999999999</ele><time>2026-04-04T15:26:31Z</time></trkpt><trkpt lat="44.293076096761034" lon="10.844583747666626"><ele>747.4</ele><time>2026-04-04T15:26:32Z</time></trkpt><trkpt lat="44.29304679378758" lon="10.844403420176137"><ele>745.6</ele><time>2026-04-04T15:26:33Z</time></trkpt><trkpt lat="44.29301681949176" lon="10.84423436950225"><ele>743.8</ele><time>2026-04-04T15:26:34Z</time></trkpt><trkpt lat="44.29299745738494" lon="10.844123312969373"><ele>742.0</ele><time>2026-04-04T15:26:35Z</time></trkpt><trkpt lat="44.292978118233975" lon="10.844010389528258"><ele>748.6</ele><time>2026-04-04T15:26:36Z</time></trkpt><trkpt lat="44.292950423382884" lon="10.843830146121947"><ele>755.2</ele><time>2026-04-04T15:26:37Z</time></trkpt><trkpt lat="44.292931504141826" lon="10.843679409121199"><ele>761.8</ele><time>2026-04-04T15:26:38Z</time></trkpt><trkpt lat="44.29291904057893" lon="10.843571515384447"><ele>768.4</ele><time>2026-04-04T15:26:39Z</time></trkpt><trkpt lat="44.292898804949914" lon="10.843396444358866"><ele>775.0</ele><time>2026-04-04T15:26:41Z</time></trkpt><trkpt lat="44.29288260891328" lon="10.84325637552417"><ele>779.6</ele><time>2026-04-04T15:26:42Z</time></trkpt><trkpt lat="44.29285164752183" lon="10.84313240413611"><ele>784.2</ele><time>2026-04-04T15:26:43Z</time></trkpt><trkpt lat="44.29281693111522" lon="10.842935350412406"><ele>788.8</ele><time>2026-04-04T15:26:45Z</time></trkpt><trkpt lat="44.29283141432141" lon="10.84281362772289"><ele>793.4</ele><time>2026-04-04T15:26:46Z</time></trkpt><trkpt lat="44.29282213595056" lon="10.842720572891432"><ele>798.0</ele><time>2026-04-04T15:26:47Z</time></trkpt><trkpt lat="44.29281035875883" lon="10.842595145842807"><ele>800.8</ele><time>2026-04-04T15:26:48Z</time></trkpt><trkpt lat="44.29277528036088" lon="10.842439494373595"><ele>803.5999999999999</ele><time>2026-04-04T15:26:49Z</time></trkpt><trkpt lat="44.29275480688989" lon="10.842274493652424"><ele>806.4000000000001</ele><time>2026-04-04T15:26:50Z</time></trkpt><trkpt lat="44.292733673969984" lon="10.842141991243057"><ele>809.2</ele><time>2026-04-04T15:26:51Z</time></trkpt><trkpt lat="44.292717033596226" lon="10.842056710022492"><ele>812.0</ele><time>2026-04-04T15:26:52Z</time></trkpt><trkpt lat="44.292703814382996" lon="10.841946508981607"><ele>812.75</ele><time>2026-04-04T15:26:53Z</time></trkpt><trkpt lat="44.29267981698404" lon="10.841778024948274"><ele>813.5</ele><time>2026-04-04T15:26:54Z</time></trkpt><trkpt lat="44.29265901555091" lon="10.841583193316021"><ele>814.25</ele><time>2026-04-04T15:26:55Z</time></trkpt><trkpt lat="44.292637185591374" lon="10.84140604750162"><ele>815.0</ele><time>2026-04-04T15:26:56Z</time></trkpt><trkpt lat="44.292645854560156" lon="10.841281352621259"><ele>815.0000000000001</ele><time>2026-04-04T15:26:57Z</time></trkpt><trkpt lat="44.292642982846175" lon="10.841162258115926"><ele>815.0</ele><time>2026-04-04T15:26:58Z</time></trkpt><trkpt lat="44.29264037640091" lon="10.841044851946092"><ele>815.0</ele><time>2026-04-04T15:26:59Z</time></trkpt><trkpt lat="44.292638546894906" lon="10.840928294647176"><ele>815.0</ele><time>2026-04-04T15:27:00Z</time></trkpt><trkpt lat="44.29264090880781" lon="10.840810486862873"><ele>815.0000000000001</ele><time>2026-04-04T15:27:01Z</time></trkpt><trkpt lat="44.29263408680167" lon="10.840692848540172"><ele>815.0</ele><time>2026-04-04T15:27:02Z</time></trkpt><trkpt lat="44.29265709510757" lon="10.840569759330943"><ele>816.1666666666667</ele><time>2026-04-04T15:27:03Z</time></trkpt><trkpt lat="44.29267468700768" lon="10.840452732665991"><ele>817.3333333333334</ele><time>2026-04-04T15:27:04Z</time></trkpt><trkpt lat="44.2926965094415" lon="10.840333978921597"><ele>818.5</ele><time>2026-04-04T15:27:05Z</time></trkpt><trkpt lat="44.29274096779245" lon="10.840240785498173"><ele>819.6666666666667</ele><time>2026-04-04T15:27:06Z</time></trkpt><trkpt lat="44.292791610658455" lon="10.840153907018937"><ele>820.8333333333334</ele><time>2026-04-04T15:27:07Z</time></trkpt><trkpt lat="44.2928598464947" lon="10.840059184388132"><ele>822.0</ele><time>2026-04-04T15:27:08Z</time></trkpt><trkpt lat="44.29292816731991" lon="10.839958939748941"><ele>824.6666666666666</ele><time>2026-04-04T15:27:08.999Z</time></trkpt><trkpt lat="44.2929801514545" lon="10.839878786553546"><ele>827.3333333333333</ele><time>2026-04-04T15:27:09.999Z</time></trkpt><trkpt lat="44.29299736527292" lon="10.83978408279189"><ele>830.0</ele><time>2026-04-04T15:27:10.999Z</time></trkpt><trkpt lat="44.292987591761886" lon="10.839657430712482"><ele>832.6666666666666</ele><time>2026-04-04T15:27:11.999Z</time></trkpt><trkpt lat="44.292967183835664" lon="10.839528862222778"><ele>835.3333333333333</ele><time>2026-04-04T15:27:12.999Z</time></trkpt><trkpt lat="44.29295568836085" lon="10.83940452741471"><ele>838.0</ele><time>2026-04-04T15:27:13.999Z</time></trkpt><trkpt lat="44.29294452268848" lon="10.839282071977498"><ele>838.4285714285713</ele><time>2026-04-04T15:27:14.999Z</time></trkpt><trkpt lat="44.29293730780606" lon="10.839161648516507"><ele>838.8571428571429</ele><time>2026-04-04T15:27:15.999Z</time></trkpt><trkpt lat="44.29294804840906" lon="10.839051652003924"><ele>839.2857142857142</ele><time>2026-04-04T15:27:16.999Z</time></trkpt><trkpt lat="44.29299047200386" lon="10.838979767181396"><ele>839.7142857142857</ele><time>2026-04-04T15:27:17.999Z</time></trkpt><trkpt lat="44.29304375783955" lon="10.838930217096344"><ele>840.1428571428571</ele><time>2026-04-04T15:27:18.999Z</time></trkpt><trkpt lat="44.2931046956286" lon="10.838905898231815"><ele>840.5714285714286</ele><time>2026-04-04T15:27:19.999Z</time></trkpt><trkpt lat="44.29317398933779" lon="10.838893524201161"><ele>841.0</ele><time>2026-04-04T15:27:20.999Z</time></trkpt><trkpt lat="44.29324301514042" lon="10.838877453847486"><ele>837.4999999999999</ele><time>2026-04-04T15:27:21.999Z</time></trkpt><trkpt lat="44.29331486612348" lon="10.838838131818955"><ele>834.0</ele><time>2026-04-04T15:27:22.999Z</time></trkpt><trkpt lat="44.293371572286645" lon="10.838762342832078"><ele>830.5</ele><time>2026-04-04T15:27:23.999Z</time></trkpt><trkpt lat="44.29340822626717" lon="10.838645428115305"><ele>827.0</ele><time>2026-04-04T15:27:24.999Z</time></trkpt><trkpt lat="44.29343532709167" lon="10.838518719686755"><ele>823.4999999999999</ele><time>2026-04-04T15:27:25.999Z</time></trkpt><trkpt lat="44.293480273404676" lon="10.838406289765155"><ele>820.0</ele><time>2026-04-04T15:27:26.999Z</time></trkpt><trkpt lat="44.29349466185765" lon="10.838282235986787"><ele>819.9999999999999</ele><time>2026-04-04T15:27:27.999Z</time></trkpt><trkpt lat="44.29352678193086" lon="10.838177621009056"><ele>820.0</ele><time>2026-04-04T15:27:28.999Z</time></trkpt><trkpt lat="44.29353926057739" lon="10.838066022819875"><ele>820.0</ele><time>2026-04-04T15:27:29.999Z</time></trkpt><trkpt lat="44.2935527139442" lon="10.837938345536795"><ele>820.0</ele><time>2026-04-04T15:27:30.999Z</time></trkpt><trkpt lat="44.293547098840044" lon="10.837814987118861"><ele>819.9999999999999</ele><time>2026-04-04T15:27:31.999Z</time></trkpt><trkpt lat="44.29352851428506" lon="10.837698485750245"><ele>820.0</ele><time>2026-04-04T15:27:32.999Z</time></trkpt><trkpt lat="44.29351281737015" lon="10.837573730653968"><ele>820.8333333333333</ele><time>2026-04-04T15:27:33.999Z</time></trkpt><trkpt lat="44.293473959582826" lon="10.83747393522976"><ele>821.6666666666666</ele><time>2026-04-04T15:27:34.999Z</time></trkpt><trkpt lat="44.293458901725074" lon="10.83735395497058"><ele>822.5</ele><time>2026-04-04T15:27:35.999Z</time></trkpt><trkpt lat="44.29343282787013" lon="10.83724133402409"><ele>823.3333333333333</ele><time>2026-04-04T15:27:36.999Z</time></trkpt><trkpt lat="44.29341125617143" lon="10.837127538965435"><ele>824.1666666666666</ele><time>2026-04-04T15:27:37.999Z</time></trkpt><trkpt lat="44.29338334642432" lon="10.8370225085432"><ele>825.0</ele><time>2026-04-04T15:27:38.999Z</time></trkpt><trkpt lat="44.293421066032685" lon="10.836920518820422"><ele>825.0</ele><time>2026-04-04T15:27:39.999Z</time></trkpt><trkpt lat="44.2934641013063" lon="10.836832090350233"><ele>825.0</ele><time>2026-04-04T15:27:40.999Z</time></trkpt><trkpt lat="44.29353370544269" lon="10.836755213737776"><ele>825.0</ele><time>2026-04-04T15:27:41.999Z</time></trkpt><trkpt lat="44.293572129937836" lon="10.836658964584174"><ele>825.0</ele><time>2026-04-04T15:27:42.999Z</time></trkpt><trkpt lat="44.293616644006136" lon="10.836581586958077"><ele>825.0</ele><time>2026-04-04T15:27:43.999Z</time></trkpt><trkpt lat="44.29363015432116" lon="10.836468998098958"><ele>825.0</ele><time>2026-04-04T15:27:44.999Z</time></trkpt><trkpt lat="44.29363057496589" lon="10.836351805178483"><ele>826.1666666666666</ele><time>2026-04-04T15:27:45.999Z</time></trkpt><trkpt lat="44.29364295979828" lon="10.836235159507117"><ele>827.3333333333333</ele><time>2026-04-04T15:27:46.999Z</time></trkpt><trkpt lat="44.29366640960021" lon="10.836117850412961"><ele>828.5</ele><time>2026-04-04T15:27:47.999Z</time></trkpt><trkpt lat="44.293696721876074" lon="10.8360094032663"><ele>829.6666666666666</ele><time>2026-04-04T15:27:48.999Z</time></trkpt><trkpt lat="44.29373755538287" lon="10.83590771183757"><ele>830.8333333333333</ele><time>2026-04-04T15:27:49.999Z</time></trkpt><trkpt lat="44.293803381024716" lon="10.835824183038905"><ele>832.0</ele><time>2026-04-04T15:27:50.999Z</time></trkpt><trkpt lat="44.29389749958272" lon="10.83577916136115"><ele>831.8</ele><time>2026-04-04T15:27:51.999Z</time></trkpt><trkpt lat="44.29400764089094" lon="10.835769879114546"><ele>831.6</ele><time>2026-04-04T15:27:52.999Z</time></trkpt><trkpt lat="44.29409472835265" lon="10.835770389747852"><ele>831.4</ele><time>2026-04-04T15:27:53.999Z</time></trkpt><trkpt lat="44.2941686493803" lon="10.835705678841485"><ele>831.1999999999999</ele><time>2026-04-04T15:27:54.999Z</time></trkpt><trkpt lat="44.29422279179059" lon="10.835567332491399"><ele>831.0</ele><time>2026-04-04T15:27:55.999Z</time></trkpt><trkpt lat="44.29426960865972" lon="10.835426497968854"><ele>831.0</ele><time>2026-04-04T15:27:56.999Z</time></trkpt><trkpt lat="44.294295867942424" lon="10.835299295656986"><ele>831.0</ele><time>2026-04-04T15:27:57.999Z</time></trkpt><trkpt lat="44.29431929753482" lon="10.835182076131835"><ele>831.0</ele><time>2026-04-04T15:27:58.999Z</time></trkpt><trkpt lat="44.294367299379935" lon="10.835074862333318"><ele>831.0</ele><time>2026-04-04T15:27:59.999Z</time></trkpt><trkpt lat="44.29444981714945" lon="10.83501606018079"><ele>831.0</ele><time>2026-04-04T15:28:00.999Z</time></trkpt><trkpt lat="44.29455164398774" lon="10.834976574305777"><ele>831.5999999999999</ele><time>2026-04-04T15:28:01.999Z</time></trkpt><trkpt lat="44.29462689148602" lon="10.834919454223563"><ele>832.2</ele><time>2026-04-04T15:28:02.999Z</time></trkpt><trkpt lat="44.29467677239178" lon="10.834809296197513"><ele>832.8</ele><time>2026-04-04T15:28:03.999Z</time></trkpt><trkpt lat="44.29470763362297" lon="10.834659689430833"><ele>833.4000000000001</ele><time>2026-04-04T15:28:04.999Z</time></trkpt><trkpt lat="44.29473124140932" lon="10.834476867469206"><ele>834.0</ele><time>2026-04-04T15:28:05.999Z</time></trkpt><trkpt lat="44.29477355820177" lon="10.83426186884726"><ele>834.0</ele><time>2026-04-04T15:28:06.999Z</time></trkpt><trkpt lat="44.29481525554031" lon="10.834052790069103"><ele>834.0</ele><time>2026-04-04T15:28:07.999Z</time></trkpt><trkpt lat="44.29483469237116" lon="10.83391740994444"><ele>834.0</ele><time>2026-04-04T15:28:08.999Z</time></trkpt><trkpt lat="44.29482653700625" lon="10.833764613410695"><ele>834.0</ele><time>2026-04-04T15:28:09.999Z</time></trkpt><trkpt lat="44.294819858138176" lon="10.833600878054424"><ele>834.6</ele><time>2026-04-04T15:28:10.999Z</time></trkpt><trkpt lat="44.29481233450118" lon="10.833453356906437"><ele>835.2</ele><time>2026-04-04T15:28:11.999Z</time></trkpt><trkpt lat="44.294793620581515" lon="10.83331356915611"><ele>835.8000000000001</ele><time>2026-04-04T15:28:12.999Z</time></trkpt><trkpt lat="44.29477220662507" lon="10.833157654656654"><ele>836.4000000000001</ele><time>2026-04-04T15:28:13.999Z</time></trkpt><trkpt lat="44.294760669897336" lon="10.833006991260179"><ele>837.0</ele><time>2026-04-04T15:28:14.999Z</time></trkpt><trkpt lat="44.294748196054584" lon="10.832851952093074"><ele>837.0</ele><time>2026-04-04T15:28:15.999Z</time></trkpt><trkpt lat="44.29477513783604" lon="10.8327032230535"><ele>837.0</ele><time>2026-04-04T15:28:16.999Z</time></trkpt><trkpt lat="44.2947911752509" lon="10.832558558373753"><ele>837.0</ele><time>2026-04-04T15:28:17.999Z</time></trkpt><trkpt lat="44.29481309085751" lon="10.832409324955076"><ele>837.0</ele><time>2026-04-04T15:28:18.999Z</time></trkpt><trkpt lat="44.29483714803663" lon="10.832253096506859"><ele>837.0</ele><time>2026-04-04T15:28:19.999Z</time></trkpt><trkpt lat="44.29486116540621" lon="10.832097005543886"><ele>837.4000000000001</ele><time>2026-04-04T15:28:20.999Z</time></trkpt><trkpt lat="44.294870122425195" lon="10.831945920568694"><ele>837.8000000000001</ele><time>2026-04-04T15:28:21.999Z</time></trkpt><trkpt lat="44.29489446072929" lon="10.831802604333276"><ele>838.2</ele><time>2026-04-04T15:28:22.999Z</time></trkpt><trkpt lat="44.2949182194837" lon="10.8316584124044"><ele>838.6</ele><time>2026-04-04T15:28:23.998Z</time></trkpt><trkpt lat="44.29495939473759" lon="10.8315306228665"><ele>839.0</ele><time>2026-04-04T15:28:25Z</time></trkpt><trkpt lat="44.294994480107526" lon="10.831429895992779"><ele>840.4000000000001</ele><time>2026-04-04T15:28:26Z</time></trkpt><trkpt lat="44.295057318141794" lon="10.831349633366473"><ele>841.8</ele><time>2026-04-04T15:28:27Z</time></trkpt><trkpt lat="44.29513692093487" lon="10.83131762922416"><ele>843.2</ele><time>2026-04-04T15:28:28Z</time></trkpt><trkpt lat="44.29522662806302" lon="10.831330590264889"><ele>844.5999999999999</ele><time>2026-04-04T15:28:29Z</time></trkpt><trkpt lat="44.29532571323057" lon="10.831338881139388"><ele>846.0</ele><time>2026-04-04T15:28:30Z</time></trkpt><trkpt lat="44.295424633226645" lon="10.83135900033121"><ele>846.0</ele><time>2026-04-04T15:28:31Z</time></trkpt><trkpt lat="44.295521016852845" lon="10.831323616209618"><ele>846.0</ele><time>2026-04-04T15:28:32Z</time></trkpt><trkpt lat="44.2956111535725" lon="10.831275786264772"><ele>846.0</ele><time>2026-04-04T15:28:33Z</time></trkpt><trkpt lat="44.29568625309901" lon="10.831208895114122"><ele>846.0</ele><time>2026-04-04T15:28:34Z</time></trkpt><trkpt lat="44.29575122365072" lon="10.83110550315655"><ele>846.0</ele><time>2026-04-04T15:28:35Z</time></trkpt><trkpt lat="44.29581432625317" lon="10.830974535276233"><ele>847.75</ele><time>2026-04-04T15:28:36Z</time></trkpt><trkpt lat="44.295895863245484" lon="10.830852651504982"><ele>849.5</ele><time>2026-04-04T15:28:37Z</time></trkpt><trkpt lat="44.295971134515" lon="10.830728584167765"><ele>851.25</ele><time>2026-04-04T15:28:38Z</time></trkpt><trkpt lat="44.29604576901123" lon="10.830623055097721"><ele>853.0</ele><time>2026-04-04T15:28:39Z</time></trkpt><trkpt lat="44.29612254361875" lon="10.830515804173785"><ele>853.0</ele><time>2026-04-04T15:28:40Z</time></trkpt><trkpt lat="44.296198849738275" lon="10.830417192852268"><ele>853.0</ele><time>2026-04-04T15:28:41Z</time></trkpt><trkpt lat="44.296289137886255" lon="10.830316962257351"><ele>853.0</ele><time>2026-04-04T15:28:42Z</time></trkpt><trkpt lat="44.296377460065216" lon="10.83023197057312"><ele>853.0</ele><time>2026-04-04T15:28:43Z</time></trkpt><trkpt lat="44.29645762130042" lon="10.830154953956905"><ele>853.0</ele><time>2026-04-04T15:28:44Z</time></trkpt><trkpt lat="44.296533319341506" lon="10.830079623028086"><ele>852.8333333333333</ele><time>2026-04-04T15:28:45Z</time></trkpt><trkpt lat="44.29659721275944" lon="10.829984980597676"><ele>852.6666666666666</ele><time>2026-04-04T15:28:46Z</time></trkpt><trkpt lat="44.296660805886006" lon="10.829910288437892"><ele>852.5</ele><time>2026-04-04T15:28:47Z</time></trkpt><trkpt lat="44.29673489468891" lon="10.829855207344545"><ele>852.3333333333333</ele><time>2026-04-04T15:28:48Z</time></trkpt><trkpt lat="44.29679836856099" lon="10.829783550173799"><ele>852.1666666666666</ele><time>2026-04-04T15:28:49Z</time></trkpt><trkpt lat="44.296857541634495" lon="10.829716748229743"><ele>852.0</ele><time>2026-04-04T15:28:50Z</time></trkpt><trkpt lat="44.29690526092732" lon="10.829636344799091"><ele>852.0</ele><time>2026-04-04T15:28:51Z</time></trkpt><trkpt lat="44.29695941412253" lon="10.82958425236737"><ele>852.0</ele><time>2026-04-04T15:28:52Z</time></trkpt><trkpt lat="44.297053434054135" lon="10.82951992168829"><ele>852.0</ele><time>2026-04-04T15:28:54Z</time></trkpt><trkpt lat="44.29710961470223" lon="10.829470222845027"><ele>852.0</ele><time>2026-04-04T15:28:57Z</time></trkpt><trkpt lat="44.29710199896452" lon="10.829296199686443"><ele>852.0</ele><time>2026-04-04T15:28:58Z</time></trkpt><trkpt lat="44.29720869093476" lon="10.82924962959714"><ele>851.4000000000001</ele><time>2026-04-04T15:29:00Z</time></trkpt><trkpt lat="44.297246713673154" lon="10.829161070066494"><ele>850.8000000000001</ele><time>2026-04-04T15:29:02Z</time></trkpt><trkpt lat="44.29721174020729" lon="10.829024217003177"><ele>850.2</ele><time>2026-04-04T15:29:04Z</time></trkpt><trkpt lat="44.29714237184585" lon="10.828920449001298"><ele>849.6</ele><time>2026-04-04T15:29:06Z</time></trkpt><trkpt lat="44.297043231511985" lon="10.828826408820934"><ele>849.0</ele><time>2026-04-04T15:29:08Z</time></trkpt><trkpt lat="44.29695613707545" lon="10.82873121474448"><ele>849.0</ele><time>2026-04-04T15:29:10Z</time></trkpt><trkpt lat="44.296867732483435" lon="10.828677069406385"><ele>849.0</ele><time>2026-04-04T15:29:11.999Z</time></trkpt><trkpt lat="44.296964707949776" lon="10.828461503695252"><ele>841.0</ele><time>2026-04-04T15:29:16.999Z</time></trkpt><trkpt lat="44.29690488049464" lon="10.828392097880771"><ele>841.0</ele><time>2026-04-04T15:29:19.999Z</time></trkpt></trkseg></trk></gpx>